<?xml version="1.0" encoding="UTF-8" standalone="no" ?>
<gpx xmlns="http://www.topografix.com/GPX/1/1" xmlns:xsi="http://www.w3.org/2001/XMLSchema-instance" xsi:schemaLocation="http://www.topografix.com/GPX/1/1 http://www.topografix.com/GPX/1/1/gpx.xsd" version="1.1" creator="VisuGPX - https://www.visugpx.com">
  <metadata>
    <name>Vers Bourron-Marlotte</name>
    <desc><![CDATA[AVF Antony JB Vers Bourron-Marlotte]]></desc>
  </metadata>
  <wpt lat="48.35392" lon="2.72791">
    <ele>92</ele>
    <name><![CDATA[depart et arrivee]]></name>
    <desc><![CDATA[Chemin]]></desc>
    <cmt><![CDATA[Chemin]]></cmt>
  </wpt>
  <wpt lat="48.35783" lon="2.71133">
    <ele>128</ele>
    <name><![CDATA[point picnic]]></name>
    <desc><![CDATA[Route et Chemin]]></desc>
    <cmt><![CDATA[Route et Chemin]]></cmt>
  </wpt>
  <trk>
    <name><![CDATA[Tracé actuel: 05 JUIL 2012 10:22]]></name>
    <trkseg>
      <trkpt lat="48.35403" lon="2.72783">
        <ele>108.29</ele>
        <time>2012-07-05T08:22:32Z</time>
      </trkpt>
      <trkpt lat="48.35403" lon="2.72782">
        <ele>100.11</ele>
        <time>2012-07-05T08:22:35Z</time>
      </trkpt>
      <trkpt lat="48.35403" lon="2.72781">
        <ele>110.21</ele>
        <time>2012-07-05T08:22:36Z</time>
      </trkpt>
      <trkpt lat="48.35403" lon="2.72787">
        <ele>108.29</ele>
        <time>2012-07-05T08:22:51Z</time>
      </trkpt>
      <trkpt lat="48.35404" lon="2.72789">
        <ele>108.29</ele>
        <time>2012-07-05T08:23:08Z</time>
      </trkpt>
      <trkpt lat="48.35401" lon="2.72787">
        <ele>107.81</ele>
        <time>2012-07-05T08:23:31Z</time>
      </trkpt>
      <trkpt lat="48.35401" lon="2.72786">
        <ele>108.29</ele>
        <time>2012-07-05T08:23:47Z</time>
      </trkpt>
      <trkpt lat="48.35401" lon="2.72786">
        <ele>108.77</ele>
        <time>2012-07-05T08:24:01Z</time>
      </trkpt>
      <trkpt lat="48.35401" lon="2.72787">
        <ele>108.77</ele>
        <time>2012-07-05T08:24:10Z</time>
      </trkpt>
      <trkpt lat="48.35401" lon="2.72787">
        <ele>108.29</ele>
        <time>2012-07-05T08:24:23Z</time>
      </trkpt>
      <trkpt lat="48.35401" lon="2.72787">
        <ele>108.29</ele>
        <time>2012-07-05T08:24:44Z</time>
      </trkpt>
      <trkpt lat="48.35401" lon="2.72789">
        <ele>108.29</ele>
        <time>2012-07-05T08:24:56Z</time>
      </trkpt>
      <trkpt lat="48.35396" lon="2.72793">
        <ele>108.77</ele>
        <time>2012-07-05T08:25:02Z</time>
      </trkpt>
      <trkpt lat="48.35384" lon="2.72804">
        <ele>108.77</ele>
        <time>2012-07-05T08:25:15Z</time>
      </trkpt>
      <trkpt lat="48.35381" lon="2.72811">
        <ele>106.36</ele>
        <time>2012-07-05T08:25:21Z</time>
      </trkpt>
      <trkpt lat="48.35375" lon="2.72819">
        <ele>102.52</ele>
        <time>2012-07-05T08:25:29Z</time>
      </trkpt>
      <trkpt lat="48.35373" lon="2.72823">
        <ele>101.08</ele>
        <time>2012-07-05T08:25:32Z</time>
      </trkpt>
      <trkpt lat="48.3537" lon="2.72828">
        <ele>99.63</ele>
        <time>2012-07-05T08:25:36Z</time>
      </trkpt>
      <trkpt lat="48.35365" lon="2.72835">
        <ele>96.27</ele>
        <time>2012-07-05T08:25:45Z</time>
      </trkpt>
      <trkpt lat="48.35365" lon="2.72836">
        <ele>95.79</ele>
        <time>2012-07-05T08:25:46Z</time>
      </trkpt>
      <trkpt lat="48.35358" lon="2.72846">
        <ele>92.9</ele>
        <time>2012-07-05T08:25:56Z</time>
      </trkpt>
      <trkpt lat="48.35348" lon="2.72856">
        <ele>89.06</ele>
        <time>2012-07-05T08:26:10Z</time>
      </trkpt>
      <trkpt lat="48.35345" lon="2.72858">
        <ele>87.14</ele>
        <time>2012-07-05T08:26:16Z</time>
      </trkpt>
      <trkpt lat="48.35338" lon="2.72868">
        <ele>86.18</ele>
        <time>2012-07-05T08:26:27Z</time>
      </trkpt>
      <trkpt lat="48.35332" lon="2.72881">
        <ele>83.77</ele>
        <time>2012-07-05T08:26:39Z</time>
      </trkpt>
      <trkpt lat="48.35325" lon="2.72891">
        <ele>81.85</ele>
        <time>2012-07-05T08:26:51Z</time>
      </trkpt>
      <trkpt lat="48.35313" lon="2.72903">
        <ele>80.89</ele>
        <time>2012-07-05T08:27:03Z</time>
      </trkpt>
      <trkpt lat="48.35307" lon="2.72913">
        <ele>81.37</ele>
        <time>2012-07-05T08:27:16Z</time>
      </trkpt>
      <trkpt lat="48.35299" lon="2.72927">
        <ele>81.85</ele>
        <time>2012-07-05T08:27:28Z</time>
      </trkpt>
      <trkpt lat="48.35291" lon="2.72938">
        <ele>81.85</ele>
        <time>2012-07-05T08:27:40Z</time>
      </trkpt>
      <trkpt lat="48.35278" lon="2.72958">
        <ele>82.33</ele>
        <time>2012-07-05T08:27:53Z</time>
      </trkpt>
      <trkpt lat="48.35263" lon="2.72974">
        <ele>82.81</ele>
        <time>2012-07-05T08:28:05Z</time>
      </trkpt>
      <trkpt lat="48.35249" lon="2.72996">
        <ele>83.77</ele>
        <time>2012-07-05T08:28:18Z</time>
      </trkpt>
      <trkpt lat="48.35237" lon="2.73019">
        <ele>83.77</ele>
        <time>2012-07-05T08:28:33Z</time>
      </trkpt>
      <trkpt lat="48.35227" lon="2.73034">
        <ele>84.73</ele>
        <time>2012-07-05T08:28:45Z</time>
      </trkpt>
      <trkpt lat="48.35222" lon="2.73046">
        <ele>85.21</ele>
        <time>2012-07-05T08:28:55Z</time>
      </trkpt>
      <trkpt lat="48.35214" lon="2.7306">
        <ele>85.69</ele>
        <time>2012-07-05T08:29:03Z</time>
      </trkpt>
      <trkpt lat="48.35203" lon="2.73088">
        <ele>87.14</ele>
        <time>2012-07-05T08:29:16Z</time>
      </trkpt>
      <trkpt lat="48.35194" lon="2.73117">
        <ele>88.1</ele>
        <time>2012-07-05T08:29:32Z</time>
      </trkpt>
      <trkpt lat="48.35191" lon="2.73127">
        <ele>88.58</ele>
        <time>2012-07-05T08:29:40Z</time>
      </trkpt>
      <trkpt lat="48.35181" lon="2.73152">
        <ele>90.02</ele>
        <time>2012-07-05T08:29:53Z</time>
      </trkpt>
      <trkpt lat="48.35181" lon="2.73157">
        <ele>89.54</ele>
        <time>2012-07-05T08:29:55Z</time>
      </trkpt>
      <trkpt lat="48.35175" lon="2.73173">
        <ele>90.5</ele>
        <time>2012-07-05T08:30:08Z</time>
      </trkpt>
      <trkpt lat="48.35171" lon="2.73192">
        <ele>91.46</ele>
        <time>2012-07-05T08:30:19Z</time>
      </trkpt>
      <trkpt lat="48.35169" lon="2.73202">
        <ele>91.46</ele>
        <time>2012-07-05T08:30:26Z</time>
      </trkpt>
      <trkpt lat="48.35165" lon="2.73221">
        <ele>91.94</ele>
        <time>2012-07-05T08:30:39Z</time>
      </trkpt>
      <trkpt lat="48.3516" lon="2.73234">
        <ele>92.9</ele>
        <time>2012-07-05T08:30:51Z</time>
      </trkpt>
      <trkpt lat="48.35156" lon="2.73247">
        <ele>93.39</ele>
        <time>2012-07-05T08:31:03Z</time>
      </trkpt>
      <trkpt lat="48.35154" lon="2.73257">
        <ele>93.87</ele>
        <time>2012-07-05T08:31:14Z</time>
      </trkpt>
      <trkpt lat="48.35147" lon="2.73284">
        <ele>95.31</ele>
        <time>2012-07-05T08:31:28Z</time>
      </trkpt>
      <trkpt lat="48.35143" lon="2.73303">
        <ele>95.79</ele>
        <time>2012-07-05T08:31:38Z</time>
      </trkpt>
      <trkpt lat="48.3514" lon="2.73321">
        <ele>96.27</ele>
        <time>2012-07-05T08:31:48Z</time>
      </trkpt>
      <trkpt lat="48.35136" lon="2.73343">
        <ele>96.27</ele>
        <time>2012-07-05T08:31:59Z</time>
      </trkpt>
      <trkpt lat="48.35138" lon="2.73375">
        <ele>97.23</ele>
        <time>2012-07-05T08:32:11Z</time>
      </trkpt>
      <trkpt lat="48.35134" lon="2.73393">
        <ele>97.71</ele>
        <time>2012-07-05T08:32:23Z</time>
      </trkpt>
      <trkpt lat="48.35133" lon="2.73407">
        <ele>98.19</ele>
        <time>2012-07-05T08:32:34Z</time>
      </trkpt>
      <trkpt lat="48.3513" lon="2.73436">
        <ele>99.15</ele>
        <time>2012-07-05T08:32:49Z</time>
      </trkpt>
      <trkpt lat="48.35131" lon="2.73456">
        <ele>99.63</ele>
        <time>2012-07-05T08:32:59Z</time>
      </trkpt>
      <trkpt lat="48.3513" lon="2.73478">
        <ele>100.11</ele>
        <time>2012-07-05T08:33:12Z</time>
      </trkpt>
      <trkpt lat="48.35129" lon="2.73498">
        <ele>100.6</ele>
        <time>2012-07-05T08:33:24Z</time>
      </trkpt>
      <trkpt lat="48.3513" lon="2.73516">
        <ele>101.56</ele>
        <time>2012-07-05T08:33:35Z</time>
      </trkpt>
      <trkpt lat="48.35128" lon="2.73521">
        <ele>102.52</ele>
        <time>2012-07-05T08:33:51Z</time>
      </trkpt>
      <trkpt lat="48.35125" lon="2.73536">
        <ele>103.48</ele>
        <time>2012-07-05T08:34:03Z</time>
      </trkpt>
      <trkpt lat="48.35123" lon="2.73554">
        <ele>104.44</ele>
        <time>2012-07-05T08:34:13Z</time>
      </trkpt>
      <trkpt lat="48.3512" lon="2.73581">
        <ele>106.36</ele>
        <time>2012-07-05T08:34:24Z</time>
      </trkpt>
      <trkpt lat="48.35114" lon="2.73599">
        <ele>107.32</ele>
        <time>2012-07-05T08:34:35Z</time>
      </trkpt>
      <trkpt lat="48.35113" lon="2.73606">
        <ele>107.32</ele>
        <time>2012-07-05T08:34:49Z</time>
      </trkpt>
      <trkpt lat="48.35114" lon="2.73611">
        <ele>108.77</ele>
        <time>2012-07-05T08:35:02Z</time>
      </trkpt>
      <trkpt lat="48.35114" lon="2.73621">
        <ele>108.77</ele>
        <time>2012-07-05T08:35:14Z</time>
      </trkpt>
      <trkpt lat="48.35114" lon="2.73621">
        <ele>108.29</ele>
        <time>2012-07-05T08:35:25Z</time>
      </trkpt>
      <trkpt lat="48.35129" lon="2.73657">
        <ele>108.29</ele>
        <time>2012-07-05T08:35:36Z</time>
      </trkpt>
      <trkpt lat="48.35132" lon="2.73708">
        <ele>109.25</ele>
        <time>2012-07-05T08:35:47Z</time>
      </trkpt>
      <trkpt lat="48.3511" lon="2.73867">
        <ele>109.73</ele>
        <time>2012-07-05T08:35:53Z</time>
      </trkpt>
      <trkpt lat="48.35118" lon="2.73865">
        <ele>111.17</ele>
        <time>2012-07-05T08:36:04Z</time>
      </trkpt>
      <trkpt lat="48.35124" lon="2.73873">
        <ele>112.13</ele>
        <time>2012-07-05T08:36:14Z</time>
      </trkpt>
      <trkpt lat="48.35127" lon="2.73889">
        <ele>112.61</ele>
        <time>2012-07-05T08:36:27Z</time>
      </trkpt>
      <trkpt lat="48.35134" lon="2.73903">
        <ele>113.09</ele>
        <time>2012-07-05T08:36:38Z</time>
      </trkpt>
      <trkpt lat="48.35132" lon="2.73919">
        <ele>113.09</ele>
        <time>2012-07-05T08:36:49Z</time>
      </trkpt>
      <trkpt lat="48.35134" lon="2.73933">
        <ele>113.09</ele>
        <time>2012-07-05T08:37:01Z</time>
      </trkpt>
      <trkpt lat="48.35134" lon="2.73937">
        <ele>113.57</ele>
        <time>2012-07-05T08:37:04Z</time>
      </trkpt>
      <trkpt lat="48.35138" lon="2.73949">
        <ele>113.57</ele>
        <time>2012-07-05T08:37:14Z</time>
      </trkpt>
      <trkpt lat="48.35138" lon="2.73965">
        <ele>113.09</ele>
        <time>2012-07-05T08:37:26Z</time>
      </trkpt>
      <trkpt lat="48.35136" lon="2.73988">
        <ele>113.09</ele>
        <time>2012-07-05T08:37:40Z</time>
      </trkpt>
      <trkpt lat="48.35135" lon="2.73993">
        <ele>113.09</ele>
        <time>2012-07-05T08:37:54Z</time>
      </trkpt>
      <trkpt lat="48.35135" lon="2.73993">
        <ele>113.09</ele>
        <time>2012-07-05T08:38:10Z</time>
      </trkpt>
      <trkpt lat="48.35134" lon="2.73993">
        <ele>112.61</ele>
        <time>2012-07-05T08:38:27Z</time>
      </trkpt>
      <trkpt lat="48.35135" lon="2.73996">
        <ele>112.61</ele>
        <time>2012-07-05T08:38:47Z</time>
      </trkpt>
      <trkpt lat="48.35136" lon="2.73998">
        <ele>112.61</ele>
        <time>2012-07-05T08:38:53Z</time>
      </trkpt>
      <trkpt lat="48.35151" lon="2.74024">
        <ele>112.13</ele>
        <time>2012-07-05T08:39:06Z</time>
      </trkpt>
      <trkpt lat="48.35156" lon="2.74039">
        <ele>112.61</ele>
        <time>2012-07-05T08:39:17Z</time>
      </trkpt>
      <trkpt lat="48.35169" lon="2.74053">
        <ele>113.09</ele>
        <time>2012-07-05T08:39:29Z</time>
      </trkpt>
      <trkpt lat="48.3517" lon="2.74054">
        <ele>112.61</ele>
        <time>2012-07-05T08:39:42Z</time>
      </trkpt>
      <trkpt lat="48.35184" lon="2.74067">
        <ele>112.61</ele>
        <time>2012-07-05T08:39:54Z</time>
      </trkpt>
      <trkpt lat="48.35184" lon="2.74067">
        <ele>112.13</ele>
        <time>2012-07-05T08:40:09Z</time>
      </trkpt>
      <trkpt lat="48.35184" lon="2.74067">
        <ele>111.65</ele>
        <time>2012-07-05T08:40:22Z</time>
      </trkpt>
      <trkpt lat="48.35183" lon="2.7407">
        <ele>111.17</ele>
        <time>2012-07-05T08:40:35Z</time>
      </trkpt>
      <trkpt lat="48.35185" lon="2.74084">
        <ele>110.69</ele>
        <time>2012-07-05T08:40:46Z</time>
      </trkpt>
      <trkpt lat="48.35187" lon="2.74085">
        <ele>108.77</ele>
        <time>2012-07-05T08:40:58Z</time>
      </trkpt>
      <trkpt lat="48.35187" lon="2.74085">
        <ele>108.29</ele>
        <time>2012-07-05T08:41:11Z</time>
      </trkpt>
      <trkpt lat="48.35187" lon="2.74085">
        <ele>106.36</ele>
        <time>2012-07-05T08:41:24Z</time>
      </trkpt>
      <trkpt lat="48.35188" lon="2.7409">
        <ele>103.96</ele>
        <time>2012-07-05T08:41:38Z</time>
      </trkpt>
      <trkpt lat="48.35188" lon="2.74094">
        <ele>101.56</ele>
        <time>2012-07-05T08:41:52Z</time>
      </trkpt>
      <trkpt lat="48.35188" lon="2.74094">
        <ele>100.11</ele>
        <time>2012-07-05T08:42:03Z</time>
      </trkpt>
      <trkpt lat="48.35188" lon="2.74094">
        <ele>98.67</ele>
        <time>2012-07-05T08:42:17Z</time>
      </trkpt>
      <trkpt lat="48.35187" lon="2.7409">
        <ele>97.71</ele>
        <time>2012-07-05T08:42:34Z</time>
      </trkpt>
      <trkpt lat="48.35187" lon="2.7409">
        <ele>96.75</ele>
        <time>2012-07-05T08:42:58Z</time>
      </trkpt>
      <trkpt lat="48.35188" lon="2.74091">
        <ele>96.27</ele>
        <time>2012-07-05T08:43:14Z</time>
      </trkpt>
      <trkpt lat="48.35188" lon="2.74091">
        <ele>94.83</ele>
        <time>2012-07-05T08:43:28Z</time>
      </trkpt>
      <trkpt lat="48.35182" lon="2.74106">
        <ele>93.39</ele>
        <time>2012-07-05T08:43:57Z</time>
      </trkpt>
      <trkpt lat="48.35179" lon="2.74117">
        <ele>91.94</ele>
        <time>2012-07-05T08:44:23Z</time>
      </trkpt>
      <trkpt lat="48.35179" lon="2.74117">
        <ele>90.98</ele>
        <time>2012-07-05T08:44:51Z</time>
      </trkpt>
      <trkpt lat="48.35178" lon="2.74125">
        <ele>89.54</ele>
        <time>2012-07-05T08:45:16Z</time>
      </trkpt>
      <trkpt lat="48.35177" lon="2.74131">
        <ele>87.62</ele>
        <time>2012-07-05T08:45:48Z</time>
      </trkpt>
      <trkpt lat="48.35174" lon="2.74147">
        <ele>87.62</ele>
        <time>2012-07-05T08:46:11Z</time>
      </trkpt>
      <trkpt lat="48.35183" lon="2.74163">
        <ele>86.66</ele>
        <time>2012-07-05T08:46:25Z</time>
      </trkpt>
      <trkpt lat="48.35231" lon="2.74182">
        <ele>85.21</ele>
        <time>2012-07-05T08:46:36Z</time>
      </trkpt>
      <trkpt lat="48.35245" lon="2.74186">
        <ele>84.73</ele>
        <time>2012-07-05T08:46:48Z</time>
      </trkpt>
      <trkpt lat="48.35252" lon="2.74188">
        <ele>84.73</ele>
        <time>2012-07-05T08:46:51Z</time>
      </trkpt>
      <trkpt lat="48.35286" lon="2.74198">
        <ele>82.81</ele>
        <time>2012-07-05T08:47:05Z</time>
      </trkpt>
      <trkpt lat="48.35296" lon="2.74208">
        <ele>82.33</ele>
        <time>2012-07-05T08:47:11Z</time>
      </trkpt>
      <trkpt lat="48.35314" lon="2.74227">
        <ele>80.89</ele>
        <time>2012-07-05T08:47:26Z</time>
      </trkpt>
      <trkpt lat="48.35326" lon="2.74251">
        <ele>80.41</ele>
        <time>2012-07-05T08:47:39Z</time>
      </trkpt>
      <trkpt lat="48.35328" lon="2.74263">
        <ele>79.93</ele>
        <time>2012-07-05T08:47:45Z</time>
      </trkpt>
      <trkpt lat="48.3533" lon="2.74291">
        <ele>79.45</ele>
        <time>2012-07-05T08:48:01Z</time>
      </trkpt>
      <trkpt lat="48.35339" lon="2.74307">
        <ele>78.97</ele>
        <time>2012-07-05T08:48:14Z</time>
      </trkpt>
      <trkpt lat="48.35357" lon="2.74312">
        <ele>78</ele>
        <time>2012-07-05T08:48:28Z</time>
      </trkpt>
      <trkpt lat="48.35365" lon="2.74333">
        <ele>77.04</ele>
        <time>2012-07-05T08:48:44Z</time>
      </trkpt>
      <trkpt lat="48.35375" lon="2.74359">
        <ele>76.56</ele>
        <time>2012-07-05T08:48:56Z</time>
      </trkpt>
      <trkpt lat="48.3537" lon="2.74377">
        <ele>76.08</ele>
        <time>2012-07-05T08:49:09Z</time>
      </trkpt>
      <trkpt lat="48.35362" lon="2.74413">
        <ele>75.6</ele>
        <time>2012-07-05T08:49:23Z</time>
      </trkpt>
      <trkpt lat="48.35353" lon="2.74444">
        <ele>75.6</ele>
        <time>2012-07-05T08:49:37Z</time>
      </trkpt>
      <trkpt lat="48.35353" lon="2.74448">
        <ele>75.12</ele>
        <time>2012-07-05T08:49:48Z</time>
      </trkpt>
      <trkpt lat="48.35348" lon="2.74467">
        <ele>75.12</ele>
        <time>2012-07-05T08:50:00Z</time>
      </trkpt>
      <trkpt lat="48.35339" lon="2.74498">
        <ele>74.64</ele>
        <time>2012-07-05T08:50:13Z</time>
      </trkpt>
      <trkpt lat="48.35329" lon="2.74535">
        <ele>74.16</ele>
        <time>2012-07-05T08:50:24Z</time>
      </trkpt>
      <trkpt lat="48.35314" lon="2.74579">
        <ele>73.2</ele>
        <time>2012-07-05T08:50:38Z</time>
      </trkpt>
      <trkpt lat="48.3531" lon="2.7459">
        <ele>73.2</ele>
        <time>2012-07-05T08:50:53Z</time>
      </trkpt>
      <trkpt lat="48.35308" lon="2.74598">
        <ele>71.76</ele>
        <time>2012-07-05T08:51:09Z</time>
      </trkpt>
      <trkpt lat="48.35305" lon="2.746">
        <ele>71.27</ele>
        <time>2012-07-05T08:51:22Z</time>
      </trkpt>
      <trkpt lat="48.35287" lon="2.74621">
        <ele>70.79</ele>
        <time>2012-07-05T08:51:38Z</time>
      </trkpt>
      <trkpt lat="48.3528" lon="2.74629">
        <ele>70.79</ele>
        <time>2012-07-05T08:51:47Z</time>
      </trkpt>
      <trkpt lat="48.35258" lon="2.74648">
        <ele>70.31</ele>
        <time>2012-07-05T08:52:01Z</time>
      </trkpt>
      <trkpt lat="48.35239" lon="2.74665">
        <ele>70.31</ele>
        <time>2012-07-05T08:52:13Z</time>
      </trkpt>
      <trkpt lat="48.35209" lon="2.74698">
        <ele>69.83</ele>
        <time>2012-07-05T08:52:28Z</time>
      </trkpt>
      <trkpt lat="48.35188" lon="2.74718">
        <ele>69.35</ele>
        <time>2012-07-05T08:52:44Z</time>
      </trkpt>
      <trkpt lat="48.35174" lon="2.74733">
        <ele>69.35</ele>
        <time>2012-07-05T08:52:57Z</time>
      </trkpt>
      <trkpt lat="48.35154" lon="2.74747">
        <ele>69.83</ele>
        <time>2012-07-05T08:53:12Z</time>
      </trkpt>
      <trkpt lat="48.35145" lon="2.74754">
        <ele>69.83</ele>
        <time>2012-07-05T08:53:19Z</time>
      </trkpt>
      <trkpt lat="48.35136" lon="2.74758">
        <ele>69.83</ele>
        <time>2012-07-05T08:53:26Z</time>
      </trkpt>
      <trkpt lat="48.35117" lon="2.74775">
        <ele>69.83</ele>
        <time>2012-07-05T08:53:43Z</time>
      </trkpt>
      <trkpt lat="48.35102" lon="2.74782">
        <ele>69.83</ele>
        <time>2012-07-05T08:53:57Z</time>
      </trkpt>
      <trkpt lat="48.35085" lon="2.74784">
        <ele>70.31</ele>
        <time>2012-07-05T08:54:10Z</time>
      </trkpt>
      <trkpt lat="48.35083" lon="2.74786">
        <ele>70.79</ele>
        <time>2012-07-05T08:54:24Z</time>
      </trkpt>
      <trkpt lat="48.3508" lon="2.74789">
        <ele>70.31</ele>
        <time>2012-07-05T08:54:45Z</time>
      </trkpt>
      <trkpt lat="48.35083" lon="2.74797">
        <ele>70.31</ele>
        <time>2012-07-05T08:54:58Z</time>
      </trkpt>
      <trkpt lat="48.35087" lon="2.74801">
        <ele>70.31</ele>
        <time>2012-07-05T08:55:01Z</time>
      </trkpt>
      <trkpt lat="48.35092" lon="2.74819">
        <ele>70.79</ele>
        <time>2012-07-05T08:55:14Z</time>
      </trkpt>
      <trkpt lat="48.35093" lon="2.74821">
        <ele>70.79</ele>
        <time>2012-07-05T08:55:15Z</time>
      </trkpt>
      <trkpt lat="48.35099" lon="2.7483">
        <ele>70.79</ele>
        <time>2012-07-05T08:55:23Z</time>
      </trkpt>
      <trkpt lat="48.35106" lon="2.74837">
        <ele>70.79</ele>
        <time>2012-07-05T08:55:33Z</time>
      </trkpt>
      <trkpt lat="48.35116" lon="2.74857">
        <ele>71.27</ele>
        <time>2012-07-05T08:55:44Z</time>
      </trkpt>
      <trkpt lat="48.35123" lon="2.74875">
        <ele>71.27</ele>
        <time>2012-07-05T08:55:57Z</time>
      </trkpt>
      <trkpt lat="48.35124" lon="2.74898">
        <ele>72.24</ele>
        <time>2012-07-05T08:56:10Z</time>
      </trkpt>
      <trkpt lat="48.35123" lon="2.74915">
        <ele>72.72</ele>
        <time>2012-07-05T08:56:23Z</time>
      </trkpt>
      <trkpt lat="48.35129" lon="2.74931">
        <ele>73.2</ele>
        <time>2012-07-05T08:56:33Z</time>
      </trkpt>
      <trkpt lat="48.35136" lon="2.74942">
        <ele>73.68</ele>
        <time>2012-07-05T08:56:40Z</time>
      </trkpt>
      <trkpt lat="48.35145" lon="2.74957">
        <ele>74.16</ele>
        <time>2012-07-05T08:56:52Z</time>
      </trkpt>
      <trkpt lat="48.35148" lon="2.74962">
        <ele>74.64</ele>
        <time>2012-07-05T08:56:55Z</time>
      </trkpt>
      <trkpt lat="48.35168" lon="2.74972">
        <ele>76.08</ele>
        <time>2012-07-05T08:57:07Z</time>
      </trkpt>
      <trkpt lat="48.35177" lon="2.74981">
        <ele>76.56</ele>
        <time>2012-07-05T08:57:22Z</time>
      </trkpt>
      <trkpt lat="48.35179" lon="2.74984">
        <ele>77.04</ele>
        <time>2012-07-05T08:57:36Z</time>
      </trkpt>
      <trkpt lat="48.35179" lon="2.74986">
        <ele>77.04</ele>
        <time>2012-07-05T08:57:37Z</time>
      </trkpt>
      <trkpt lat="48.35188" lon="2.75002">
        <ele>77.52</ele>
        <time>2012-07-05T08:57:50Z</time>
      </trkpt>
      <trkpt lat="48.35188" lon="2.75025">
        <ele>78.97</ele>
        <time>2012-07-05T08:58:05Z</time>
      </trkpt>
      <trkpt lat="48.3519" lon="2.75042">
        <ele>78.97</ele>
        <time>2012-07-05T08:58:19Z</time>
      </trkpt>
      <trkpt lat="48.35192" lon="2.75056">
        <ele>79.45</ele>
        <time>2012-07-05T08:58:32Z</time>
      </trkpt>
      <trkpt lat="48.35187" lon="2.75084">
        <ele>80.89</ele>
        <time>2012-07-05T08:58:45Z</time>
      </trkpt>
      <trkpt lat="48.35187" lon="2.75106">
        <ele>82.33</ele>
        <time>2012-07-05T08:58:56Z</time>
      </trkpt>
      <trkpt lat="48.35186" lon="2.75109">
        <ele>83.29</ele>
        <time>2012-07-05T08:58:59Z</time>
      </trkpt>
      <trkpt lat="48.35187" lon="2.75127">
        <ele>84.73</ele>
        <time>2012-07-05T08:59:10Z</time>
      </trkpt>
      <trkpt lat="48.35189" lon="2.75134">
        <ele>86.66</ele>
        <time>2012-07-05T08:59:24Z</time>
      </trkpt>
      <trkpt lat="48.35198" lon="2.75132">
        <ele>88.58</ele>
        <time>2012-07-05T08:59:35Z</time>
      </trkpt>
      <trkpt lat="48.35206" lon="2.75125">
        <ele>89.06</ele>
        <time>2012-07-05T08:59:52Z</time>
      </trkpt>
      <trkpt lat="48.35215" lon="2.75123">
        <ele>89.06</ele>
        <time>2012-07-05T09:00:05Z</time>
      </trkpt>
      <trkpt lat="48.35229" lon="2.75122">
        <ele>88.58</ele>
        <time>2012-07-05T09:00:20Z</time>
      </trkpt>
      <trkpt lat="48.35231" lon="2.75126">
        <ele>88.1</ele>
        <time>2012-07-05T09:00:23Z</time>
      </trkpt>
      <trkpt lat="48.35243" lon="2.75147">
        <ele>87.62</ele>
        <time>2012-07-05T09:00:37Z</time>
      </trkpt>
      <trkpt lat="48.35246" lon="2.75158">
        <ele>87.14</ele>
        <time>2012-07-05T09:00:50Z</time>
      </trkpt>
      <trkpt lat="48.35247" lon="2.75165">
        <ele>85.21</ele>
        <time>2012-07-05T09:01:05Z</time>
      </trkpt>
      <trkpt lat="48.35249" lon="2.75181">
        <ele>83.29</ele>
        <time>2012-07-05T09:01:16Z</time>
      </trkpt>
      <trkpt lat="48.35254" lon="2.7518">
        <ele>81.37</ele>
        <time>2012-07-05T09:01:29Z</time>
      </trkpt>
      <trkpt lat="48.35257" lon="2.75185">
        <ele>79.45</ele>
        <time>2012-07-05T09:01:44Z</time>
      </trkpt>
      <trkpt lat="48.35263" lon="2.75186">
        <ele>77.04</ele>
        <time>2012-07-05T09:01:59Z</time>
      </trkpt>
      <trkpt lat="48.35269" lon="2.75195">
        <ele>77.04</ele>
        <time>2012-07-05T09:02:14Z</time>
      </trkpt>
      <trkpt lat="48.35269" lon="2.75195">
        <ele>76.08</ele>
        <time>2012-07-05T09:02:32Z</time>
      </trkpt>
      <trkpt lat="48.35274" lon="2.75201">
        <ele>74.64</ele>
        <time>2012-07-05T09:02:48Z</time>
      </trkpt>
      <trkpt lat="48.35288" lon="2.75206">
        <ele>73.68</ele>
        <time>2012-07-05T09:03:01Z</time>
      </trkpt>
      <trkpt lat="48.35296" lon="2.7521">
        <ele>73.2</ele>
        <time>2012-07-05T09:03:13Z</time>
      </trkpt>
      <trkpt lat="48.35302" lon="2.75211">
        <ele>73.2</ele>
        <time>2012-07-05T09:03:24Z</time>
      </trkpt>
      <trkpt lat="48.35304" lon="2.75214">
        <ele>72.72</ele>
        <time>2012-07-05T09:03:34Z</time>
      </trkpt>
      <trkpt lat="48.35324" lon="2.75218">
        <ele>72.72</ele>
        <time>2012-07-05T09:03:45Z</time>
      </trkpt>
      <trkpt lat="48.35328" lon="2.75219">
        <ele>72.72</ele>
        <time>2012-07-05T09:04:02Z</time>
      </trkpt>
      <trkpt lat="48.35328" lon="2.75219">
        <ele>73.2</ele>
        <time>2012-07-05T09:04:27Z</time>
      </trkpt>
      <trkpt lat="48.35328" lon="2.7522">
        <ele>73.68</ele>
        <time>2012-07-05T09:04:55Z</time>
      </trkpt>
      <trkpt lat="48.35326" lon="2.75228">
        <ele>73.68</ele>
        <time>2012-07-05T09:05:14Z</time>
      </trkpt>
      <trkpt lat="48.35319" lon="2.75245">
        <ele>73.68</ele>
        <time>2012-07-05T09:05:23Z</time>
      </trkpt>
      <trkpt lat="48.3532" lon="2.75257">
        <ele>73.68</ele>
        <time>2012-07-05T09:05:29Z</time>
      </trkpt>
      <trkpt lat="48.35327" lon="2.75282">
        <ele>74.16</ele>
        <time>2012-07-05T09:05:44Z</time>
      </trkpt>
      <trkpt lat="48.35321" lon="2.75305">
        <ele>74.64</ele>
        <time>2012-07-05T09:06:00Z</time>
      </trkpt>
      <trkpt lat="48.35315" lon="2.75331">
        <ele>75.6</ele>
        <time>2012-07-05T09:06:13Z</time>
      </trkpt>
      <trkpt lat="48.35307" lon="2.75355">
        <ele>75.6</ele>
        <time>2012-07-05T09:06:27Z</time>
      </trkpt>
      <trkpt lat="48.35303" lon="2.75382">
        <ele>76.56</ele>
        <time>2012-07-05T09:06:42Z</time>
      </trkpt>
      <trkpt lat="48.35302" lon="2.75389">
        <ele>76.08</ele>
        <time>2012-07-05T09:06:45Z</time>
      </trkpt>
      <trkpt lat="48.35295" lon="2.75417">
        <ele>77.04</ele>
        <time>2012-07-05T09:06:59Z</time>
      </trkpt>
      <trkpt lat="48.35286" lon="2.75432">
        <ele>77.52</ele>
        <time>2012-07-05T09:07:06Z</time>
      </trkpt>
      <trkpt lat="48.35281" lon="2.75451">
        <ele>77.52</ele>
        <time>2012-07-05T09:07:19Z</time>
      </trkpt>
      <trkpt lat="48.35274" lon="2.75467">
        <ele>78.97</ele>
        <time>2012-07-05T09:07:29Z</time>
      </trkpt>
      <trkpt lat="48.35271" lon="2.75491">
        <ele>79.93</ele>
        <time>2012-07-05T09:07:40Z</time>
      </trkpt>
      <trkpt lat="48.35269" lon="2.75504">
        <ele>80.41</ele>
        <time>2012-07-05T09:07:52Z</time>
      </trkpt>
      <trkpt lat="48.35272" lon="2.75516">
        <ele>81.37</ele>
        <time>2012-07-05T09:08:03Z</time>
      </trkpt>
      <trkpt lat="48.35273" lon="2.75543">
        <ele>81.37</ele>
        <time>2012-07-05T09:08:15Z</time>
      </trkpt>
      <trkpt lat="48.35267" lon="2.75557">
        <ele>82.33</ele>
        <time>2012-07-05T09:08:26Z</time>
      </trkpt>
      <trkpt lat="48.35263" lon="2.75554">
        <ele>82.81</ele>
        <time>2012-07-05T09:08:37Z</time>
      </trkpt>
      <trkpt lat="48.35254" lon="2.75563">
        <ele>84.25</ele>
        <time>2012-07-05T09:08:50Z</time>
      </trkpt>
      <trkpt lat="48.35234" lon="2.75577">
        <ele>85.69</ele>
        <time>2012-07-05T09:09:06Z</time>
      </trkpt>
      <trkpt lat="48.35216" lon="2.75583">
        <ele>88.1</ele>
        <time>2012-07-05T09:09:23Z</time>
      </trkpt>
      <trkpt lat="48.3521" lon="2.75585">
        <ele>90.02</ele>
        <time>2012-07-05T09:09:37Z</time>
      </trkpt>
      <trkpt lat="48.35194" lon="2.75593">
        <ele>91.46</ele>
        <time>2012-07-05T09:09:51Z</time>
      </trkpt>
      <trkpt lat="48.35178" lon="2.75601">
        <ele>93.39</ele>
        <time>2012-07-05T09:10:08Z</time>
      </trkpt>
      <trkpt lat="48.35166" lon="2.75605">
        <ele>93.87</ele>
        <time>2012-07-05T09:10:21Z</time>
      </trkpt>
      <trkpt lat="48.35154" lon="2.75615">
        <ele>94.83</ele>
        <time>2012-07-05T09:10:33Z</time>
      </trkpt>
      <trkpt lat="48.35149" lon="2.75628">
        <ele>96.27</ele>
        <time>2012-07-05T09:10:44Z</time>
      </trkpt>
      <trkpt lat="48.35142" lon="2.75651">
        <ele>97.71</ele>
        <time>2012-07-05T09:10:56Z</time>
      </trkpt>
      <trkpt lat="48.35141" lon="2.7567">
        <ele>100.6</ele>
        <time>2012-07-05T09:11:10Z</time>
      </trkpt>
      <trkpt lat="48.35143" lon="2.75687">
        <ele>101.08</ele>
        <time>2012-07-05T09:11:22Z</time>
      </trkpt>
      <trkpt lat="48.35144" lon="2.75706">
        <ele>100.6</ele>
        <time>2012-07-05T09:11:34Z</time>
      </trkpt>
      <trkpt lat="48.35139" lon="2.75729">
        <ele>100.6</ele>
        <time>2012-07-05T09:11:44Z</time>
      </trkpt>
      <trkpt lat="48.35144" lon="2.75738">
        <ele>101.08</ele>
        <time>2012-07-05T09:11:56Z</time>
      </trkpt>
      <trkpt lat="48.35144" lon="2.75738">
        <ele>101.08</ele>
        <time>2012-07-05T09:12:17Z</time>
      </trkpt>
      <trkpt lat="48.35148" lon="2.75742">
        <ele>103</ele>
        <time>2012-07-05T09:12:29Z</time>
      </trkpt>
      <trkpt lat="48.35147" lon="2.75758">
        <ele>103.96</ele>
        <time>2012-07-05T09:12:45Z</time>
      </trkpt>
      <trkpt lat="48.3514" lon="2.75766">
        <ele>105.88</ele>
        <time>2012-07-05T09:12:58Z</time>
      </trkpt>
      <trkpt lat="48.35138" lon="2.75776">
        <ele>105.88</ele>
        <time>2012-07-05T09:13:10Z</time>
      </trkpt>
      <trkpt lat="48.35142" lon="2.75791">
        <ele>105.88</ele>
        <time>2012-07-05T09:13:23Z</time>
      </trkpt>
      <trkpt lat="48.35142" lon="2.75803">
        <ele>106.36</ele>
        <time>2012-07-05T09:13:34Z</time>
      </trkpt>
      <trkpt lat="48.35142" lon="2.75819">
        <ele>104.92</ele>
        <time>2012-07-05T09:13:49Z</time>
      </trkpt>
      <trkpt lat="48.35146" lon="2.75841">
        <ele>104.92</ele>
        <time>2012-07-05T09:14:07Z</time>
      </trkpt>
      <trkpt lat="48.35149" lon="2.75852">
        <ele>104.92</ele>
        <time>2012-07-05T09:14:19Z</time>
      </trkpt>
      <trkpt lat="48.35153" lon="2.75865">
        <ele>104.92</ele>
        <time>2012-07-05T09:14:33Z</time>
      </trkpt>
      <trkpt lat="48.35153" lon="2.75875">
        <ele>105.88</ele>
        <time>2012-07-05T09:14:48Z</time>
      </trkpt>
      <trkpt lat="48.35158" lon="2.75886">
        <ele>107.32</ele>
        <time>2012-07-05T09:15:02Z</time>
      </trkpt>
      <trkpt lat="48.35159" lon="2.75892">
        <ele>106.36</ele>
        <time>2012-07-05T09:15:17Z</time>
      </trkpt>
      <trkpt lat="48.35172" lon="2.75905">
        <ele>106.84</ele>
        <time>2012-07-05T09:15:30Z</time>
      </trkpt>
      <trkpt lat="48.35174" lon="2.75923">
        <ele>106.36</ele>
        <time>2012-07-05T09:15:43Z</time>
      </trkpt>
      <trkpt lat="48.35179" lon="2.75949">
        <ele>106.84</ele>
        <time>2012-07-05T09:16:00Z</time>
      </trkpt>
      <trkpt lat="48.35179" lon="2.7595">
        <ele>106.84</ele>
        <time>2012-07-05T09:16:01Z</time>
      </trkpt>
      <trkpt lat="48.3518" lon="2.75953">
        <ele>106.84</ele>
        <time>2012-07-05T09:16:03Z</time>
      </trkpt>
      <trkpt lat="48.35181" lon="2.75968">
        <ele>107.32</ele>
        <time>2012-07-05T09:16:15Z</time>
      </trkpt>
      <trkpt lat="48.35192" lon="2.75987">
        <ele>106.84</ele>
        <time>2012-07-05T09:16:28Z</time>
      </trkpt>
      <trkpt lat="48.35194" lon="2.75998">
        <ele>105.88</ele>
        <time>2012-07-05T09:16:38Z</time>
      </trkpt>
      <trkpt lat="48.352" lon="2.76012">
        <ele>103.96</ele>
        <time>2012-07-05T09:16:51Z</time>
      </trkpt>
      <trkpt lat="48.35201" lon="2.76034">
        <ele>101.56</ele>
        <time>2012-07-05T09:17:08Z</time>
      </trkpt>
      <trkpt lat="48.35208" lon="2.76048">
        <ele>100.11</ele>
        <time>2012-07-05T09:17:22Z</time>
      </trkpt>
      <trkpt lat="48.3521" lon="2.7606">
        <ele>98.19</ele>
        <time>2012-07-05T09:17:33Z</time>
      </trkpt>
      <trkpt lat="48.35218" lon="2.76064">
        <ele>97.71</ele>
        <time>2012-07-05T09:17:45Z</time>
      </trkpt>
      <trkpt lat="48.35227" lon="2.76065">
        <ele>96.27</ele>
        <time>2012-07-05T09:17:56Z</time>
      </trkpt>
      <trkpt lat="48.35227" lon="2.76065">
        <ele>96.27</ele>
        <time>2012-07-05T09:18:17Z</time>
      </trkpt>
      <trkpt lat="48.35227" lon="2.76078">
        <ele>96.27</ele>
        <time>2012-07-05T09:18:35Z</time>
      </trkpt>
      <trkpt lat="48.35226" lon="2.76097">
        <ele>95.79</ele>
        <time>2012-07-05T09:18:48Z</time>
      </trkpt>
      <trkpt lat="48.3523" lon="2.76117">
        <ele>95.31</ele>
        <time>2012-07-05T09:19:00Z</time>
      </trkpt>
      <trkpt lat="48.35228" lon="2.76124">
        <ele>94.83</ele>
        <time>2012-07-05T09:19:04Z</time>
      </trkpt>
      <trkpt lat="48.35224" lon="2.76144">
        <ele>93.87</ele>
        <time>2012-07-05T09:19:19Z</time>
      </trkpt>
      <trkpt lat="48.35222" lon="2.76156">
        <ele>91.94</ele>
        <time>2012-07-05T09:19:29Z</time>
      </trkpt>
      <trkpt lat="48.3522" lon="2.7618">
        <ele>90.5</ele>
        <time>2012-07-05T09:19:41Z</time>
      </trkpt>
      <trkpt lat="48.35218" lon="2.76207">
        <ele>87.62</ele>
        <time>2012-07-05T09:19:56Z</time>
      </trkpt>
      <trkpt lat="48.35218" lon="2.76227">
        <ele>85.21</ele>
        <time>2012-07-05T09:20:11Z</time>
      </trkpt>
      <trkpt lat="48.35217" lon="2.76249">
        <ele>82.81</ele>
        <time>2012-07-05T09:20:28Z</time>
      </trkpt>
      <trkpt lat="48.35216" lon="2.76267">
        <ele>81.37</ele>
        <time>2012-07-05T09:20:40Z</time>
      </trkpt>
      <trkpt lat="48.35214" lon="2.76285">
        <ele>80.41</ele>
        <time>2012-07-05T09:20:52Z</time>
      </trkpt>
      <trkpt lat="48.35213" lon="2.76304">
        <ele>78.48</ele>
        <time>2012-07-05T09:21:06Z</time>
      </trkpt>
      <trkpt lat="48.35211" lon="2.76326">
        <ele>77.04</ele>
        <time>2012-07-05T09:21:17Z</time>
      </trkpt>
      <trkpt lat="48.35209" lon="2.76337">
        <ele>75.12</ele>
        <time>2012-07-05T09:21:31Z</time>
      </trkpt>
      <trkpt lat="48.35204" lon="2.76352">
        <ele>73.68</ele>
        <time>2012-07-05T09:21:44Z</time>
      </trkpt>
      <trkpt lat="48.35204" lon="2.76367">
        <ele>72.24</ele>
        <time>2012-07-05T09:21:58Z</time>
      </trkpt>
      <trkpt lat="48.35207" lon="2.76378">
        <ele>72.24</ele>
        <time>2012-07-05T09:22:15Z</time>
      </trkpt>
      <trkpt lat="48.35217" lon="2.76378">
        <ele>73.2</ele>
        <time>2012-07-05T09:22:30Z</time>
      </trkpt>
      <trkpt lat="48.35228" lon="2.7636">
        <ele>74.16</ele>
        <time>2012-07-05T09:22:45Z</time>
      </trkpt>
      <trkpt lat="48.35232" lon="2.76348">
        <ele>74.16</ele>
        <time>2012-07-05T09:22:54Z</time>
      </trkpt>
      <trkpt lat="48.35232" lon="2.76339">
        <ele>74.64</ele>
        <time>2012-07-05T09:23:08Z</time>
      </trkpt>
      <trkpt lat="48.35231" lon="2.76336">
        <ele>75.6</ele>
        <time>2012-07-05T09:23:22Z</time>
      </trkpt>
      <trkpt lat="48.35234" lon="2.76336">
        <ele>75.12</ele>
        <time>2012-07-05T09:23:34Z</time>
      </trkpt>
      <trkpt lat="48.35238" lon="2.7634">
        <ele>74.64</ele>
        <time>2012-07-05T09:23:47Z</time>
      </trkpt>
      <trkpt lat="48.35238" lon="2.76348">
        <ele>73.2</ele>
        <time>2012-07-05T09:24:00Z</time>
      </trkpt>
      <trkpt lat="48.35234" lon="2.76368">
        <ele>72.72</ele>
        <time>2012-07-05T09:24:17Z</time>
      </trkpt>
      <trkpt lat="48.35234" lon="2.76385">
        <ele>71.27</ele>
        <time>2012-07-05T09:24:33Z</time>
      </trkpt>
      <trkpt lat="48.35232" lon="2.764">
        <ele>71.27</ele>
        <time>2012-07-05T09:24:48Z</time>
      </trkpt>
      <trkpt lat="48.35231" lon="2.76407">
        <ele>70.79</ele>
        <time>2012-07-05T09:25:08Z</time>
      </trkpt>
      <trkpt lat="48.35228" lon="2.76421">
        <ele>69.83</ele>
        <time>2012-07-05T09:25:20Z</time>
      </trkpt>
      <trkpt lat="48.35221" lon="2.7644">
        <ele>68.87</ele>
        <time>2012-07-05T09:25:35Z</time>
      </trkpt>
      <trkpt lat="48.35221" lon="2.76442">
        <ele>68.39</ele>
        <time>2012-07-05T09:25:52Z</time>
      </trkpt>
      <trkpt lat="48.35221" lon="2.76442">
        <ele>64.07</ele>
        <time>2012-07-05T09:25:58Z</time>
      </trkpt>
      <trkpt lat="48.35221" lon="2.76442">
        <ele>68.87</ele>
        <time>2012-07-05T09:25:59Z</time>
      </trkpt>
      <trkpt lat="48.35221" lon="2.76442">
        <ele>72.72</ele>
        <time>2012-07-05T09:26:00Z</time>
      </trkpt>
      <trkpt lat="48.3522" lon="2.76443">
        <ele>68.87</ele>
        <time>2012-07-05T09:26:01Z</time>
      </trkpt>
      <trkpt lat="48.35224" lon="2.76452">
        <ele>68.87</ele>
        <time>2012-07-05T09:26:18Z</time>
      </trkpt>
      <trkpt lat="48.35232" lon="2.76432">
        <ele>70.31</ele>
        <time>2012-07-05T09:26:30Z</time>
      </trkpt>
      <trkpt lat="48.35237" lon="2.76422">
        <ele>70.79</ele>
        <time>2012-07-05T09:26:46Z</time>
      </trkpt>
      <trkpt lat="48.35237" lon="2.76422">
        <ele>70.79</ele>
        <time>2012-07-05T09:27:15Z</time>
      </trkpt>
      <trkpt lat="48.35237" lon="2.76437">
        <ele>69.83</ele>
        <time>2012-07-05T09:27:31Z</time>
      </trkpt>
      <trkpt lat="48.35236" lon="2.76444">
        <ele>69.83</ele>
        <time>2012-07-05T09:27:46Z</time>
      </trkpt>
      <trkpt lat="48.35236" lon="2.76444">
        <ele>69.83</ele>
        <time>2012-07-05T09:28:14Z</time>
      </trkpt>
      <trkpt lat="48.35236" lon="2.76444">
        <ele>70.31</ele>
        <time>2012-07-05T09:28:46Z</time>
      </trkpt>
      <trkpt lat="48.35236" lon="2.76444">
        <ele>70.31</ele>
        <time>2012-07-05T09:29:21Z</time>
      </trkpt>
      <trkpt lat="48.35236" lon="2.76444">
        <ele>70.31</ele>
        <time>2012-07-05T09:29:47Z</time>
      </trkpt>
      <trkpt lat="48.35236" lon="2.76444">
        <ele>70.79</ele>
        <time>2012-07-05T09:30:17Z</time>
      </trkpt>
      <trkpt lat="48.35236" lon="2.76445">
        <ele>71.27</ele>
        <time>2012-07-05T09:30:53Z</time>
      </trkpt>
      <trkpt lat="48.35233" lon="2.76463">
        <ele>70.31</ele>
        <time>2012-07-05T09:31:17Z</time>
      </trkpt>
      <trkpt lat="48.35228" lon="2.76484">
        <ele>69.35</ele>
        <time>2012-07-05T09:31:30Z</time>
      </trkpt>
      <trkpt lat="48.35227" lon="2.76487">
        <ele>69.35</ele>
        <time>2012-07-05T09:31:31Z</time>
      </trkpt>
      <trkpt lat="48.35222" lon="2.76509">
        <ele>68.87</ele>
        <time>2012-07-05T09:31:38Z</time>
      </trkpt>
      <trkpt lat="48.3522" lon="2.76519">
        <ele>68.39</ele>
        <time>2012-07-05T09:31:43Z</time>
      </trkpt>
      <trkpt lat="48.35208" lon="2.7655">
        <ele>67.91</ele>
        <time>2012-07-05T09:31:58Z</time>
      </trkpt>
      <trkpt lat="48.35208" lon="2.76573">
        <ele>67.43</ele>
        <time>2012-07-05T09:32:09Z</time>
      </trkpt>
      <trkpt lat="48.35202" lon="2.76595">
        <ele>67.43</ele>
        <time>2012-07-05T09:32:26Z</time>
      </trkpt>
      <trkpt lat="48.35198" lon="2.76619">
        <ele>67.43</ele>
        <time>2012-07-05T09:32:41Z</time>
      </trkpt>
      <trkpt lat="48.35193" lon="2.76636">
        <ele>67.91</ele>
        <time>2012-07-05T09:32:53Z</time>
      </trkpt>
      <trkpt lat="48.35189" lon="2.76664">
        <ele>67.43</ele>
        <time>2012-07-05T09:33:09Z</time>
      </trkpt>
      <trkpt lat="48.35186" lon="2.76692">
        <ele>67.43</ele>
        <time>2012-07-05T09:33:23Z</time>
      </trkpt>
      <trkpt lat="48.35185" lon="2.76713">
        <ele>67.43</ele>
        <time>2012-07-05T09:33:38Z</time>
      </trkpt>
      <trkpt lat="48.35187" lon="2.76734">
        <ele>67.43</ele>
        <time>2012-07-05T09:33:54Z</time>
      </trkpt>
      <trkpt lat="48.3519" lon="2.76746">
        <ele>67.43</ele>
        <time>2012-07-05T09:34:07Z</time>
      </trkpt>
      <trkpt lat="48.35191" lon="2.76769">
        <ele>66.95</ele>
        <time>2012-07-05T09:34:19Z</time>
      </trkpt>
      <trkpt lat="48.35191" lon="2.76807">
        <ele>67.43</ele>
        <time>2012-07-05T09:34:35Z</time>
      </trkpt>
      <trkpt lat="48.35194" lon="2.76835">
        <ele>67.43</ele>
        <time>2012-07-05T09:34:45Z</time>
      </trkpt>
      <trkpt lat="48.35195" lon="2.76851">
        <ele>66.95</ele>
        <time>2012-07-05T09:34:55Z</time>
      </trkpt>
      <trkpt lat="48.35196" lon="2.76868">
        <ele>67.91</ele>
        <time>2012-07-05T09:35:06Z</time>
      </trkpt>
      <trkpt lat="48.35196" lon="2.76885">
        <ele>66.95</ele>
        <time>2012-07-05T09:35:21Z</time>
      </trkpt>
      <trkpt lat="48.35198" lon="2.76896">
        <ele>66.47</ele>
        <time>2012-07-05T09:35:34Z</time>
      </trkpt>
      <trkpt lat="48.35199" lon="2.76904">
        <ele>66.47</ele>
        <time>2012-07-05T09:35:46Z</time>
      </trkpt>
      <trkpt lat="48.352" lon="2.76916">
        <ele>66.47</ele>
        <time>2012-07-05T09:35:58Z</time>
      </trkpt>
      <trkpt lat="48.35204" lon="2.76962">
        <ele>66.95</ele>
        <time>2012-07-05T09:36:11Z</time>
      </trkpt>
      <trkpt lat="48.35205" lon="2.76978">
        <ele>67.43</ele>
        <time>2012-07-05T09:36:27Z</time>
      </trkpt>
      <trkpt lat="48.35208" lon="2.77001">
        <ele>66.95</ele>
        <time>2012-07-05T09:36:41Z</time>
      </trkpt>
      <trkpt lat="48.35209" lon="2.77029">
        <ele>66.95</ele>
        <time>2012-07-05T09:36:56Z</time>
      </trkpt>
      <trkpt lat="48.3521" lon="2.77056">
        <ele>66.95</ele>
        <time>2012-07-05T09:37:08Z</time>
      </trkpt>
      <trkpt lat="48.35212" lon="2.77081">
        <ele>66.95</ele>
        <time>2012-07-05T09:37:19Z</time>
      </trkpt>
      <trkpt lat="48.35214" lon="2.77109">
        <ele>66.95</ele>
        <time>2012-07-05T09:37:32Z</time>
      </trkpt>
      <trkpt lat="48.35215" lon="2.7714">
        <ele>66.95</ele>
        <time>2012-07-05T09:37:47Z</time>
      </trkpt>
      <trkpt lat="48.35215" lon="2.77173">
        <ele>66.47</ele>
        <time>2012-07-05T09:38:03Z</time>
      </trkpt>
      <trkpt lat="48.3522" lon="2.77198">
        <ele>66.47</ele>
        <time>2012-07-05T09:38:17Z</time>
      </trkpt>
      <trkpt lat="48.35219" lon="2.77208">
        <ele>66.95</ele>
        <time>2012-07-05T09:38:29Z</time>
      </trkpt>
      <trkpt lat="48.35221" lon="2.77248">
        <ele>67.91</ele>
        <time>2012-07-05T09:38:46Z</time>
      </trkpt>
      <trkpt lat="48.35222" lon="2.77274">
        <ele>66.95</ele>
        <time>2012-07-05T09:39:01Z</time>
      </trkpt>
      <trkpt lat="48.35222" lon="2.77289">
        <ele>66.95</ele>
        <time>2012-07-05T09:39:14Z</time>
      </trkpt>
      <trkpt lat="48.35223" lon="2.77299">
        <ele>67.91</ele>
        <time>2012-07-05T09:39:21Z</time>
      </trkpt>
      <trkpt lat="48.35229" lon="2.77308">
        <ele>68.39</ele>
        <time>2012-07-05T09:39:34Z</time>
      </trkpt>
      <trkpt lat="48.3524" lon="2.77299">
        <ele>68.87</ele>
        <time>2012-07-05T09:39:48Z</time>
      </trkpt>
      <trkpt lat="48.35258" lon="2.77284">
        <ele>68.87</ele>
        <time>2012-07-05T09:40:04Z</time>
      </trkpt>
      <trkpt lat="48.35266" lon="2.77274">
        <ele>69.83</ele>
        <time>2012-07-05T09:40:21Z</time>
      </trkpt>
      <trkpt lat="48.35279" lon="2.77262">
        <ele>70.79</ele>
        <time>2012-07-05T09:40:35Z</time>
      </trkpt>
      <trkpt lat="48.35294" lon="2.77259">
        <ele>73.68</ele>
        <time>2012-07-05T09:40:53Z</time>
      </trkpt>
      <trkpt lat="48.35308" lon="2.77258">
        <ele>77.04</ele>
        <time>2012-07-05T09:41:11Z</time>
      </trkpt>
      <trkpt lat="48.35322" lon="2.77251">
        <ele>79.93</ele>
        <time>2012-07-05T09:41:27Z</time>
      </trkpt>
      <trkpt lat="48.35322" lon="2.7725">
        <ele>80.41</ele>
        <time>2012-07-05T09:41:31Z</time>
      </trkpt>
      <trkpt lat="48.35337" lon="2.77244">
        <ele>80.41</ele>
        <time>2012-07-05T09:41:43Z</time>
      </trkpt>
      <trkpt lat="48.35349" lon="2.7725">
        <ele>78.97</ele>
        <time>2012-07-05T09:41:58Z</time>
      </trkpt>
      <trkpt lat="48.35361" lon="2.77249">
        <ele>76.08</ele>
        <time>2012-07-05T09:42:14Z</time>
      </trkpt>
      <trkpt lat="48.35375" lon="2.77249">
        <ele>73.68</ele>
        <time>2012-07-05T09:42:26Z</time>
      </trkpt>
      <trkpt lat="48.35391" lon="2.7724">
        <ele>70.79</ele>
        <time>2012-07-05T09:42:40Z</time>
      </trkpt>
      <trkpt lat="48.35403" lon="2.77222">
        <ele>68.87</ele>
        <time>2012-07-05T09:42:54Z</time>
      </trkpt>
      <trkpt lat="48.35413" lon="2.77208">
        <ele>67.43</ele>
        <time>2012-07-05T09:43:05Z</time>
      </trkpt>
      <trkpt lat="48.35418" lon="2.77193">
        <ele>65.99</ele>
        <time>2012-07-05T09:43:19Z</time>
      </trkpt>
      <trkpt lat="48.35426" lon="2.77176">
        <ele>65.03</ele>
        <time>2012-07-05T09:43:33Z</time>
      </trkpt>
      <trkpt lat="48.35435" lon="2.77157">
        <ele>65.51</ele>
        <time>2012-07-05T09:43:43Z</time>
      </trkpt>
      <trkpt lat="48.35447" lon="2.77135">
        <ele>65.03</ele>
        <time>2012-07-05T09:43:57Z</time>
      </trkpt>
      <trkpt lat="48.3545" lon="2.77128">
        <ele>65.03</ele>
        <time>2012-07-05T09:44:02Z</time>
      </trkpt>
      <trkpt lat="48.35464" lon="2.77108">
        <ele>65.03</ele>
        <time>2012-07-05T09:44:16Z</time>
      </trkpt>
      <trkpt lat="48.35473" lon="2.77093">
        <ele>64.55</ele>
        <time>2012-07-05T09:44:27Z</time>
      </trkpt>
      <trkpt lat="48.35479" lon="2.77081">
        <ele>65.03</ele>
        <time>2012-07-05T09:44:38Z</time>
      </trkpt>
      <trkpt lat="48.35479" lon="2.77076">
        <ele>64.55</ele>
        <time>2012-07-05T09:44:50Z</time>
      </trkpt>
      <trkpt lat="48.35481" lon="2.77077">
        <ele>64.55</ele>
        <time>2012-07-05T09:45:03Z</time>
      </trkpt>
      <trkpt lat="48.35481" lon="2.77098">
        <ele>64.55</ele>
        <time>2012-07-05T09:45:17Z</time>
      </trkpt>
      <trkpt lat="48.35478" lon="2.7712">
        <ele>64.07</ele>
        <time>2012-07-05T09:45:31Z</time>
      </trkpt>
      <trkpt lat="48.35473" lon="2.77143">
        <ele>64.55</ele>
        <time>2012-07-05T09:45:43Z</time>
      </trkpt>
      <trkpt lat="48.35471" lon="2.77162">
        <ele>64.55</ele>
        <time>2012-07-05T09:45:59Z</time>
      </trkpt>
      <trkpt lat="48.35467" lon="2.77177">
        <ele>65.03</ele>
        <time>2012-07-05T09:46:13Z</time>
      </trkpt>
      <trkpt lat="48.35466" lon="2.77196">
        <ele>64.55</ele>
        <time>2012-07-05T09:46:24Z</time>
      </trkpt>
      <trkpt lat="48.35464" lon="2.77215">
        <ele>65.03</ele>
        <time>2012-07-05T09:46:35Z</time>
      </trkpt>
      <trkpt lat="48.35462" lon="2.7724">
        <ele>64.07</ele>
        <time>2012-07-05T09:46:44Z</time>
      </trkpt>
      <trkpt lat="48.35459" lon="2.77276">
        <ele>64.55</ele>
        <time>2012-07-05T09:46:58Z</time>
      </trkpt>
      <trkpt lat="48.35457" lon="2.77295">
        <ele>64.55</ele>
        <time>2012-07-05T09:47:10Z</time>
      </trkpt>
      <trkpt lat="48.35453" lon="2.77315">
        <ele>64.55</ele>
        <time>2012-07-05T09:47:23Z</time>
      </trkpt>
      <trkpt lat="48.3545" lon="2.7734">
        <ele>64.55</ele>
        <time>2012-07-05T09:47:37Z</time>
      </trkpt>
      <trkpt lat="48.35447" lon="2.77362">
        <ele>64.55</ele>
        <time>2012-07-05T09:47:50Z</time>
      </trkpt>
      <trkpt lat="48.35448" lon="2.77367">
        <ele>64.55</ele>
        <time>2012-07-05T09:47:52Z</time>
      </trkpt>
      <trkpt lat="48.35444" lon="2.7739">
        <ele>64.55</ele>
        <time>2012-07-05T09:48:03Z</time>
      </trkpt>
      <trkpt lat="48.35439" lon="2.77419">
        <ele>65.03</ele>
        <time>2012-07-05T09:48:17Z</time>
      </trkpt>
      <trkpt lat="48.35436" lon="2.77438">
        <ele>64.55</ele>
        <time>2012-07-05T09:48:28Z</time>
      </trkpt>
      <trkpt lat="48.35436" lon="2.77458">
        <ele>64.55</ele>
        <time>2012-07-05T09:48:40Z</time>
      </trkpt>
      <trkpt lat="48.3543" lon="2.77473">
        <ele>65.03</ele>
        <time>2012-07-05T09:48:51Z</time>
      </trkpt>
      <trkpt lat="48.35427" lon="2.77486">
        <ele>65.03</ele>
        <time>2012-07-05T09:49:03Z</time>
      </trkpt>
      <trkpt lat="48.35429" lon="2.77488">
        <ele>64.55</ele>
        <time>2012-07-05T09:49:16Z</time>
      </trkpt>
      <trkpt lat="48.35446" lon="2.77502">
        <ele>64.07</ele>
        <time>2012-07-05T09:49:29Z</time>
      </trkpt>
      <trkpt lat="48.35459" lon="2.77509">
        <ele>63.58</ele>
        <time>2012-07-05T09:49:45Z</time>
      </trkpt>
      <trkpt lat="48.35485" lon="2.77508">
        <ele>63.58</ele>
        <time>2012-07-05T09:50:00Z</time>
      </trkpt>
      <trkpt lat="48.35503" lon="2.7751">
        <ele>63.1</ele>
        <time>2012-07-05T09:50:15Z</time>
      </trkpt>
      <trkpt lat="48.35507" lon="2.7751">
        <ele>63.1</ele>
        <time>2012-07-05T09:50:17Z</time>
      </trkpt>
      <trkpt lat="48.35526" lon="2.77513">
        <ele>63.1</ele>
        <time>2012-07-05T09:50:32Z</time>
      </trkpt>
      <trkpt lat="48.35544" lon="2.77515">
        <ele>63.1</ele>
        <time>2012-07-05T09:50:48Z</time>
      </trkpt>
      <trkpt lat="48.35565" lon="2.77516">
        <ele>63.1</ele>
        <time>2012-07-05T09:51:04Z</time>
      </trkpt>
      <trkpt lat="48.35582" lon="2.77518">
        <ele>63.58</ele>
        <time>2012-07-05T09:51:18Z</time>
      </trkpt>
      <trkpt lat="48.35598" lon="2.77521">
        <ele>63.1</ele>
        <time>2012-07-05T09:51:32Z</time>
      </trkpt>
      <trkpt lat="48.35617" lon="2.77523">
        <ele>63.1</ele>
        <time>2012-07-05T09:51:51Z</time>
      </trkpt>
      <trkpt lat="48.35637" lon="2.77525">
        <ele>63.1</ele>
        <time>2012-07-05T09:52:05Z</time>
      </trkpt>
      <trkpt lat="48.35649" lon="2.77529">
        <ele>62.62</ele>
        <time>2012-07-05T09:52:19Z</time>
      </trkpt>
      <trkpt lat="48.35667" lon="2.7753">
        <ele>62.62</ele>
        <time>2012-07-05T09:52:34Z</time>
      </trkpt>
      <trkpt lat="48.35681" lon="2.77532">
        <ele>62.62</ele>
        <time>2012-07-05T09:52:48Z</time>
      </trkpt>
      <trkpt lat="48.35695" lon="2.77531">
        <ele>62.62</ele>
        <time>2012-07-05T09:52:59Z</time>
      </trkpt>
      <trkpt lat="48.35701" lon="2.77533">
        <ele>62.62</ele>
        <time>2012-07-05T09:53:03Z</time>
      </trkpt>
      <trkpt lat="48.3572" lon="2.77534">
        <ele>62.62</ele>
        <time>2012-07-05T09:53:17Z</time>
      </trkpt>
      <trkpt lat="48.3574" lon="2.77535">
        <ele>62.62</ele>
        <time>2012-07-05T09:53:31Z</time>
      </trkpt>
      <trkpt lat="48.35764" lon="2.77539">
        <ele>63.1</ele>
        <time>2012-07-05T09:53:48Z</time>
      </trkpt>
      <trkpt lat="48.35779" lon="2.7754">
        <ele>63.1</ele>
        <time>2012-07-05T09:54:04Z</time>
      </trkpt>
      <trkpt lat="48.35793" lon="2.77543">
        <ele>63.1</ele>
        <time>2012-07-05T09:54:19Z</time>
      </trkpt>
      <trkpt lat="48.35805" lon="2.77548">
        <ele>62.14</ele>
        <time>2012-07-05T09:54:33Z</time>
      </trkpt>
      <trkpt lat="48.35829" lon="2.77547">
        <ele>62.62</ele>
        <time>2012-07-05T09:54:45Z</time>
      </trkpt>
      <trkpt lat="48.35848" lon="2.77546">
        <ele>62.62</ele>
        <time>2012-07-05T09:54:59Z</time>
      </trkpt>
      <trkpt lat="48.35867" lon="2.77549">
        <ele>62.62</ele>
        <time>2012-07-05T09:55:13Z</time>
      </trkpt>
      <trkpt lat="48.35892" lon="2.7755">
        <ele>63.1</ele>
        <time>2012-07-05T09:55:28Z</time>
      </trkpt>
      <trkpt lat="48.3591" lon="2.77553">
        <ele>63.58</ele>
        <time>2012-07-05T09:55:42Z</time>
      </trkpt>
      <trkpt lat="48.35925" lon="2.77556">
        <ele>63.58</ele>
        <time>2012-07-05T09:55:54Z</time>
      </trkpt>
      <trkpt lat="48.3594" lon="2.77557">
        <ele>63.58</ele>
        <time>2012-07-05T09:56:09Z</time>
      </trkpt>
      <trkpt lat="48.35954" lon="2.77561">
        <ele>63.58</ele>
        <time>2012-07-05T09:56:23Z</time>
      </trkpt>
      <trkpt lat="48.35976" lon="2.77562">
        <ele>63.58</ele>
        <time>2012-07-05T09:56:36Z</time>
      </trkpt>
      <trkpt lat="48.35985" lon="2.77562">
        <ele>64.07</ele>
        <time>2012-07-05T09:56:51Z</time>
      </trkpt>
      <trkpt lat="48.36" lon="2.77562">
        <ele>64.07</ele>
        <time>2012-07-05T09:57:06Z</time>
      </trkpt>
      <trkpt lat="48.36001" lon="2.77563">
        <ele>64.07</ele>
        <time>2012-07-05T09:57:29Z</time>
      </trkpt>
      <trkpt lat="48.36004" lon="2.77565">
        <ele>64.07</ele>
        <time>2012-07-05T09:57:46Z</time>
      </trkpt>
      <trkpt lat="48.36029" lon="2.77568">
        <ele>64.07</ele>
        <time>2012-07-05T09:58:00Z</time>
      </trkpt>
      <trkpt lat="48.36039" lon="2.77569">
        <ele>64.07</ele>
        <time>2012-07-05T09:58:06Z</time>
      </trkpt>
      <trkpt lat="48.36058" lon="2.77569">
        <ele>64.55</ele>
        <time>2012-07-05T09:58:20Z</time>
      </trkpt>
      <trkpt lat="48.3606" lon="2.77569">
        <ele>64.55</ele>
        <time>2012-07-05T09:58:21Z</time>
      </trkpt>
      <trkpt lat="48.36074" lon="2.77571">
        <ele>64.55</ele>
        <time>2012-07-05T09:58:33Z</time>
      </trkpt>
      <trkpt lat="48.36094" lon="2.77573">
        <ele>65.03</ele>
        <time>2012-07-05T09:58:45Z</time>
      </trkpt>
      <trkpt lat="48.36111" lon="2.77574">
        <ele>65.51</ele>
        <time>2012-07-05T09:58:59Z</time>
      </trkpt>
      <trkpt lat="48.36128" lon="2.77574">
        <ele>65.99</ele>
        <time>2012-07-05T09:59:12Z</time>
      </trkpt>
      <trkpt lat="48.36149" lon="2.77579">
        <ele>66.47</ele>
        <time>2012-07-05T09:59:27Z</time>
      </trkpt>
      <trkpt lat="48.36166" lon="2.77579">
        <ele>66.47</ele>
        <time>2012-07-05T09:59:42Z</time>
      </trkpt>
      <trkpt lat="48.36176" lon="2.77582">
        <ele>66.95</ele>
        <time>2012-07-05T09:59:54Z</time>
      </trkpt>
      <trkpt lat="48.36196" lon="2.77583">
        <ele>66.95</ele>
        <time>2012-07-05T10:00:08Z</time>
      </trkpt>
      <trkpt lat="48.36217" lon="2.77585">
        <ele>67.43</ele>
        <time>2012-07-05T10:00:22Z</time>
      </trkpt>
      <trkpt lat="48.36231" lon="2.77588">
        <ele>67.91</ele>
        <time>2012-07-05T10:00:34Z</time>
      </trkpt>
      <trkpt lat="48.36254" lon="2.7759">
        <ele>68.39</ele>
        <time>2012-07-05T10:00:52Z</time>
      </trkpt>
      <trkpt lat="48.36269" lon="2.77591">
        <ele>68.39</ele>
        <time>2012-07-05T10:01:05Z</time>
      </trkpt>
      <trkpt lat="48.3627" lon="2.77592">
        <ele>68.39</ele>
        <time>2012-07-05T10:01:06Z</time>
      </trkpt>
      <trkpt lat="48.36291" lon="2.77596">
        <ele>68.39</ele>
        <time>2012-07-05T10:01:21Z</time>
      </trkpt>
      <trkpt lat="48.36299" lon="2.77595">
        <ele>68.87</ele>
        <time>2012-07-05T10:01:27Z</time>
      </trkpt>
      <trkpt lat="48.36315" lon="2.77597">
        <ele>69.83</ele>
        <time>2012-07-05T10:01:41Z</time>
      </trkpt>
      <trkpt lat="48.36334" lon="2.77599">
        <ele>69.83</ele>
        <time>2012-07-05T10:01:55Z</time>
      </trkpt>
      <trkpt lat="48.36343" lon="2.776">
        <ele>69.83</ele>
        <time>2012-07-05T10:02:06Z</time>
      </trkpt>
      <trkpt lat="48.36364" lon="2.77603">
        <ele>70.79</ele>
        <time>2012-07-05T10:02:23Z</time>
      </trkpt>
      <trkpt lat="48.36369" lon="2.77604">
        <ele>70.31</ele>
        <time>2012-07-05T10:02:38Z</time>
      </trkpt>
      <trkpt lat="48.36369" lon="2.77604">
        <ele>70.79</ele>
        <time>2012-07-05T10:03:09Z</time>
      </trkpt>
      <trkpt lat="48.36369" lon="2.77604">
        <ele>71.27</ele>
        <time>2012-07-05T10:03:33Z</time>
      </trkpt>
      <trkpt lat="48.36382" lon="2.77603">
        <ele>71.27</ele>
        <time>2012-07-05T10:03:44Z</time>
      </trkpt>
      <trkpt lat="48.36402" lon="2.77604">
        <ele>71.76</ele>
        <time>2012-07-05T10:03:58Z</time>
      </trkpt>
      <trkpt lat="48.36423" lon="2.77607">
        <ele>71.76</ele>
        <time>2012-07-05T10:04:14Z</time>
      </trkpt>
      <trkpt lat="48.36438" lon="2.77607">
        <ele>72.24</ele>
        <time>2012-07-05T10:04:27Z</time>
      </trkpt>
      <trkpt lat="48.36455" lon="2.77611">
        <ele>72.24</ele>
        <time>2012-07-05T10:04:40Z</time>
      </trkpt>
      <trkpt lat="48.36473" lon="2.77613">
        <ele>73.2</ele>
        <time>2012-07-05T10:04:55Z</time>
      </trkpt>
      <trkpt lat="48.3649" lon="2.77611">
        <ele>73.68</ele>
        <time>2012-07-05T10:05:09Z</time>
      </trkpt>
      <trkpt lat="48.36508" lon="2.77616">
        <ele>74.16</ele>
        <time>2012-07-05T10:05:25Z</time>
      </trkpt>
      <trkpt lat="48.36526" lon="2.77617">
        <ele>74.16</ele>
        <time>2012-07-05T10:05:38Z</time>
      </trkpt>
      <trkpt lat="48.36546" lon="2.7762">
        <ele>75.12</ele>
        <time>2012-07-05T10:05:54Z</time>
      </trkpt>
      <trkpt lat="48.36567" lon="2.77621">
        <ele>75.12</ele>
        <time>2012-07-05T10:06:07Z</time>
      </trkpt>
      <trkpt lat="48.36586" lon="2.77623">
        <ele>75.12</ele>
        <time>2012-07-05T10:06:21Z</time>
      </trkpt>
      <trkpt lat="48.36601" lon="2.77626">
        <ele>76.08</ele>
        <time>2012-07-05T10:06:34Z</time>
      </trkpt>
      <trkpt lat="48.3661" lon="2.77631">
        <ele>76.56</ele>
        <time>2012-07-05T10:06:47Z</time>
      </trkpt>
      <trkpt lat="48.36631" lon="2.77627">
        <ele>77.04</ele>
        <time>2012-07-05T10:07:00Z</time>
      </trkpt>
      <trkpt lat="48.36652" lon="2.7763">
        <ele>77.04</ele>
        <time>2012-07-05T10:07:15Z</time>
      </trkpt>
      <trkpt lat="48.36671" lon="2.77631">
        <ele>77.52</ele>
        <time>2012-07-05T10:07:29Z</time>
      </trkpt>
      <trkpt lat="48.36684" lon="2.77632">
        <ele>77.52</ele>
        <time>2012-07-05T10:07:41Z</time>
      </trkpt>
      <trkpt lat="48.36695" lon="2.77635">
        <ele>78</ele>
        <time>2012-07-05T10:07:57Z</time>
      </trkpt>
      <trkpt lat="48.367" lon="2.77634">
        <ele>77.52</ele>
        <time>2012-07-05T10:08:18Z</time>
      </trkpt>
      <trkpt lat="48.36717" lon="2.77636">
        <ele>78</ele>
        <time>2012-07-05T10:08:32Z</time>
      </trkpt>
      <trkpt lat="48.36736" lon="2.77638">
        <ele>78.48</ele>
        <time>2012-07-05T10:08:47Z</time>
      </trkpt>
      <trkpt lat="48.36758" lon="2.7764">
        <ele>78.97</ele>
        <time>2012-07-05T10:09:06Z</time>
      </trkpt>
      <trkpt lat="48.36771" lon="2.77642">
        <ele>80.41</ele>
        <time>2012-07-05T10:09:21Z</time>
      </trkpt>
      <trkpt lat="48.36777" lon="2.7765">
        <ele>81.85</ele>
        <time>2012-07-05T10:09:38Z</time>
      </trkpt>
      <trkpt lat="48.36789" lon="2.77656">
        <ele>83.29</ele>
        <time>2012-07-05T10:09:52Z</time>
      </trkpt>
      <trkpt lat="48.36807" lon="2.77657">
        <ele>84.73</ele>
        <time>2012-07-05T10:10:05Z</time>
      </trkpt>
      <trkpt lat="48.36843" lon="2.77653">
        <ele>85.69</ele>
        <time>2012-07-05T10:10:18Z</time>
      </trkpt>
      <trkpt lat="48.36866" lon="2.77654">
        <ele>83.77</ele>
        <time>2012-07-05T10:10:32Z</time>
      </trkpt>
      <trkpt lat="48.3688" lon="2.77654">
        <ele>82.81</ele>
        <time>2012-07-05T10:10:46Z</time>
      </trkpt>
      <trkpt lat="48.36883" lon="2.77655">
        <ele>82.33</ele>
        <time>2012-07-05T10:11:02Z</time>
      </trkpt>
      <trkpt lat="48.36883" lon="2.77655">
        <ele>82.33</ele>
        <time>2012-07-05T10:11:28Z</time>
      </trkpt>
      <trkpt lat="48.36885" lon="2.7765">
        <ele>82.33</ele>
        <time>2012-07-05T10:11:33Z</time>
      </trkpt>
      <trkpt lat="48.36889" lon="2.77623">
        <ele>80.89</ele>
        <time>2012-07-05T10:11:46Z</time>
      </trkpt>
      <trkpt lat="48.36894" lon="2.77602">
        <ele>80.89</ele>
        <time>2012-07-05T10:11:59Z</time>
      </trkpt>
      <trkpt lat="48.36897" lon="2.77583">
        <ele>80.41</ele>
        <time>2012-07-05T10:12:12Z</time>
      </trkpt>
      <trkpt lat="48.369" lon="2.77576">
        <ele>79.93</ele>
        <time>2012-07-05T10:12:21Z</time>
      </trkpt>
      <trkpt lat="48.36903" lon="2.77568">
        <ele>80.41</ele>
        <time>2012-07-05T10:12:26Z</time>
      </trkpt>
      <trkpt lat="48.36907" lon="2.77558">
        <ele>79.93</ele>
        <time>2012-07-05T10:12:30Z</time>
      </trkpt>
      <trkpt lat="48.36918" lon="2.77524">
        <ele>79.45</ele>
        <time>2012-07-05T10:12:44Z</time>
      </trkpt>
      <trkpt lat="48.3692" lon="2.77505">
        <ele>79.45</ele>
        <time>2012-07-05T10:12:55Z</time>
      </trkpt>
      <trkpt lat="48.36924" lon="2.77486">
        <ele>79.93</ele>
        <time>2012-07-05T10:13:06Z</time>
      </trkpt>
      <trkpt lat="48.36926" lon="2.77482">
        <ele>79.93</ele>
        <time>2012-07-05T10:13:09Z</time>
      </trkpt>
      <trkpt lat="48.36932" lon="2.77462">
        <ele>78.97</ele>
        <time>2012-07-05T10:13:20Z</time>
      </trkpt>
      <trkpt lat="48.3694" lon="2.77436">
        <ele>80.41</ele>
        <time>2012-07-05T10:13:35Z</time>
      </trkpt>
      <trkpt lat="48.36946" lon="2.77419">
        <ele>79.93</ele>
        <time>2012-07-05T10:13:46Z</time>
      </trkpt>
      <trkpt lat="48.36951" lon="2.77404">
        <ele>79.93</ele>
        <time>2012-07-05T10:13:55Z</time>
      </trkpt>
      <trkpt lat="48.3695" lon="2.77395">
        <ele>79.93</ele>
        <time>2012-07-05T10:14:00Z</time>
      </trkpt>
      <trkpt lat="48.36951" lon="2.77391">
        <ele>79.93</ele>
        <time>2012-07-05T10:14:02Z</time>
      </trkpt>
      <trkpt lat="48.3696" lon="2.77362">
        <ele>80.41</ele>
        <time>2012-07-05T10:14:16Z</time>
      </trkpt>
      <trkpt lat="48.36961" lon="2.77358">
        <ele>80.41</ele>
        <time>2012-07-05T10:14:19Z</time>
      </trkpt>
      <trkpt lat="48.36969" lon="2.77334">
        <ele>78.97</ele>
        <time>2012-07-05T10:14:32Z</time>
      </trkpt>
      <trkpt lat="48.36973" lon="2.7732">
        <ele>78</ele>
        <time>2012-07-05T10:14:44Z</time>
      </trkpt>
      <trkpt lat="48.36977" lon="2.77298">
        <ele>78.97</ele>
        <time>2012-07-05T10:14:54Z</time>
      </trkpt>
      <trkpt lat="48.36978" lon="2.77291">
        <ele>78.48</ele>
        <time>2012-07-05T10:14:57Z</time>
      </trkpt>
      <trkpt lat="48.36983" lon="2.77269">
        <ele>78.48</ele>
        <time>2012-07-05T10:15:11Z</time>
      </trkpt>
      <trkpt lat="48.36988" lon="2.77252">
        <ele>78.48</ele>
        <time>2012-07-05T10:15:22Z</time>
      </trkpt>
      <trkpt lat="48.36988" lon="2.7725">
        <ele>78.48</ele>
        <time>2012-07-05T10:15:36Z</time>
      </trkpt>
      <trkpt lat="48.36988" lon="2.7725">
        <ele>78</ele>
        <time>2012-07-05T10:15:55Z</time>
      </trkpt>
      <trkpt lat="48.3699" lon="2.7725">
        <ele>77.52</ele>
        <time>2012-07-05T10:16:17Z</time>
      </trkpt>
      <trkpt lat="48.36994" lon="2.77251">
        <ele>77.52</ele>
        <time>2012-07-05T10:16:31Z</time>
      </trkpt>
      <trkpt lat="48.36994" lon="2.77241">
        <ele>77.04</ele>
        <time>2012-07-05T10:16:42Z</time>
      </trkpt>
      <trkpt lat="48.36994" lon="2.77215">
        <ele>77.52</ele>
        <time>2012-07-05T10:16:56Z</time>
      </trkpt>
      <trkpt lat="48.36998" lon="2.77187">
        <ele>76.56</ele>
        <time>2012-07-05T10:17:09Z</time>
      </trkpt>
      <trkpt lat="48.36998" lon="2.77185">
        <ele>76.56</ele>
        <time>2012-07-05T10:17:11Z</time>
      </trkpt>
      <trkpt lat="48.37001" lon="2.7716">
        <ele>76.56</ele>
        <time>2012-07-05T10:17:23Z</time>
      </trkpt>
      <trkpt lat="48.37003" lon="2.77146">
        <ele>76.56</ele>
        <time>2012-07-05T10:17:29Z</time>
      </trkpt>
      <trkpt lat="48.37006" lon="2.77125">
        <ele>77.04</ele>
        <time>2012-07-05T10:17:41Z</time>
      </trkpt>
      <trkpt lat="48.37013" lon="2.77109">
        <ele>76.08</ele>
        <time>2012-07-05T10:17:53Z</time>
      </trkpt>
      <trkpt lat="48.37014" lon="2.77094">
        <ele>77.04</ele>
        <time>2012-07-05T10:18:04Z</time>
      </trkpt>
      <trkpt lat="48.37016" lon="2.77083">
        <ele>76.56</ele>
        <time>2012-07-05T10:18:12Z</time>
      </trkpt>
      <trkpt lat="48.37017" lon="2.77044">
        <ele>77.04</ele>
        <time>2012-07-05T10:18:28Z</time>
      </trkpt>
      <trkpt lat="48.37023" lon="2.77024">
        <ele>77.04</ele>
        <time>2012-07-05T10:18:42Z</time>
      </trkpt>
      <trkpt lat="48.37033" lon="2.77005">
        <ele>77.04</ele>
        <time>2012-07-05T10:18:57Z</time>
      </trkpt>
      <trkpt lat="48.37037" lon="2.76993">
        <ele>77.52</ele>
        <time>2012-07-05T10:19:09Z</time>
      </trkpt>
      <trkpt lat="48.37042" lon="2.76982">
        <ele>77.04</ele>
        <time>2012-07-05T10:19:21Z</time>
      </trkpt>
      <trkpt lat="48.37046" lon="2.76964">
        <ele>76.56</ele>
        <time>2012-07-05T10:19:33Z</time>
      </trkpt>
      <trkpt lat="48.37052" lon="2.76946">
        <ele>76.56</ele>
        <time>2012-07-05T10:19:45Z</time>
      </trkpt>
      <trkpt lat="48.37049" lon="2.76935">
        <ele>76.08</ele>
        <time>2012-07-05T10:19:53Z</time>
      </trkpt>
      <trkpt lat="48.3704" lon="2.76897">
        <ele>75.6</ele>
        <time>2012-07-05T10:20:06Z</time>
      </trkpt>
      <trkpt lat="48.37038" lon="2.7688">
        <ele>74.64</ele>
        <time>2012-07-05T10:20:14Z</time>
      </trkpt>
      <trkpt lat="48.37028" lon="2.7685">
        <ele>74.64</ele>
        <time>2012-07-05T10:20:27Z</time>
      </trkpt>
      <trkpt lat="48.37024" lon="2.76833">
        <ele>74.64</ele>
        <time>2012-07-05T10:20:37Z</time>
      </trkpt>
      <trkpt lat="48.37019" lon="2.76809">
        <ele>74.64</ele>
        <time>2012-07-05T10:20:51Z</time>
      </trkpt>
      <trkpt lat="48.37016" lon="2.76793">
        <ele>75.12</ele>
        <time>2012-07-05T10:21:02Z</time>
      </trkpt>
      <trkpt lat="48.37013" lon="2.76765">
        <ele>75.12</ele>
        <time>2012-07-05T10:21:15Z</time>
      </trkpt>
      <trkpt lat="48.37009" lon="2.76743">
        <ele>75.6</ele>
        <time>2012-07-05T10:21:28Z</time>
      </trkpt>
      <trkpt lat="48.37007" lon="2.76736">
        <ele>75.12</ele>
        <time>2012-07-05T10:21:43Z</time>
      </trkpt>
      <trkpt lat="48.37007" lon="2.76735">
        <ele>75.12</ele>
        <time>2012-07-05T10:22:02Z</time>
      </trkpt>
      <trkpt lat="48.37007" lon="2.76727">
        <ele>75.12</ele>
        <time>2012-07-05T10:22:21Z</time>
      </trkpt>
      <trkpt lat="48.37005" lon="2.76701">
        <ele>74.16</ele>
        <time>2012-07-05T10:22:33Z</time>
      </trkpt>
      <trkpt lat="48.37004" lon="2.76667">
        <ele>73.68</ele>
        <time>2012-07-05T10:22:50Z</time>
      </trkpt>
      <trkpt lat="48.37007" lon="2.76646">
        <ele>73.68</ele>
        <time>2012-07-05T10:23:02Z</time>
      </trkpt>
      <trkpt lat="48.37007" lon="2.76622">
        <ele>72.72</ele>
        <time>2012-07-05T10:23:16Z</time>
      </trkpt>
      <trkpt lat="48.37007" lon="2.76601">
        <ele>72.24</ele>
        <time>2012-07-05T10:23:26Z</time>
      </trkpt>
      <trkpt lat="48.37011" lon="2.76586">
        <ele>73.2</ele>
        <time>2012-07-05T10:23:38Z</time>
      </trkpt>
      <trkpt lat="48.37012" lon="2.76583">
        <ele>73.2</ele>
        <time>2012-07-05T10:23:43Z</time>
      </trkpt>
      <trkpt lat="48.37013" lon="2.76575">
        <ele>72.72</ele>
        <time>2012-07-05T10:23:48Z</time>
      </trkpt>
      <trkpt lat="48.37017" lon="2.76556">
        <ele>74.64</ele>
        <time>2012-07-05T10:24:02Z</time>
      </trkpt>
      <trkpt lat="48.3702" lon="2.76542">
        <ele>74.64</ele>
        <time>2012-07-05T10:24:14Z</time>
      </trkpt>
      <trkpt lat="48.37022" lon="2.76523">
        <ele>73.68</ele>
        <time>2012-07-05T10:24:26Z</time>
      </trkpt>
      <trkpt lat="48.37024" lon="2.76507">
        <ele>72.24</ele>
        <time>2012-07-05T10:24:38Z</time>
      </trkpt>
      <trkpt lat="48.37024" lon="2.76496">
        <ele>72.24</ele>
        <time>2012-07-05T10:24:48Z</time>
      </trkpt>
      <trkpt lat="48.37023" lon="2.76458">
        <ele>73.2</ele>
        <time>2012-07-05T10:25:02Z</time>
      </trkpt>
      <trkpt lat="48.37024" lon="2.7644">
        <ele>73.2</ele>
        <time>2012-07-05T10:25:15Z</time>
      </trkpt>
      <trkpt lat="48.37025" lon="2.76421">
        <ele>72.72</ele>
        <time>2012-07-05T10:25:28Z</time>
      </trkpt>
      <trkpt lat="48.37028" lon="2.76405">
        <ele>72.24</ele>
        <time>2012-07-05T10:25:40Z</time>
      </trkpt>
      <trkpt lat="48.37029" lon="2.76383">
        <ele>72.24</ele>
        <time>2012-07-05T10:25:52Z</time>
      </trkpt>
      <trkpt lat="48.37031" lon="2.76358">
        <ele>71.76</ele>
        <time>2012-07-05T10:26:04Z</time>
      </trkpt>
      <trkpt lat="48.37034" lon="2.7634">
        <ele>72.24</ele>
        <time>2012-07-05T10:26:16Z</time>
      </trkpt>
      <trkpt lat="48.37034" lon="2.76324">
        <ele>72.72</ele>
        <time>2012-07-05T10:26:25Z</time>
      </trkpt>
      <trkpt lat="48.37036" lon="2.76312">
        <ele>72.72</ele>
        <time>2012-07-05T10:26:32Z</time>
      </trkpt>
      <trkpt lat="48.37036" lon="2.76281">
        <ele>72.24</ele>
        <time>2012-07-05T10:26:47Z</time>
      </trkpt>
      <trkpt lat="48.37035" lon="2.76252">
        <ele>72.24</ele>
        <time>2012-07-05T10:27:00Z</time>
      </trkpt>
      <trkpt lat="48.37035" lon="2.76237">
        <ele>72.24</ele>
        <time>2012-07-05T10:27:10Z</time>
      </trkpt>
      <trkpt lat="48.37035" lon="2.76233">
        <ele>72.72</ele>
        <time>2012-07-05T10:27:12Z</time>
      </trkpt>
      <trkpt lat="48.37034" lon="2.76208">
        <ele>72.72</ele>
        <time>2012-07-05T10:27:23Z</time>
      </trkpt>
      <trkpt lat="48.37036" lon="2.76188">
        <ele>72.72</ele>
        <time>2012-07-05T10:27:35Z</time>
      </trkpt>
      <trkpt lat="48.37036" lon="2.7618">
        <ele>72.72</ele>
        <time>2012-07-05T10:27:40Z</time>
      </trkpt>
      <trkpt lat="48.37038" lon="2.76154">
        <ele>73.2</ele>
        <time>2012-07-05T10:27:54Z</time>
      </trkpt>
      <trkpt lat="48.37038" lon="2.76133">
        <ele>73.2</ele>
        <time>2012-07-05T10:28:09Z</time>
      </trkpt>
      <trkpt lat="48.37039" lon="2.76111">
        <ele>73.68</ele>
        <time>2012-07-05T10:28:22Z</time>
      </trkpt>
      <trkpt lat="48.37045" lon="2.76088">
        <ele>73.2</ele>
        <time>2012-07-05T10:28:36Z</time>
      </trkpt>
      <trkpt lat="48.37046" lon="2.76074">
        <ele>73.68</ele>
        <time>2012-07-05T10:28:52Z</time>
      </trkpt>
      <trkpt lat="48.37045" lon="2.76046">
        <ele>73.68</ele>
        <time>2012-07-05T10:29:05Z</time>
      </trkpt>
      <trkpt lat="48.37039" lon="2.76033">
        <ele>73.68</ele>
        <time>2012-07-05T10:29:18Z</time>
      </trkpt>
      <trkpt lat="48.37032" lon="2.76017">
        <ele>73.68</ele>
        <time>2012-07-05T10:29:32Z</time>
      </trkpt>
      <trkpt lat="48.37022" lon="2.75995">
        <ele>74.16</ele>
        <time>2012-07-05T10:29:48Z</time>
      </trkpt>
      <trkpt lat="48.37009" lon="2.75964">
        <ele>74.64</ele>
        <time>2012-07-05T10:30:05Z</time>
      </trkpt>
      <trkpt lat="48.36995" lon="2.75924">
        <ele>74.64</ele>
        <time>2012-07-05T10:30:19Z</time>
      </trkpt>
      <trkpt lat="48.36988" lon="2.75899">
        <ele>75.6</ele>
        <time>2012-07-05T10:30:28Z</time>
      </trkpt>
      <trkpt lat="48.36976" lon="2.75868">
        <ele>76.08</ele>
        <time>2012-07-05T10:30:42Z</time>
      </trkpt>
      <trkpt lat="48.36967" lon="2.75853">
        <ele>75.6</ele>
        <time>2012-07-05T10:30:55Z</time>
      </trkpt>
      <trkpt lat="48.3696" lon="2.75834">
        <ele>76.56</ele>
        <time>2012-07-05T10:31:08Z</time>
      </trkpt>
      <trkpt lat="48.36952" lon="2.75818">
        <ele>77.52</ele>
        <time>2012-07-05T10:31:24Z</time>
      </trkpt>
      <trkpt lat="48.36951" lon="2.75798">
        <ele>78.48</ele>
        <time>2012-07-05T10:31:39Z</time>
      </trkpt>
      <trkpt lat="48.36944" lon="2.75777">
        <ele>79.93</ele>
        <time>2012-07-05T10:31:53Z</time>
      </trkpt>
      <trkpt lat="48.36939" lon="2.75757">
        <ele>80.41</ele>
        <time>2012-07-05T10:32:07Z</time>
      </trkpt>
      <trkpt lat="48.36933" lon="2.75744">
        <ele>81.37</ele>
        <time>2012-07-05T10:32:19Z</time>
      </trkpt>
      <trkpt lat="48.36926" lon="2.75724">
        <ele>81.85</ele>
        <time>2012-07-05T10:32:33Z</time>
      </trkpt>
      <trkpt lat="48.36919" lon="2.75701">
        <ele>83.77</ele>
        <time>2012-07-05T10:32:46Z</time>
      </trkpt>
      <trkpt lat="48.36912" lon="2.75679">
        <ele>84.73</ele>
        <time>2012-07-05T10:32:58Z</time>
      </trkpt>
      <trkpt lat="48.36906" lon="2.7566">
        <ele>87.14</ele>
        <time>2012-07-05T10:33:12Z</time>
      </trkpt>
      <trkpt lat="48.369" lon="2.75641">
        <ele>88.58</ele>
        <time>2012-07-05T10:33:24Z</time>
      </trkpt>
      <trkpt lat="48.36894" lon="2.75621">
        <ele>90.98</ele>
        <time>2012-07-05T10:33:36Z</time>
      </trkpt>
      <trkpt lat="48.36885" lon="2.75606">
        <ele>92.9</ele>
        <time>2012-07-05T10:33:49Z</time>
      </trkpt>
      <trkpt lat="48.36884" lon="2.75602">
        <ele>93.39</ele>
        <time>2012-07-05T10:33:52Z</time>
      </trkpt>
      <trkpt lat="48.36879" lon="2.75577">
        <ele>95.31</ele>
        <time>2012-07-05T10:34:03Z</time>
      </trkpt>
      <trkpt lat="48.36869" lon="2.7555">
        <ele>98.67</ele>
        <time>2012-07-05T10:34:19Z</time>
      </trkpt>
      <trkpt lat="48.36862" lon="2.75515">
        <ele>101.08</ele>
        <time>2012-07-05T10:34:34Z</time>
      </trkpt>
      <trkpt lat="48.36857" lon="2.75493">
        <ele>102.52</ele>
        <time>2012-07-05T10:34:47Z</time>
      </trkpt>
      <trkpt lat="48.36854" lon="2.75474">
        <ele>105.4</ele>
        <time>2012-07-05T10:35:00Z</time>
      </trkpt>
      <trkpt lat="48.36848" lon="2.75443">
        <ele>105.88</ele>
        <time>2012-07-05T10:35:15Z</time>
      </trkpt>
      <trkpt lat="48.36844" lon="2.7542">
        <ele>106.36</ele>
        <time>2012-07-05T10:35:26Z</time>
      </trkpt>
      <trkpt lat="48.36838" lon="2.75396">
        <ele>106.84</ele>
        <time>2012-07-05T10:35:37Z</time>
      </trkpt>
      <trkpt lat="48.36836" lon="2.75387">
        <ele>107.32</ele>
        <time>2012-07-05T10:35:41Z</time>
      </trkpt>
      <trkpt lat="48.36834" lon="2.75379">
        <ele>107.32</ele>
        <time>2012-07-05T10:35:45Z</time>
      </trkpt>
      <trkpt lat="48.36831" lon="2.75368">
        <ele>107.32</ele>
        <time>2012-07-05T10:35:57Z</time>
      </trkpt>
      <trkpt lat="48.36828" lon="2.75368">
        <ele>107.81</ele>
        <time>2012-07-05T10:36:09Z</time>
      </trkpt>
      <trkpt lat="48.36828" lon="2.75368">
        <ele>107.81</ele>
        <time>2012-07-05T10:36:28Z</time>
      </trkpt>
      <trkpt lat="48.36828" lon="2.75368">
        <ele>108.29</ele>
        <time>2012-07-05T10:36:47Z</time>
      </trkpt>
      <trkpt lat="48.36828" lon="2.75367">
        <ele>108.29</ele>
        <time>2012-07-05T10:37:14Z</time>
      </trkpt>
      <trkpt lat="48.36827" lon="2.75367">
        <ele>108.29</ele>
        <time>2012-07-05T10:37:38Z</time>
      </trkpt>
      <trkpt lat="48.36827" lon="2.75367">
        <ele>100.6</ele>
        <time>2012-07-05T10:37:53Z</time>
      </trkpt>
      <trkpt lat="48.36827" lon="2.75367">
        <ele>109.73</ele>
        <time>2012-07-05T10:37:54Z</time>
      </trkpt>
      <trkpt lat="48.36827" lon="2.75367">
        <ele>114.53</ele>
        <time>2012-07-05T10:37:55Z</time>
      </trkpt>
      <trkpt lat="48.36827" lon="2.75367">
        <ele>109.73</ele>
        <time>2012-07-05T10:37:56Z</time>
      </trkpt>
      <trkpt lat="48.36828" lon="2.75361">
        <ele>109.25</ele>
        <time>2012-07-05T10:38:04Z</time>
      </trkpt>
      <trkpt lat="48.36829" lon="2.75354">
        <ele>109.25</ele>
        <time>2012-07-05T10:38:08Z</time>
      </trkpt>
      <trkpt lat="48.36836" lon="2.75329">
        <ele>109.73</ele>
        <time>2012-07-05T10:38:22Z</time>
      </trkpt>
      <trkpt lat="48.3684" lon="2.75318">
        <ele>109.73</ele>
        <time>2012-07-05T10:38:28Z</time>
      </trkpt>
      <trkpt lat="48.36844" lon="2.75295">
        <ele>109.73</ele>
        <time>2012-07-05T10:38:40Z</time>
      </trkpt>
      <trkpt lat="48.36851" lon="2.75272">
        <ele>109.73</ele>
        <time>2012-07-05T10:38:53Z</time>
      </trkpt>
      <trkpt lat="48.36861" lon="2.75277">
        <ele>108.77</ele>
        <time>2012-07-05T10:39:07Z</time>
      </trkpt>
      <trkpt lat="48.36862" lon="2.75277">
        <ele>108.77</ele>
        <time>2012-07-05T10:39:08Z</time>
      </trkpt>
      <trkpt lat="48.36869" lon="2.75281">
        <ele>108.29</ele>
        <time>2012-07-05T10:39:14Z</time>
      </trkpt>
      <trkpt lat="48.36885" lon="2.75294">
        <ele>105.4</ele>
        <time>2012-07-05T10:39:30Z</time>
      </trkpt>
      <trkpt lat="48.36886" lon="2.75295">
        <ele>105.4</ele>
        <time>2012-07-05T10:39:31Z</time>
      </trkpt>
      <trkpt lat="48.36887" lon="2.75297">
        <ele>104.92</ele>
        <time>2012-07-05T10:39:33Z</time>
      </trkpt>
      <trkpt lat="48.369" lon="2.75315">
        <ele>102.04</ele>
        <time>2012-07-05T10:39:50Z</time>
      </trkpt>
      <trkpt lat="48.36908" lon="2.75328">
        <ele>100.6</ele>
        <time>2012-07-05T10:40:01Z</time>
      </trkpt>
      <trkpt lat="48.36921" lon="2.75342">
        <ele>98.19</ele>
        <time>2012-07-05T10:40:16Z</time>
      </trkpt>
      <trkpt lat="48.36936" lon="2.75357">
        <ele>95.79</ele>
        <time>2012-07-05T10:40:31Z</time>
      </trkpt>
      <trkpt lat="48.36947" lon="2.75365">
        <ele>94.83</ele>
        <time>2012-07-05T10:40:43Z</time>
      </trkpt>
      <trkpt lat="48.36959" lon="2.75356">
        <ele>95.31</ele>
        <time>2012-07-05T10:40:57Z</time>
      </trkpt>
      <trkpt lat="48.36963" lon="2.75343">
        <ele>98.19</ele>
        <time>2012-07-05T10:41:13Z</time>
      </trkpt>
      <trkpt lat="48.36967" lon="2.75331">
        <ele>100.11</ele>
        <time>2012-07-05T10:41:25Z</time>
      </trkpt>
      <trkpt lat="48.36975" lon="2.75324">
        <ele>101.56</ele>
        <time>2012-07-05T10:41:37Z</time>
      </trkpt>
      <trkpt lat="48.3698" lon="2.75315">
        <ele>102.52</ele>
        <time>2012-07-05T10:41:50Z</time>
      </trkpt>
      <trkpt lat="48.36987" lon="2.75309">
        <ele>103</ele>
        <time>2012-07-05T10:41:59Z</time>
      </trkpt>
      <trkpt lat="48.36989" lon="2.75302">
        <ele>103</ele>
        <time>2012-07-05T10:42:04Z</time>
      </trkpt>
      <trkpt lat="48.36993" lon="2.75277">
        <ele>102.04</ele>
        <time>2012-07-05T10:42:17Z</time>
      </trkpt>
      <trkpt lat="48.36999" lon="2.75265">
        <ele>100.6</ele>
        <time>2012-07-05T10:42:29Z</time>
      </trkpt>
      <trkpt lat="48.37003" lon="2.75251">
        <ele>100.6</ele>
        <time>2012-07-05T10:42:42Z</time>
      </trkpt>
      <trkpt lat="48.3701" lon="2.75237">
        <ele>98.67</ele>
        <time>2012-07-05T10:42:56Z</time>
      </trkpt>
      <trkpt lat="48.37014" lon="2.75231">
        <ele>98.67</ele>
        <time>2012-07-05T10:43:01Z</time>
      </trkpt>
      <trkpt lat="48.37024" lon="2.75216">
        <ele>100.11</ele>
        <time>2012-07-05T10:43:13Z</time>
      </trkpt>
      <trkpt lat="48.37037" lon="2.75206">
        <ele>99.63</ele>
        <time>2012-07-05T10:43:27Z</time>
      </trkpt>
      <trkpt lat="48.37048" lon="2.75197">
        <ele>100.6</ele>
        <time>2012-07-05T10:43:43Z</time>
      </trkpt>
      <trkpt lat="48.3706" lon="2.75181">
        <ele>102.52</ele>
        <time>2012-07-05T10:43:56Z</time>
      </trkpt>
      <trkpt lat="48.37075" lon="2.75162">
        <ele>101.08</ele>
        <time>2012-07-05T10:44:11Z</time>
      </trkpt>
      <trkpt lat="48.37085" lon="2.75153">
        <ele>101.56</ele>
        <time>2012-07-05T10:44:25Z</time>
      </trkpt>
      <trkpt lat="48.37094" lon="2.75144">
        <ele>104.44</ele>
        <time>2012-07-05T10:44:38Z</time>
      </trkpt>
      <trkpt lat="48.371" lon="2.7514">
        <ele>106.36</ele>
        <time>2012-07-05T10:44:49Z</time>
      </trkpt>
      <trkpt lat="48.371" lon="2.75125">
        <ele>108.77</ele>
        <time>2012-07-05T10:45:03Z</time>
      </trkpt>
      <trkpt lat="48.37108" lon="2.75119">
        <ele>110.69</ele>
        <time>2012-07-05T10:45:15Z</time>
      </trkpt>
      <trkpt lat="48.37114" lon="2.7511">
        <ele>110.21</ele>
        <time>2012-07-05T10:45:31Z</time>
      </trkpt>
      <trkpt lat="48.3712" lon="2.751">
        <ele>110.69</ele>
        <time>2012-07-05T10:45:46Z</time>
      </trkpt>
      <trkpt lat="48.37121" lon="2.75095">
        <ele>111.17</ele>
        <time>2012-07-05T10:45:58Z</time>
      </trkpt>
      <trkpt lat="48.37119" lon="2.75097">
        <ele>112.13</ele>
        <time>2012-07-05T10:46:10Z</time>
      </trkpt>
      <trkpt lat="48.3712" lon="2.7509">
        <ele>112.13</ele>
        <time>2012-07-05T10:46:27Z</time>
      </trkpt>
      <trkpt lat="48.3712" lon="2.75084">
        <ele>112.13</ele>
        <time>2012-07-05T10:46:39Z</time>
      </trkpt>
      <trkpt lat="48.37119" lon="2.75085">
        <ele>112.13</ele>
        <time>2012-07-05T10:46:52Z</time>
      </trkpt>
      <trkpt lat="48.3712" lon="2.75084">
        <ele>111.65</ele>
        <time>2012-07-05T10:47:10Z</time>
      </trkpt>
      <trkpt lat="48.3712" lon="2.75084">
        <ele>110.69</ele>
        <time>2012-07-05T10:47:41Z</time>
      </trkpt>
      <trkpt lat="48.3712" lon="2.75084">
        <ele>110.21</ele>
        <time>2012-07-05T10:48:12Z</time>
      </trkpt>
      <trkpt lat="48.3712" lon="2.75083">
        <ele>109.73</ele>
        <time>2012-07-05T10:48:39Z</time>
      </trkpt>
      <trkpt lat="48.3712" lon="2.75081">
        <ele>109.25</ele>
        <time>2012-07-05T10:49:11Z</time>
      </trkpt>
      <trkpt lat="48.37119" lon="2.7508">
        <ele>109.25</ele>
        <time>2012-07-05T10:49:39Z</time>
      </trkpt>
      <trkpt lat="48.37119" lon="2.7508">
        <ele>108.77</ele>
        <time>2012-07-05T10:50:09Z</time>
      </trkpt>
      <trkpt lat="48.37119" lon="2.75079">
        <ele>108.29</ele>
        <time>2012-07-05T10:50:37Z</time>
      </trkpt>
      <trkpt lat="48.37119" lon="2.75079">
        <ele>107.81</ele>
        <time>2012-07-05T10:51:05Z</time>
      </trkpt>
      <trkpt lat="48.37119" lon="2.75079">
        <ele>107.81</ele>
        <time>2012-07-05T10:51:29Z</time>
      </trkpt>
      <trkpt lat="48.37119" lon="2.75076">
        <ele>107.32</ele>
        <time>2012-07-05T10:51:58Z</time>
      </trkpt>
      <trkpt lat="48.37118" lon="2.75074">
        <ele>107.32</ele>
        <time>2012-07-05T10:52:29Z</time>
      </trkpt>
      <trkpt lat="48.37118" lon="2.75072">
        <ele>106.84</ele>
        <time>2012-07-05T10:52:56Z</time>
      </trkpt>
      <trkpt lat="48.37118" lon="2.75072">
        <ele>106.36</ele>
        <time>2012-07-05T10:53:29Z</time>
      </trkpt>
      <trkpt lat="48.37118" lon="2.7507">
        <ele>106.36</ele>
        <time>2012-07-05T10:53:58Z</time>
      </trkpt>
      <trkpt lat="48.37117" lon="2.75069">
        <ele>106.36</ele>
        <time>2012-07-05T10:54:25Z</time>
      </trkpt>
      <trkpt lat="48.37117" lon="2.75069">
        <ele>105.88</ele>
        <time>2012-07-05T10:54:51Z</time>
      </trkpt>
      <trkpt lat="48.37117" lon="2.75069">
        <ele>105.88</ele>
        <time>2012-07-05T10:55:23Z</time>
      </trkpt>
      <trkpt lat="48.37117" lon="2.75067">
        <ele>105.4</ele>
        <time>2012-07-05T10:55:52Z</time>
      </trkpt>
      <trkpt lat="48.37116" lon="2.75065">
        <ele>105.88</ele>
        <time>2012-07-05T10:56:20Z</time>
      </trkpt>
      <trkpt lat="48.37116" lon="2.75065">
        <ele>105.4</ele>
        <time>2012-07-05T10:56:45Z</time>
      </trkpt>
      <trkpt lat="48.37116" lon="2.75065">
        <ele>105.4</ele>
        <time>2012-07-05T10:57:13Z</time>
      </trkpt>
      <trkpt lat="48.37115" lon="2.75063">
        <ele>104.92</ele>
        <time>2012-07-05T10:57:47Z</time>
      </trkpt>
      <trkpt lat="48.37115" lon="2.75063">
        <ele>104.92</ele>
        <time>2012-07-05T10:58:19Z</time>
      </trkpt>
      <trkpt lat="48.37115" lon="2.75063">
        <ele>104.92</ele>
        <time>2012-07-05T10:58:53Z</time>
      </trkpt>
      <trkpt lat="48.37115" lon="2.75062">
        <ele>104.92</ele>
        <time>2012-07-05T10:59:27Z</time>
      </trkpt>
      <trkpt lat="48.37115" lon="2.75061">
        <ele>104.44</ele>
        <time>2012-07-05T10:59:59Z</time>
      </trkpt>
      <trkpt lat="48.37115" lon="2.75059">
        <ele>104.44</ele>
        <time>2012-07-05T11:00:34Z</time>
      </trkpt>
      <trkpt lat="48.37115" lon="2.75059">
        <ele>103.96</ele>
        <time>2012-07-05T11:01:12Z</time>
      </trkpt>
      <trkpt lat="48.37115" lon="2.75059">
        <ele>103.96</ele>
        <time>2012-07-05T11:01:48Z</time>
      </trkpt>
      <trkpt lat="48.37115" lon="2.75059">
        <ele>103.96</ele>
        <time>2012-07-05T11:02:14Z</time>
      </trkpt>
      <trkpt lat="48.37115" lon="2.75058">
        <ele>103.96</ele>
        <time>2012-07-05T11:02:47Z</time>
      </trkpt>
      <trkpt lat="48.37114" lon="2.75057">
        <ele>103.96</ele>
        <time>2012-07-05T11:03:23Z</time>
      </trkpt>
      <trkpt lat="48.37114" lon="2.75057">
        <ele>103.96</ele>
        <time>2012-07-05T11:04:02Z</time>
      </trkpt>
      <trkpt lat="48.37114" lon="2.75056">
        <ele>104.44</ele>
        <time>2012-07-05T11:04:34Z</time>
      </trkpt>
      <trkpt lat="48.37114" lon="2.75054">
        <ele>104.44</ele>
        <time>2012-07-05T11:05:02Z</time>
      </trkpt>
      <trkpt lat="48.37114" lon="2.75054">
        <ele>104.44</ele>
        <time>2012-07-05T11:05:32Z</time>
      </trkpt>
      <trkpt lat="48.37113" lon="2.75054">
        <ele>104.92</ele>
        <time>2012-07-05T11:06:04Z</time>
      </trkpt>
      <trkpt lat="48.37112" lon="2.75052">
        <ele>104.92</ele>
        <time>2012-07-05T11:06:38Z</time>
      </trkpt>
      <trkpt lat="48.37112" lon="2.75051">
        <ele>104.92</ele>
        <time>2012-07-05T11:07:09Z</time>
      </trkpt>
      <trkpt lat="48.37111" lon="2.7505">
        <ele>105.4</ele>
        <time>2012-07-05T11:07:44Z</time>
      </trkpt>
      <trkpt lat="48.37111" lon="2.75049">
        <ele>105.88</ele>
        <time>2012-07-05T11:08:16Z</time>
      </trkpt>
      <trkpt lat="48.37111" lon="2.75049">
        <ele>105.88</ele>
        <time>2012-07-05T11:08:49Z</time>
      </trkpt>
      <trkpt lat="48.37111" lon="2.75049">
        <ele>106.36</ele>
        <time>2012-07-05T11:09:21Z</time>
      </trkpt>
      <trkpt lat="48.3711" lon="2.75048">
        <ele>106.36</ele>
        <time>2012-07-05T11:09:53Z</time>
      </trkpt>
      <trkpt lat="48.3711" lon="2.75047">
        <ele>106.84</ele>
        <time>2012-07-05T11:10:27Z</time>
      </trkpt>
      <trkpt lat="48.3711" lon="2.75047">
        <ele>106.84</ele>
        <time>2012-07-05T11:10:51Z</time>
      </trkpt>
      <trkpt lat="48.3711" lon="2.75047">
        <ele>107.81</ele>
        <time>2012-07-05T11:11:19Z</time>
      </trkpt>
      <trkpt lat="48.3711" lon="2.75047">
        <ele>106.84</ele>
        <time>2012-07-05T11:11:57Z</time>
      </trkpt>
      <trkpt lat="48.3711" lon="2.75047">
        <ele>107.32</ele>
        <time>2012-07-05T11:12:29Z</time>
      </trkpt>
      <trkpt lat="48.37109" lon="2.75046">
        <ele>108.29</ele>
        <time>2012-07-05T11:12:57Z</time>
      </trkpt>
      <trkpt lat="48.37109" lon="2.75046">
        <ele>108.29</ele>
        <time>2012-07-05T11:13:33Z</time>
      </trkpt>
      <trkpt lat="48.37109" lon="2.75046">
        <ele>108.29</ele>
        <time>2012-07-05T11:14:04Z</time>
      </trkpt>
      <trkpt lat="48.37109" lon="2.75046">
        <ele>108.77</ele>
        <time>2012-07-05T11:14:40Z</time>
      </trkpt>
      <trkpt lat="48.37109" lon="2.75045">
        <ele>108.77</ele>
        <time>2012-07-05T11:15:10Z</time>
      </trkpt>
      <trkpt lat="48.3711" lon="2.75046">
        <ele>109.25</ele>
        <time>2012-07-05T11:15:47Z</time>
      </trkpt>
      <trkpt lat="48.37109" lon="2.75046">
        <ele>109.73</ele>
        <time>2012-07-05T11:16:20Z</time>
      </trkpt>
      <trkpt lat="48.37109" lon="2.75046">
        <ele>110.21</ele>
        <time>2012-07-05T11:16:53Z</time>
      </trkpt>
      <trkpt lat="48.37109" lon="2.75045">
        <ele>110.69</ele>
        <time>2012-07-05T11:17:25Z</time>
      </trkpt>
      <trkpt lat="48.37109" lon="2.75045">
        <ele>111.17</ele>
        <time>2012-07-05T11:17:58Z</time>
      </trkpt>
      <trkpt lat="48.37109" lon="2.75045">
        <ele>111.17</ele>
        <time>2012-07-05T11:18:29Z</time>
      </trkpt>
      <trkpt lat="48.37109" lon="2.75045">
        <ele>111.17</ele>
        <time>2012-07-05T11:18:57Z</time>
      </trkpt>
      <trkpt lat="48.37109" lon="2.75045">
        <ele>112.13</ele>
        <time>2012-07-05T11:19:29Z</time>
      </trkpt>
      <trkpt lat="48.37109" lon="2.75045">
        <ele>111.65</ele>
        <time>2012-07-05T11:19:58Z</time>
      </trkpt>
      <trkpt lat="48.37109" lon="2.75045">
        <ele>111.65</ele>
        <time>2012-07-05T11:20:30Z</time>
      </trkpt>
      <trkpt lat="48.37109" lon="2.75045">
        <ele>113.09</ele>
        <time>2012-07-05T11:20:57Z</time>
      </trkpt>
      <trkpt lat="48.37109" lon="2.75045">
        <ele>113.09</ele>
        <time>2012-07-05T11:21:26Z</time>
      </trkpt>
      <trkpt lat="48.37109" lon="2.75045">
        <ele>113.09</ele>
        <time>2012-07-05T11:21:57Z</time>
      </trkpt>
      <trkpt lat="48.37109" lon="2.75045">
        <ele>113.57</ele>
        <time>2012-07-05T11:22:32Z</time>
      </trkpt>
      <trkpt lat="48.37109" lon="2.75045">
        <ele>113.57</ele>
        <time>2012-07-05T11:23:05Z</time>
      </trkpt>
      <trkpt lat="48.37109" lon="2.75045">
        <ele>114.05</ele>
        <time>2012-07-05T11:23:38Z</time>
      </trkpt>
      <trkpt lat="48.37109" lon="2.75045">
        <ele>115.01</ele>
        <time>2012-07-05T11:24:15Z</time>
      </trkpt>
      <trkpt lat="48.37109" lon="2.75045">
        <ele>115.01</ele>
        <time>2012-07-05T11:24:51Z</time>
      </trkpt>
      <trkpt lat="48.37109" lon="2.75046">
        <ele>115.5</ele>
        <time>2012-07-05T11:25:26Z</time>
      </trkpt>
      <trkpt lat="48.37109" lon="2.75046">
        <ele>118.86</ele>
        <time>2012-07-05T11:25:48Z</time>
      </trkpt>
      <trkpt lat="48.37109" lon="2.75046">
        <ele>115.5</ele>
        <time>2012-07-05T11:25:49Z</time>
      </trkpt>
      <trkpt lat="48.37109" lon="2.75046">
        <ele>111.17</ele>
        <time>2012-07-05T11:25:50Z</time>
      </trkpt>
      <trkpt lat="48.37109" lon="2.75046">
        <ele>116.94</ele>
        <time>2012-07-05T11:25:51Z</time>
      </trkpt>
      <trkpt lat="48.37109" lon="2.75046">
        <ele>113.09</ele>
        <time>2012-07-05T11:25:52Z</time>
      </trkpt>
      <trkpt lat="48.37109" lon="2.75046">
        <ele>116.46</ele>
        <time>2012-07-05T11:25:53Z</time>
      </trkpt>
      <trkpt lat="48.37109" lon="2.75046">
        <ele>104.44</ele>
        <time>2012-07-05T11:25:54Z</time>
      </trkpt>
      <trkpt lat="48.37109" lon="2.75046">
        <ele>117.42</ele>
        <time>2012-07-05T11:25:55Z</time>
      </trkpt>
      <trkpt lat="48.37109" lon="2.75046">
        <ele>112.13</ele>
        <time>2012-07-05T11:26:01Z</time>
      </trkpt>
      <trkpt lat="48.37109" lon="2.75046">
        <ele>115.01</ele>
        <time>2012-07-05T11:26:02Z</time>
      </trkpt>
      <trkpt lat="48.37109" lon="2.75046">
        <ele>121.74</ele>
        <time>2012-07-05T11:26:07Z</time>
      </trkpt>
      <trkpt lat="48.37109" lon="2.75046">
        <ele>116.46</ele>
        <time>2012-07-05T11:26:08Z</time>
      </trkpt>
      <trkpt lat="48.37109" lon="2.75046">
        <ele>120.3</ele>
        <time>2012-07-05T11:26:09Z</time>
      </trkpt>
      <trkpt lat="48.37109" lon="2.75046">
        <ele>116.46</ele>
        <time>2012-07-05T11:26:10Z</time>
      </trkpt>
      <trkpt lat="48.37109" lon="2.75046">
        <ele>109.73</ele>
        <time>2012-07-05T11:26:13Z</time>
      </trkpt>
      <trkpt lat="48.37109" lon="2.75046">
        <ele>115.98</ele>
        <time>2012-07-05T11:26:14Z</time>
      </trkpt>
      <trkpt lat="48.37109" lon="2.75046">
        <ele>109.73</ele>
        <time>2012-07-05T11:26:15Z</time>
      </trkpt>
      <trkpt lat="48.37109" lon="2.75046">
        <ele>116.94</ele>
        <time>2012-07-05T11:26:16Z</time>
      </trkpt>
      <trkpt lat="48.37109" lon="2.75046">
        <ele>108.29</ele>
        <time>2012-07-05T11:26:17Z</time>
      </trkpt>
      <trkpt lat="48.37109" lon="2.75046">
        <ele>116.94</ele>
        <time>2012-07-05T11:26:18Z</time>
      </trkpt>
      <trkpt lat="48.37109" lon="2.75046">
        <ele>111.17</ele>
        <time>2012-07-05T11:26:19Z</time>
      </trkpt>
      <trkpt lat="48.37109" lon="2.75046">
        <ele>116.94</ele>
        <time>2012-07-05T11:26:20Z</time>
      </trkpt>
      <trkpt lat="48.37109" lon="2.75046">
        <ele>126.55</ele>
        <time>2012-07-05T11:26:22Z</time>
      </trkpt>
      <trkpt lat="48.37109" lon="2.75046">
        <ele>115.98</ele>
        <time>2012-07-05T11:26:23Z</time>
      </trkpt>
      <trkpt lat="48.37109" lon="2.75046">
        <ele>119.34</ele>
        <time>2012-07-05T11:26:24Z</time>
      </trkpt>
      <trkpt lat="48.37109" lon="2.75046">
        <ele>116.46</ele>
        <time>2012-07-05T11:26:25Z</time>
      </trkpt>
      <trkpt lat="48.37109" lon="2.75045">
        <ele>112.61</ele>
        <time>2012-07-05T11:26:36Z</time>
      </trkpt>
      <trkpt lat="48.37109" lon="2.75045">
        <ele>120.78</ele>
        <time>2012-07-05T11:26:37Z</time>
      </trkpt>
      <trkpt lat="48.37109" lon="2.75045">
        <ele>115.01</ele>
        <time>2012-07-05T11:26:38Z</time>
      </trkpt>
      <trkpt lat="48.37109" lon="2.75045">
        <ele>111.17</ele>
        <time>2012-07-05T11:26:40Z</time>
      </trkpt>
      <trkpt lat="48.37109" lon="2.75045">
        <ele>116.94</ele>
        <time>2012-07-05T11:26:41Z</time>
      </trkpt>
      <trkpt lat="48.37109" lon="2.75045">
        <ele>122.22</ele>
        <time>2012-07-05T11:26:57Z</time>
      </trkpt>
      <trkpt lat="48.37109" lon="2.75045">
        <ele>116.94</ele>
        <time>2012-07-05T11:26:58Z</time>
      </trkpt>
      <trkpt lat="48.37109" lon="2.75045">
        <ele>111.17</ele>
        <time>2012-07-05T11:27:03Z</time>
      </trkpt>
      <trkpt lat="48.37109" lon="2.75045">
        <ele>117.42</ele>
        <time>2012-07-05T11:27:04Z</time>
      </trkpt>
      <trkpt lat="48.37109" lon="2.75045">
        <ele>113.57</ele>
        <time>2012-07-05T11:27:06Z</time>
      </trkpt>
      <trkpt lat="48.37109" lon="2.75045">
        <ele>114.53</ele>
        <time>2012-07-05T11:27:07Z</time>
      </trkpt>
      <trkpt lat="48.37109" lon="2.75046">
        <ele>117.9</ele>
        <time>2012-07-05T11:27:09Z</time>
      </trkpt>
      <trkpt lat="48.37109" lon="2.75046">
        <ele>115.98</ele>
        <time>2012-07-05T11:27:10Z</time>
      </trkpt>
      <trkpt lat="48.37109" lon="2.75046">
        <ele>115.98</ele>
        <time>2012-07-05T11:27:16Z</time>
      </trkpt>
      <trkpt lat="48.37109" lon="2.75046">
        <ele>119.34</ele>
        <time>2012-07-05T11:27:23Z</time>
      </trkpt>
      <trkpt lat="48.37109" lon="2.75046">
        <ele>113.57</ele>
        <time>2012-07-05T11:27:32Z</time>
      </trkpt>
      <trkpt lat="48.37109" lon="2.75046">
        <ele>116.94</ele>
        <time>2012-07-05T11:27:33Z</time>
      </trkpt>
      <trkpt lat="48.37109" lon="2.75046">
        <ele>113.09</ele>
        <time>2012-07-05T11:27:38Z</time>
      </trkpt>
      <trkpt lat="48.37109" lon="2.75046">
        <ele>117.9</ele>
        <time>2012-07-05T11:27:40Z</time>
      </trkpt>
      <trkpt lat="48.37109" lon="2.75046">
        <ele>117.42</ele>
        <time>2012-07-05T11:27:41Z</time>
      </trkpt>
      <trkpt lat="48.37109" lon="2.75046">
        <ele>115.5</ele>
        <time>2012-07-05T11:27:45Z</time>
      </trkpt>
      <trkpt lat="48.37109" lon="2.75046">
        <ele>116.94</ele>
        <time>2012-07-05T11:27:47Z</time>
      </trkpt>
      <trkpt lat="48.37109" lon="2.75046">
        <ele>113.09</ele>
        <time>2012-07-05T11:27:49Z</time>
      </trkpt>
      <trkpt lat="48.37109" lon="2.75046">
        <ele>117.9</ele>
        <time>2012-07-05T11:27:50Z</time>
      </trkpt>
      <trkpt lat="48.37109" lon="2.75046">
        <ele>113.57</ele>
        <time>2012-07-05T11:27:52Z</time>
      </trkpt>
      <trkpt lat="48.37109" lon="2.75046">
        <ele>113.57</ele>
        <time>2012-07-05T11:27:53Z</time>
      </trkpt>
      <trkpt lat="48.37109" lon="2.75046">
        <ele>116.94</ele>
        <time>2012-07-05T11:27:55Z</time>
      </trkpt>
      <trkpt lat="48.37109" lon="2.75046">
        <ele>116.46</ele>
        <time>2012-07-05T11:27:59Z</time>
      </trkpt>
      <trkpt lat="48.37109" lon="2.75046">
        <ele>117.9</ele>
        <time>2012-07-05T11:28:01Z</time>
      </trkpt>
      <trkpt lat="48.37109" lon="2.75046">
        <ele>115.01</ele>
        <time>2012-07-05T11:28:02Z</time>
      </trkpt>
      <trkpt lat="48.37109" lon="2.75046">
        <ele>118.38</ele>
        <time>2012-07-05T11:28:03Z</time>
      </trkpt>
      <trkpt lat="48.37109" lon="2.75046">
        <ele>115.01</ele>
        <time>2012-07-05T11:28:04Z</time>
      </trkpt>
      <trkpt lat="48.37109" lon="2.75046">
        <ele>119.34</ele>
        <time>2012-07-05T11:28:06Z</time>
      </trkpt>
      <trkpt lat="48.37109" lon="2.75046">
        <ele>115.01</ele>
        <time>2012-07-05T11:28:07Z</time>
      </trkpt>
      <trkpt lat="48.37109" lon="2.75046">
        <ele>119.34</ele>
        <time>2012-07-05T11:28:10Z</time>
      </trkpt>
      <trkpt lat="48.37109" lon="2.75046">
        <ele>115.01</ele>
        <time>2012-07-05T11:28:11Z</time>
      </trkpt>
      <trkpt lat="48.37109" lon="2.75046">
        <ele>117.9</ele>
        <time>2012-07-05T11:28:13Z</time>
      </trkpt>
      <trkpt lat="48.37109" lon="2.75046">
        <ele>117.9</ele>
        <time>2012-07-05T11:28:14Z</time>
      </trkpt>
      <trkpt lat="48.37109" lon="2.75046">
        <ele>117.9</ele>
        <time>2012-07-05T11:28:46Z</time>
      </trkpt>
      <trkpt lat="48.37109" lon="2.75046">
        <ele>117.9</ele>
        <time>2012-07-05T11:29:15Z</time>
      </trkpt>
      <trkpt lat="48.37109" lon="2.75046">
        <ele>117.42</ele>
        <time>2012-07-05T11:29:46Z</time>
      </trkpt>
      <trkpt lat="48.37108" lon="2.75046">
        <ele>117.9</ele>
        <time>2012-07-05T11:30:17Z</time>
      </trkpt>
      <trkpt lat="48.37108" lon="2.75046">
        <ele>117.42</ele>
        <time>2012-07-05T11:30:55Z</time>
      </trkpt>
      <trkpt lat="48.37108" lon="2.75046">
        <ele>117.9</ele>
        <time>2012-07-05T11:31:28Z</time>
      </trkpt>
      <trkpt lat="48.37109" lon="2.75046">
        <ele>117.9</ele>
        <time>2012-07-05T11:32:00Z</time>
      </trkpt>
      <trkpt lat="48.37109" lon="2.75046">
        <ele>118.38</ele>
        <time>2012-07-05T11:32:33Z</time>
      </trkpt>
      <trkpt lat="48.37109" lon="2.75046">
        <ele>118.86</ele>
        <time>2012-07-05T11:33:00Z</time>
      </trkpt>
      <trkpt lat="48.37108" lon="2.75046">
        <ele>118.86</ele>
        <time>2012-07-05T11:33:18Z</time>
      </trkpt>
      <trkpt lat="48.37108" lon="2.75046">
        <ele>118.86</ele>
        <time>2012-07-05T11:33:37Z</time>
      </trkpt>
      <trkpt lat="48.37109" lon="2.75045">
        <ele>118.86</ele>
        <time>2012-07-05T11:33:52Z</time>
      </trkpt>
      <trkpt lat="48.37108" lon="2.75047">
        <ele>118.38</ele>
        <time>2012-07-05T11:34:07Z</time>
      </trkpt>
      <trkpt lat="48.37108" lon="2.75047">
        <ele>116.94</ele>
        <time>2012-07-05T11:34:24Z</time>
      </trkpt>
      <trkpt lat="48.37108" lon="2.75047">
        <ele>117.42</ele>
        <time>2012-07-05T11:34:40Z</time>
      </trkpt>
      <trkpt lat="48.37108" lon="2.75047">
        <ele>115.98</ele>
        <time>2012-07-05T11:34:53Z</time>
      </trkpt>
      <trkpt lat="48.37108" lon="2.75047">
        <ele>115.5</ele>
        <time>2012-07-05T11:35:10Z</time>
      </trkpt>
      <trkpt lat="48.37109" lon="2.75047">
        <ele>115.98</ele>
        <time>2012-07-05T11:35:23Z</time>
      </trkpt>
      <trkpt lat="48.37109" lon="2.75047">
        <ele>115.5</ele>
        <time>2012-07-05T11:35:39Z</time>
      </trkpt>
      <trkpt lat="48.37111" lon="2.75049">
        <ele>114.05</ele>
        <time>2012-07-05T11:35:52Z</time>
      </trkpt>
      <trkpt lat="48.37108" lon="2.75048">
        <ele>113.09</ele>
        <time>2012-07-05T11:36:04Z</time>
      </trkpt>
      <trkpt lat="48.37106" lon="2.75044">
        <ele>110.69</ele>
        <time>2012-07-05T11:36:22Z</time>
      </trkpt>
      <trkpt lat="48.37104" lon="2.75041">
        <ele>107.81</ele>
        <time>2012-07-05T11:36:39Z</time>
      </trkpt>
      <trkpt lat="48.37095" lon="2.75024">
        <ele>104.44</ele>
        <time>2012-07-05T11:36:50Z</time>
      </trkpt>
      <trkpt lat="48.37092" lon="2.75014">
        <ele>102.52</ele>
        <time>2012-07-05T11:37:04Z</time>
      </trkpt>
      <trkpt lat="48.37086" lon="2.7501">
        <ele>99.63</ele>
        <time>2012-07-05T11:37:18Z</time>
      </trkpt>
      <trkpt lat="48.37086" lon="2.7501">
        <ele>99.63</ele>
        <time>2012-07-05T11:37:33Z</time>
      </trkpt>
      <trkpt lat="48.37086" lon="2.7501">
        <ele>99.63</ele>
        <time>2012-07-05T11:37:53Z</time>
      </trkpt>
      <trkpt lat="48.37082" lon="2.75002">
        <ele>98.67</ele>
        <time>2012-07-05T11:38:07Z</time>
      </trkpt>
      <trkpt lat="48.37071" lon="2.74975">
        <ele>98.67</ele>
        <time>2012-07-05T11:38:23Z</time>
      </trkpt>
      <trkpt lat="48.37067" lon="2.74953">
        <ele>98.19</ele>
        <time>2012-07-05T11:38:39Z</time>
      </trkpt>
      <trkpt lat="48.3706" lon="2.74933">
        <ele>98.67</ele>
        <time>2012-07-05T11:38:52Z</time>
      </trkpt>
      <trkpt lat="48.37056" lon="2.74925">
        <ele>98.19</ele>
        <time>2012-07-05T11:38:59Z</time>
      </trkpt>
      <trkpt lat="48.3706" lon="2.74909">
        <ele>97.23</ele>
        <time>2012-07-05T11:39:12Z</time>
      </trkpt>
      <trkpt lat="48.37062" lon="2.74878">
        <ele>97.23</ele>
        <time>2012-07-05T11:39:27Z</time>
      </trkpt>
      <trkpt lat="48.37071" lon="2.74863">
        <ele>97.23</ele>
        <time>2012-07-05T11:39:40Z</time>
      </trkpt>
      <trkpt lat="48.37072" lon="2.74847">
        <ele>96.75</ele>
        <time>2012-07-05T11:39:53Z</time>
      </trkpt>
      <trkpt lat="48.37072" lon="2.74842">
        <ele>96.27</ele>
        <time>2012-07-05T11:40:10Z</time>
      </trkpt>
      <trkpt lat="48.37078" lon="2.74827">
        <ele>96.27</ele>
        <time>2012-07-05T11:40:25Z</time>
      </trkpt>
      <trkpt lat="48.37084" lon="2.74798">
        <ele>95.79</ele>
        <time>2012-07-05T11:40:42Z</time>
      </trkpt>
      <trkpt lat="48.37089" lon="2.74783">
        <ele>94.35</ele>
        <time>2012-07-05T11:40:57Z</time>
      </trkpt>
      <trkpt lat="48.37095" lon="2.74779">
        <ele>91.46</ele>
        <time>2012-07-05T11:41:14Z</time>
      </trkpt>
      <trkpt lat="48.37111" lon="2.74769">
        <ele>89.06</ele>
        <time>2012-07-05T11:41:29Z</time>
      </trkpt>
      <trkpt lat="48.37122" lon="2.74758">
        <ele>88.1</ele>
        <time>2012-07-05T11:41:47Z</time>
      </trkpt>
      <trkpt lat="48.37132" lon="2.74739">
        <ele>86.66</ele>
        <time>2012-07-05T11:42:05Z</time>
      </trkpt>
      <trkpt lat="48.37138" lon="2.74719">
        <ele>85.21</ele>
        <time>2012-07-05T11:42:19Z</time>
      </trkpt>
      <trkpt lat="48.37149" lon="2.74694">
        <ele>84.73</ele>
        <time>2012-07-05T11:42:36Z</time>
      </trkpt>
      <trkpt lat="48.37156" lon="2.74677">
        <ele>82.81</ele>
        <time>2012-07-05T11:42:52Z</time>
      </trkpt>
      <trkpt lat="48.37161" lon="2.7468">
        <ele>81.37</ele>
        <time>2012-07-05T11:43:04Z</time>
      </trkpt>
      <trkpt lat="48.37173" lon="2.74676">
        <ele>80.41</ele>
        <time>2012-07-05T11:43:18Z</time>
      </trkpt>
      <trkpt lat="48.37186" lon="2.7467">
        <ele>79.45</ele>
        <time>2012-07-05T11:43:32Z</time>
      </trkpt>
      <trkpt lat="48.37198" lon="2.74655">
        <ele>79.93</ele>
        <time>2012-07-05T11:43:45Z</time>
      </trkpt>
      <trkpt lat="48.37201" lon="2.74634">
        <ele>80.89</ele>
        <time>2012-07-05T11:43:58Z</time>
      </trkpt>
      <trkpt lat="48.37187" lon="2.74626">
        <ele>82.81</ele>
        <time>2012-07-05T11:44:14Z</time>
      </trkpt>
      <trkpt lat="48.37187" lon="2.74626">
        <ele>83.29</ele>
        <time>2012-07-05T11:44:15Z</time>
      </trkpt>
      <trkpt lat="48.37179" lon="2.74627">
        <ele>84.73</ele>
        <time>2012-07-05T11:44:30Z</time>
      </trkpt>
      <trkpt lat="48.37173" lon="2.74612">
        <ele>87.14</ele>
        <time>2012-07-05T11:44:44Z</time>
      </trkpt>
      <trkpt lat="48.37172" lon="2.74612">
        <ele>88.58</ele>
        <time>2012-07-05T11:44:48Z</time>
      </trkpt>
      <trkpt lat="48.37167" lon="2.74614">
        <ele>89.54</ele>
        <time>2012-07-05T11:45:01Z</time>
      </trkpt>
      <trkpt lat="48.37165" lon="2.74608">
        <ele>90.98</ele>
        <time>2012-07-05T11:45:15Z</time>
      </trkpt>
      <trkpt lat="48.37158" lon="2.74603">
        <ele>93.39</ele>
        <time>2012-07-05T11:45:29Z</time>
      </trkpt>
      <trkpt lat="48.37156" lon="2.74597">
        <ele>94.83</ele>
        <time>2012-07-05T11:45:45Z</time>
      </trkpt>
      <trkpt lat="48.37156" lon="2.74597">
        <ele>95.31</ele>
        <time>2012-07-05T11:46:06Z</time>
      </trkpt>
      <trkpt lat="48.37159" lon="2.74583">
        <ele>94.35</ele>
        <time>2012-07-05T11:46:22Z</time>
      </trkpt>
      <trkpt lat="48.37165" lon="2.74571">
        <ele>92.9</ele>
        <time>2012-07-05T11:46:36Z</time>
      </trkpt>
      <trkpt lat="48.37168" lon="2.7456">
        <ele>91.94</ele>
        <time>2012-07-05T11:46:48Z</time>
      </trkpt>
      <trkpt lat="48.3718" lon="2.74551">
        <ele>90.02</ele>
        <time>2012-07-05T11:47:02Z</time>
      </trkpt>
      <trkpt lat="48.37194" lon="2.74544">
        <ele>90.02</ele>
        <time>2012-07-05T11:47:17Z</time>
      </trkpt>
      <trkpt lat="48.37201" lon="2.7454">
        <ele>88.58</ele>
        <time>2012-07-05T11:47:30Z</time>
      </trkpt>
      <trkpt lat="48.37209" lon="2.74538">
        <ele>87.14</ele>
        <time>2012-07-05T11:47:44Z</time>
      </trkpt>
      <trkpt lat="48.37212" lon="2.74524">
        <ele>84.25</ele>
        <time>2012-07-05T11:47:58Z</time>
      </trkpt>
      <trkpt lat="48.37214" lon="2.7451">
        <ele>82.33</ele>
        <time>2012-07-05T11:48:12Z</time>
      </trkpt>
      <trkpt lat="48.37216" lon="2.74495">
        <ele>82.33</ele>
        <time>2012-07-05T11:48:24Z</time>
      </trkpt>
      <trkpt lat="48.37216" lon="2.74493">
        <ele>80.89</ele>
        <time>2012-07-05T11:48:38Z</time>
      </trkpt>
      <trkpt lat="48.3721" lon="2.74478">
        <ele>81.37</ele>
        <time>2012-07-05T11:48:50Z</time>
      </trkpt>
      <trkpt lat="48.37206" lon="2.74468">
        <ele>80.41</ele>
        <time>2012-07-05T11:49:03Z</time>
      </trkpt>
      <trkpt lat="48.37204" lon="2.74465">
        <ele>80.89</ele>
        <time>2012-07-05T11:49:25Z</time>
      </trkpt>
      <trkpt lat="48.37192" lon="2.74456">
        <ele>81.37</ele>
        <time>2012-07-05T11:49:39Z</time>
      </trkpt>
      <trkpt lat="48.37183" lon="2.74447">
        <ele>82.33</ele>
        <time>2012-07-05T11:49:49Z</time>
      </trkpt>
      <trkpt lat="48.37171" lon="2.74438">
        <ele>84.25</ele>
        <time>2012-07-05T11:50:03Z</time>
      </trkpt>
      <trkpt lat="48.37162" lon="2.74438">
        <ele>85.69</ele>
        <time>2012-07-05T11:50:13Z</time>
      </trkpt>
      <trkpt lat="48.37149" lon="2.74452">
        <ele>87.62</ele>
        <time>2012-07-05T11:50:28Z</time>
      </trkpt>
      <trkpt lat="48.3714" lon="2.74453">
        <ele>89.54</ele>
        <time>2012-07-05T11:50:39Z</time>
      </trkpt>
      <trkpt lat="48.37138" lon="2.74453">
        <ele>90.02</ele>
        <time>2012-07-05T11:50:41Z</time>
      </trkpt>
      <trkpt lat="48.37133" lon="2.74452">
        <ele>90.5</ele>
        <time>2012-07-05T11:50:45Z</time>
      </trkpt>
      <trkpt lat="48.37121" lon="2.74455">
        <ele>91.46</ele>
        <time>2012-07-05T11:50:58Z</time>
      </trkpt>
      <trkpt lat="48.37109" lon="2.74445">
        <ele>90.98</ele>
        <time>2012-07-05T11:51:13Z</time>
      </trkpt>
      <trkpt lat="48.37099" lon="2.74441">
        <ele>91.94</ele>
        <time>2012-07-05T11:51:22Z</time>
      </trkpt>
      <trkpt lat="48.37092" lon="2.74442">
        <ele>91.94</ele>
        <time>2012-07-05T11:51:29Z</time>
      </trkpt>
      <trkpt lat="48.37077" lon="2.74444">
        <ele>94.35</ele>
        <time>2012-07-05T11:51:47Z</time>
      </trkpt>
      <trkpt lat="48.37058" lon="2.74451">
        <ele>97.23</ele>
        <time>2012-07-05T11:52:05Z</time>
      </trkpt>
      <trkpt lat="48.37046" lon="2.74451">
        <ele>99.63</ele>
        <time>2012-07-05T11:52:19Z</time>
      </trkpt>
      <trkpt lat="48.37032" lon="2.74445">
        <ele>102.52</ele>
        <time>2012-07-05T11:52:37Z</time>
      </trkpt>
      <trkpt lat="48.37026" lon="2.74444">
        <ele>105.4</ele>
        <time>2012-07-05T11:52:52Z</time>
      </trkpt>
      <trkpt lat="48.37017" lon="2.74434">
        <ele>108.29</ele>
        <time>2012-07-05T11:53:07Z</time>
      </trkpt>
      <trkpt lat="48.3701" lon="2.74437">
        <ele>111.65</ele>
        <time>2012-07-05T11:53:25Z</time>
      </trkpt>
      <trkpt lat="48.37008" lon="2.74443">
        <ele>114.05</ele>
        <time>2012-07-05T11:53:38Z</time>
      </trkpt>
      <trkpt lat="48.37003" lon="2.74454">
        <ele>115.98</ele>
        <time>2012-07-05T11:53:51Z</time>
      </trkpt>
      <trkpt lat="48.3699" lon="2.74461">
        <ele>116.46</ele>
        <time>2012-07-05T11:54:04Z</time>
      </trkpt>
      <trkpt lat="48.36976" lon="2.74463">
        <ele>116.94</ele>
        <time>2012-07-05T11:54:17Z</time>
      </trkpt>
      <trkpt lat="48.36973" lon="2.74465">
        <ele>116.94</ele>
        <time>2012-07-05T11:54:31Z</time>
      </trkpt>
      <trkpt lat="48.36973" lon="2.74465">
        <ele>117.42</ele>
        <time>2012-07-05T11:55:00Z</time>
      </trkpt>
      <trkpt lat="48.36973" lon="2.74465">
        <ele>116.94</ele>
        <time>2012-07-05T11:55:22Z</time>
      </trkpt>
      <trkpt lat="48.3697" lon="2.74466">
        <ele>117.42</ele>
        <time>2012-07-05T11:55:29Z</time>
      </trkpt>
      <trkpt lat="48.36954" lon="2.7447">
        <ele>117.9</ele>
        <time>2012-07-05T11:55:42Z</time>
      </trkpt>
      <trkpt lat="48.36935" lon="2.74471">
        <ele>117.42</ele>
        <time>2012-07-05T11:55:59Z</time>
      </trkpt>
      <trkpt lat="48.36922" lon="2.74472">
        <ele>117.42</ele>
        <time>2012-07-05T11:56:14Z</time>
      </trkpt>
      <trkpt lat="48.36915" lon="2.74468">
        <ele>116.94</ele>
        <time>2012-07-05T11:56:19Z</time>
      </trkpt>
      <trkpt lat="48.36901" lon="2.74466">
        <ele>116.94</ele>
        <time>2012-07-05T11:56:34Z</time>
      </trkpt>
      <trkpt lat="48.36888" lon="2.7446">
        <ele>116.94</ele>
        <time>2012-07-05T11:56:46Z</time>
      </trkpt>
      <trkpt lat="48.36875" lon="2.74446">
        <ele>116.46</ele>
        <time>2012-07-05T11:56:59Z</time>
      </trkpt>
      <trkpt lat="48.36875" lon="2.74445">
        <ele>116.46</ele>
        <time>2012-07-05T11:57:16Z</time>
      </trkpt>
      <trkpt lat="48.36869" lon="2.74445">
        <ele>116.46</ele>
        <time>2012-07-05T11:57:30Z</time>
      </trkpt>
      <trkpt lat="48.36857" lon="2.74456">
        <ele>114.53</ele>
        <time>2012-07-05T11:57:45Z</time>
      </trkpt>
      <trkpt lat="48.36852" lon="2.74465">
        <ele>112.61</ele>
        <time>2012-07-05T11:58:00Z</time>
      </trkpt>
      <trkpt lat="48.36842" lon="2.74475">
        <ele>109.73</ele>
        <time>2012-07-05T11:58:16Z</time>
      </trkpt>
      <trkpt lat="48.36833" lon="2.74487">
        <ele>107.32</ele>
        <time>2012-07-05T11:58:28Z</time>
      </trkpt>
      <trkpt lat="48.36823" lon="2.74492">
        <ele>104.92</ele>
        <time>2012-07-05T11:58:40Z</time>
      </trkpt>
      <trkpt lat="48.36809" lon="2.74493">
        <ele>101.56</ele>
        <time>2012-07-05T11:58:55Z</time>
      </trkpt>
      <trkpt lat="48.36802" lon="2.74493">
        <ele>100.11</ele>
        <time>2012-07-05T11:59:04Z</time>
      </trkpt>
      <trkpt lat="48.36798" lon="2.74493">
        <ele>99.63</ele>
        <time>2012-07-05T11:59:08Z</time>
      </trkpt>
      <trkpt lat="48.3677" lon="2.74482">
        <ele>97.23</ele>
        <time>2012-07-05T11:59:25Z</time>
      </trkpt>
      <trkpt lat="48.36751" lon="2.74474">
        <ele>95.79</ele>
        <time>2012-07-05T11:59:40Z</time>
      </trkpt>
      <trkpt lat="48.3674" lon="2.74473">
        <ele>94.35</ele>
        <time>2012-07-05T11:59:57Z</time>
      </trkpt>
      <trkpt lat="48.36722" lon="2.7447">
        <ele>93.87</ele>
        <time>2012-07-05T12:00:11Z</time>
      </trkpt>
      <trkpt lat="48.36703" lon="2.74465">
        <ele>92.42</ele>
        <time>2012-07-05T12:00:26Z</time>
      </trkpt>
      <trkpt lat="48.36689" lon="2.74469">
        <ele>90.5</ele>
        <time>2012-07-05T12:00:40Z</time>
      </trkpt>
      <trkpt lat="48.36673" lon="2.74472">
        <ele>89.54</ele>
        <time>2012-07-05T12:00:54Z</time>
      </trkpt>
      <trkpt lat="48.36669" lon="2.74474">
        <ele>89.06</ele>
        <time>2012-07-05T12:00:59Z</time>
      </trkpt>
      <trkpt lat="48.36652" lon="2.74478">
        <ele>89.06</ele>
        <time>2012-07-05T12:01:12Z</time>
      </trkpt>
      <trkpt lat="48.36646" lon="2.74479">
        <ele>88.58</ele>
        <time>2012-07-05T12:01:16Z</time>
      </trkpt>
      <trkpt lat="48.36635" lon="2.74481">
        <ele>88.58</ele>
        <time>2012-07-05T12:01:22Z</time>
      </trkpt>
      <trkpt lat="48.36617" lon="2.7448">
        <ele>87.62</ele>
        <time>2012-07-05T12:01:33Z</time>
      </trkpt>
      <trkpt lat="48.36603" lon="2.74484">
        <ele>87.14</ele>
        <time>2012-07-05T12:01:46Z</time>
      </trkpt>
      <trkpt lat="48.36586" lon="2.7449">
        <ele>87.14</ele>
        <time>2012-07-05T12:02:00Z</time>
      </trkpt>
      <trkpt lat="48.36568" lon="2.74492">
        <ele>87.14</ele>
        <time>2012-07-05T12:02:14Z</time>
      </trkpt>
      <trkpt lat="48.36552" lon="2.74493">
        <ele>87.14</ele>
        <time>2012-07-05T12:02:28Z</time>
      </trkpt>
      <trkpt lat="48.36533" lon="2.74497">
        <ele>88.1</ele>
        <time>2012-07-05T12:02:44Z</time>
      </trkpt>
      <trkpt lat="48.36514" lon="2.74501">
        <ele>88.58</ele>
        <time>2012-07-05T12:02:59Z</time>
      </trkpt>
      <trkpt lat="48.36495" lon="2.74503">
        <ele>89.06</ele>
        <time>2012-07-05T12:03:12Z</time>
      </trkpt>
      <trkpt lat="48.36481" lon="2.7451">
        <ele>90.02</ele>
        <time>2012-07-05T12:03:24Z</time>
      </trkpt>
      <trkpt lat="48.36473" lon="2.74512">
        <ele>90.02</ele>
        <time>2012-07-05T12:03:32Z</time>
      </trkpt>
      <trkpt lat="48.36455" lon="2.74516">
        <ele>90.98</ele>
        <time>2012-07-05T12:03:48Z</time>
      </trkpt>
      <trkpt lat="48.36442" lon="2.74517">
        <ele>91.94</ele>
        <time>2012-07-05T12:04:00Z</time>
      </trkpt>
      <trkpt lat="48.36422" lon="2.74521">
        <ele>93.39</ele>
        <time>2012-07-05T12:04:16Z</time>
      </trkpt>
      <trkpt lat="48.36408" lon="2.74522">
        <ele>94.35</ele>
        <time>2012-07-05T12:04:27Z</time>
      </trkpt>
      <trkpt lat="48.36389" lon="2.74526">
        <ele>96.27</ele>
        <time>2012-07-05T12:04:45Z</time>
      </trkpt>
      <trkpt lat="48.36373" lon="2.74528">
        <ele>96.75</ele>
        <time>2012-07-05T12:04:59Z</time>
      </trkpt>
      <trkpt lat="48.36359" lon="2.7453">
        <ele>95.31</ele>
        <time>2012-07-05T12:05:12Z</time>
      </trkpt>
      <trkpt lat="48.36357" lon="2.7453">
        <ele>95.31</ele>
        <time>2012-07-05T12:05:15Z</time>
      </trkpt>
      <trkpt lat="48.36355" lon="2.7453">
        <ele>94.83</ele>
        <time>2012-07-05T12:05:17Z</time>
      </trkpt>
      <trkpt lat="48.36337" lon="2.74532">
        <ele>93.39</ele>
        <time>2012-07-05T12:05:32Z</time>
      </trkpt>
      <trkpt lat="48.36322" lon="2.74537">
        <ele>91.94</ele>
        <time>2012-07-05T12:05:46Z</time>
      </trkpt>
      <trkpt lat="48.36314" lon="2.74535">
        <ele>91.46</ele>
        <time>2012-07-05T12:06:01Z</time>
      </trkpt>
      <trkpt lat="48.36314" lon="2.74522">
        <ele>90.98</ele>
        <time>2012-07-05T12:06:16Z</time>
      </trkpt>
      <trkpt lat="48.36315" lon="2.74502">
        <ele>90.5</ele>
        <time>2012-07-05T12:06:32Z</time>
      </trkpt>
      <trkpt lat="48.36315" lon="2.745">
        <ele>90.5</ele>
        <time>2012-07-05T12:06:33Z</time>
      </trkpt>
      <trkpt lat="48.36312" lon="2.74474">
        <ele>90.02</ele>
        <time>2012-07-05T12:06:47Z</time>
      </trkpt>
      <trkpt lat="48.36312" lon="2.7445">
        <ele>89.54</ele>
        <time>2012-07-05T12:07:01Z</time>
      </trkpt>
      <trkpt lat="48.3631" lon="2.74433">
        <ele>89.06</ele>
        <time>2012-07-05T12:07:12Z</time>
      </trkpt>
      <trkpt lat="48.3631" lon="2.7441">
        <ele>88.58</ele>
        <time>2012-07-05T12:07:25Z</time>
      </trkpt>
      <trkpt lat="48.36306" lon="2.74382">
        <ele>88.1</ele>
        <time>2012-07-05T12:07:40Z</time>
      </trkpt>
      <trkpt lat="48.36304" lon="2.74344">
        <ele>87.62</ele>
        <time>2012-07-05T12:07:58Z</time>
      </trkpt>
      <trkpt lat="48.36303" lon="2.74309">
        <ele>86.18</ele>
        <time>2012-07-05T12:08:14Z</time>
      </trkpt>
      <trkpt lat="48.36303" lon="2.74292">
        <ele>86.66</ele>
        <time>2012-07-05T12:08:22Z</time>
      </trkpt>
      <trkpt lat="48.36302" lon="2.74268">
        <ele>86.18</ele>
        <time>2012-07-05T12:08:36Z</time>
      </trkpt>
      <trkpt lat="48.36304" lon="2.74246">
        <ele>85.69</ele>
        <time>2012-07-05T12:08:49Z</time>
      </trkpt>
      <trkpt lat="48.36303" lon="2.74215">
        <ele>85.21</ele>
        <time>2012-07-05T12:09:05Z</time>
      </trkpt>
      <trkpt lat="48.36306" lon="2.74194">
        <ele>85.21</ele>
        <time>2012-07-05T12:09:18Z</time>
      </trkpt>
      <trkpt lat="48.36307" lon="2.74178">
        <ele>84.73</ele>
        <time>2012-07-05T12:09:29Z</time>
      </trkpt>
      <trkpt lat="48.36308" lon="2.74152">
        <ele>84.25</ele>
        <time>2012-07-05T12:09:44Z</time>
      </trkpt>
      <trkpt lat="48.3631" lon="2.74127">
        <ele>84.73</ele>
        <time>2012-07-05T12:09:58Z</time>
      </trkpt>
      <trkpt lat="48.3631" lon="2.74094">
        <ele>83.77</ele>
        <time>2012-07-05T12:10:13Z</time>
      </trkpt>
      <trkpt lat="48.36311" lon="2.7408">
        <ele>83.29</ele>
        <time>2012-07-05T12:10:20Z</time>
      </trkpt>
      <trkpt lat="48.36312" lon="2.74058">
        <ele>83.77</ele>
        <time>2012-07-05T12:10:34Z</time>
      </trkpt>
      <trkpt lat="48.36312" lon="2.74054">
        <ele>83.29</ele>
        <time>2012-07-05T12:10:36Z</time>
      </trkpt>
      <trkpt lat="48.36312" lon="2.74042">
        <ele>83.29</ele>
        <time>2012-07-05T12:10:42Z</time>
      </trkpt>
      <trkpt lat="48.36315" lon="2.74011">
        <ele>82.81</ele>
        <time>2012-07-05T12:10:59Z</time>
      </trkpt>
      <trkpt lat="48.36316" lon="2.74004">
        <ele>82.81</ele>
        <time>2012-07-05T12:11:03Z</time>
      </trkpt>
      <trkpt lat="48.36316" lon="2.73976">
        <ele>82.33</ele>
        <time>2012-07-05T12:11:19Z</time>
      </trkpt>
      <trkpt lat="48.36319" lon="2.73951">
        <ele>82.33</ele>
        <time>2012-07-05T12:11:33Z</time>
      </trkpt>
      <trkpt lat="48.3632" lon="2.73922">
        <ele>81.85</ele>
        <time>2012-07-05T12:11:49Z</time>
      </trkpt>
      <trkpt lat="48.36322" lon="2.73895">
        <ele>81.37</ele>
        <time>2012-07-05T12:12:05Z</time>
      </trkpt>
      <trkpt lat="48.36322" lon="2.73868">
        <ele>81.37</ele>
        <time>2012-07-05T12:12:19Z</time>
      </trkpt>
      <trkpt lat="48.36326" lon="2.73842">
        <ele>80.89</ele>
        <time>2012-07-05T12:12:33Z</time>
      </trkpt>
      <trkpt lat="48.36324" lon="2.73817">
        <ele>80.89</ele>
        <time>2012-07-05T12:12:47Z</time>
      </trkpt>
      <trkpt lat="48.36325" lon="2.73805">
        <ele>80.89</ele>
        <time>2012-07-05T12:12:54Z</time>
      </trkpt>
      <trkpt lat="48.36326" lon="2.738">
        <ele>80.89</ele>
        <time>2012-07-05T12:12:56Z</time>
      </trkpt>
      <trkpt lat="48.36326" lon="2.73794">
        <ele>80.89</ele>
        <time>2012-07-05T12:12:59Z</time>
      </trkpt>
      <trkpt lat="48.36329" lon="2.7377">
        <ele>80.41</ele>
        <time>2012-07-05T12:13:15Z</time>
      </trkpt>
      <trkpt lat="48.3633" lon="2.73766">
        <ele>80.41</ele>
        <time>2012-07-05T12:13:20Z</time>
      </trkpt>
      <trkpt lat="48.3633" lon="2.73761">
        <ele>80.41</ele>
        <time>2012-07-05T12:13:23Z</time>
      </trkpt>
      <trkpt lat="48.36329" lon="2.73747">
        <ele>80.41</ele>
        <time>2012-07-05T12:13:35Z</time>
      </trkpt>
      <trkpt lat="48.36329" lon="2.73747">
        <ele>80.41</ele>
        <time>2012-07-05T12:13:51Z</time>
      </trkpt>
      <trkpt lat="48.36327" lon="2.73742">
        <ele>80.41</ele>
        <time>2012-07-05T12:14:16Z</time>
      </trkpt>
      <trkpt lat="48.36327" lon="2.73742">
        <ele>80.41</ele>
        <time>2012-07-05T12:14:21Z</time>
      </trkpt>
      <trkpt lat="48.36328" lon="2.73722">
        <ele>79.93</ele>
        <time>2012-07-05T12:14:32Z</time>
      </trkpt>
      <trkpt lat="48.3633" lon="2.73689">
        <ele>79.93</ele>
        <time>2012-07-05T12:14:46Z</time>
      </trkpt>
      <trkpt lat="48.36333" lon="2.73667">
        <ele>79.93</ele>
        <time>2012-07-05T12:15:02Z</time>
      </trkpt>
      <trkpt lat="48.36335" lon="2.73655">
        <ele>79.93</ele>
        <time>2012-07-05T12:15:13Z</time>
      </trkpt>
      <trkpt lat="48.36343" lon="2.73628">
        <ele>79.45</ele>
        <time>2012-07-05T12:15:27Z</time>
      </trkpt>
      <trkpt lat="48.36344" lon="2.73602">
        <ele>78.97</ele>
        <time>2012-07-05T12:15:38Z</time>
      </trkpt>
      <trkpt lat="48.36343" lon="2.73579">
        <ele>79.45</ele>
        <time>2012-07-05T12:15:50Z</time>
      </trkpt>
      <trkpt lat="48.36347" lon="2.73543">
        <ele>79.45</ele>
        <time>2012-07-05T12:16:04Z</time>
      </trkpt>
      <trkpt lat="48.36348" lon="2.73522">
        <ele>79.45</ele>
        <time>2012-07-05T12:16:16Z</time>
      </trkpt>
      <trkpt lat="48.36351" lon="2.73499">
        <ele>79.45</ele>
        <time>2012-07-05T12:16:28Z</time>
      </trkpt>
      <trkpt lat="48.3635" lon="2.73483">
        <ele>79.45</ele>
        <time>2012-07-05T12:16:36Z</time>
      </trkpt>
      <trkpt lat="48.36352" lon="2.73451">
        <ele>79.45</ele>
        <time>2012-07-05T12:16:51Z</time>
      </trkpt>
      <trkpt lat="48.36354" lon="2.73433">
        <ele>78.97</ele>
        <time>2012-07-05T12:17:04Z</time>
      </trkpt>
      <trkpt lat="48.36357" lon="2.73411">
        <ele>79.45</ele>
        <time>2012-07-05T12:17:19Z</time>
      </trkpt>
      <trkpt lat="48.36362" lon="2.73375">
        <ele>78.48</ele>
        <time>2012-07-05T12:17:34Z</time>
      </trkpt>
      <trkpt lat="48.36364" lon="2.73362">
        <ele>78.97</ele>
        <time>2012-07-05T12:17:41Z</time>
      </trkpt>
      <trkpt lat="48.36365" lon="2.73333">
        <ele>78.97</ele>
        <time>2012-07-05T12:17:55Z</time>
      </trkpt>
      <trkpt lat="48.36368" lon="2.73312">
        <ele>78</ele>
        <time>2012-07-05T12:18:09Z</time>
      </trkpt>
      <trkpt lat="48.36373" lon="2.73288">
        <ele>78.48</ele>
        <time>2012-07-05T12:18:24Z</time>
      </trkpt>
      <trkpt lat="48.36374" lon="2.73259">
        <ele>78</ele>
        <time>2012-07-05T12:18:36Z</time>
      </trkpt>
      <trkpt lat="48.36374" lon="2.73236">
        <ele>77.52</ele>
        <time>2012-07-05T12:18:48Z</time>
      </trkpt>
      <trkpt lat="48.36375" lon="2.73229">
        <ele>77.52</ele>
        <time>2012-07-05T12:18:53Z</time>
      </trkpt>
      <trkpt lat="48.36378" lon="2.73209">
        <ele>78</ele>
        <time>2012-07-05T12:19:05Z</time>
      </trkpt>
      <trkpt lat="48.36381" lon="2.73193">
        <ele>77.52</ele>
        <time>2012-07-05T12:19:15Z</time>
      </trkpt>
      <trkpt lat="48.36383" lon="2.7318">
        <ele>77.52</ele>
        <time>2012-07-05T12:19:28Z</time>
      </trkpt>
      <trkpt lat="48.36384" lon="2.73174">
        <ele>77.52</ele>
        <time>2012-07-05T12:19:55Z</time>
      </trkpt>
      <trkpt lat="48.36384" lon="2.73164">
        <ele>77.52</ele>
        <time>2012-07-05T12:20:11Z</time>
      </trkpt>
      <trkpt lat="48.36386" lon="2.73137">
        <ele>77.52</ele>
        <time>2012-07-05T12:20:24Z</time>
      </trkpt>
      <trkpt lat="48.36389" lon="2.7311">
        <ele>77.52</ele>
        <time>2012-07-05T12:20:38Z</time>
      </trkpt>
      <trkpt lat="48.36391" lon="2.73096">
        <ele>77.52</ele>
        <time>2012-07-05T12:20:50Z</time>
      </trkpt>
      <trkpt lat="48.36391" lon="2.73061">
        <ele>77.52</ele>
        <time>2012-07-05T12:21:07Z</time>
      </trkpt>
      <trkpt lat="48.36394" lon="2.73032">
        <ele>77.04</ele>
        <time>2012-07-05T12:21:21Z</time>
      </trkpt>
      <trkpt lat="48.36399" lon="2.73006">
        <ele>77.04</ele>
        <time>2012-07-05T12:21:35Z</time>
      </trkpt>
      <trkpt lat="48.364" lon="2.72983">
        <ele>76.56</ele>
        <time>2012-07-05T12:21:49Z</time>
      </trkpt>
      <trkpt lat="48.36404" lon="2.72954">
        <ele>77.04</ele>
        <time>2012-07-05T12:22:03Z</time>
      </trkpt>
      <trkpt lat="48.36405" lon="2.72927">
        <ele>77.04</ele>
        <time>2012-07-05T12:22:15Z</time>
      </trkpt>
      <trkpt lat="48.36405" lon="2.72918">
        <ele>77.04</ele>
        <time>2012-07-05T12:22:19Z</time>
      </trkpt>
      <trkpt lat="48.36409" lon="2.72893">
        <ele>77.04</ele>
        <time>2012-07-05T12:22:31Z</time>
      </trkpt>
      <trkpt lat="48.36412" lon="2.72869">
        <ele>77.04</ele>
        <time>2012-07-05T12:22:46Z</time>
      </trkpt>
      <trkpt lat="48.36412" lon="2.72841">
        <ele>76.08</ele>
        <time>2012-07-05T12:23:00Z</time>
      </trkpt>
      <trkpt lat="48.36415" lon="2.72822">
        <ele>76.08</ele>
        <time>2012-07-05T12:23:14Z</time>
      </trkpt>
      <trkpt lat="48.36418" lon="2.72788">
        <ele>76.08</ele>
        <time>2012-07-05T12:23:28Z</time>
      </trkpt>
      <trkpt lat="48.36421" lon="2.72761">
        <ele>75.6</ele>
        <time>2012-07-05T12:23:42Z</time>
      </trkpt>
      <trkpt lat="48.36423" lon="2.72738">
        <ele>75.12</ele>
        <time>2012-07-05T12:23:57Z</time>
      </trkpt>
      <trkpt lat="48.36427" lon="2.72724">
        <ele>74.64</ele>
        <time>2012-07-05T12:24:12Z</time>
      </trkpt>
      <trkpt lat="48.3643" lon="2.72704">
        <ele>74.64</ele>
        <time>2012-07-05T12:24:24Z</time>
      </trkpt>
      <trkpt lat="48.36432" lon="2.72678">
        <ele>74.64</ele>
        <time>2012-07-05T12:24:40Z</time>
      </trkpt>
      <trkpt lat="48.36432" lon="2.72644">
        <ele>74.64</ele>
        <time>2012-07-05T12:24:54Z</time>
      </trkpt>
      <trkpt lat="48.36435" lon="2.72607">
        <ele>74.64</ele>
        <time>2012-07-05T12:25:06Z</time>
      </trkpt>
      <trkpt lat="48.36441" lon="2.72579">
        <ele>75.12</ele>
        <time>2012-07-05T12:25:20Z</time>
      </trkpt>
      <trkpt lat="48.36445" lon="2.72562">
        <ele>74.64</ele>
        <time>2012-07-05T12:25:31Z</time>
      </trkpt>
      <trkpt lat="48.36446" lon="2.72528">
        <ele>75.12</ele>
        <time>2012-07-05T12:25:47Z</time>
      </trkpt>
      <trkpt lat="48.3645" lon="2.72516">
        <ele>75.12</ele>
        <time>2012-07-05T12:26:00Z</time>
      </trkpt>
      <trkpt lat="48.36454" lon="2.72487">
        <ele>75.12</ele>
        <time>2012-07-05T12:26:14Z</time>
      </trkpt>
      <trkpt lat="48.36456" lon="2.72459">
        <ele>74.16</ele>
        <time>2012-07-05T12:26:27Z</time>
      </trkpt>
      <trkpt lat="48.36456" lon="2.72429">
        <ele>74.16</ele>
        <time>2012-07-05T12:26:39Z</time>
      </trkpt>
      <trkpt lat="48.36456" lon="2.724">
        <ele>73.68</ele>
        <time>2012-07-05T12:26:52Z</time>
      </trkpt>
      <trkpt lat="48.3646" lon="2.72367">
        <ele>72.72</ele>
        <time>2012-07-05T12:27:09Z</time>
      </trkpt>
      <trkpt lat="48.36463" lon="2.72344">
        <ele>72.72</ele>
        <time>2012-07-05T12:27:22Z</time>
      </trkpt>
      <trkpt lat="48.36467" lon="2.72319">
        <ele>73.2</ele>
        <time>2012-07-05T12:27:35Z</time>
      </trkpt>
      <trkpt lat="48.3647" lon="2.72297">
        <ele>73.2</ele>
        <time>2012-07-05T12:27:49Z</time>
      </trkpt>
      <trkpt lat="48.36471" lon="2.72268">
        <ele>73.2</ele>
        <time>2012-07-05T12:28:03Z</time>
      </trkpt>
      <trkpt lat="48.36475" lon="2.7224">
        <ele>73.2</ele>
        <time>2012-07-05T12:28:18Z</time>
      </trkpt>
      <trkpt lat="48.36478" lon="2.72214">
        <ele>73.68</ele>
        <time>2012-07-05T12:28:32Z</time>
      </trkpt>
      <trkpt lat="48.36482" lon="2.72191">
        <ele>73.68</ele>
        <time>2012-07-05T12:28:46Z</time>
      </trkpt>
      <trkpt lat="48.36485" lon="2.72167">
        <ele>74.64</ele>
        <time>2012-07-05T12:28:58Z</time>
      </trkpt>
      <trkpt lat="48.36486" lon="2.72153">
        <ele>74.64</ele>
        <time>2012-07-05T12:29:10Z</time>
      </trkpt>
      <trkpt lat="48.36486" lon="2.72137">
        <ele>74.16</ele>
        <time>2012-07-05T12:29:23Z</time>
      </trkpt>
      <trkpt lat="48.36486" lon="2.72136">
        <ele>73.68</ele>
        <time>2012-07-05T12:29:45Z</time>
      </trkpt>
      <trkpt lat="48.36486" lon="2.72136">
        <ele>78.97</ele>
        <time>2012-07-05T12:29:49Z</time>
      </trkpt>
      <trkpt lat="48.36486" lon="2.72136">
        <ele>72.72</ele>
        <time>2012-07-05T12:29:50Z</time>
      </trkpt>
      <trkpt lat="48.36486" lon="2.72136">
        <ele>76.08</ele>
        <time>2012-07-05T12:29:51Z</time>
      </trkpt>
      <trkpt lat="48.36486" lon="2.72136">
        <ele>72.72</ele>
        <time>2012-07-05T12:29:52Z</time>
      </trkpt>
      <trkpt lat="48.36486" lon="2.72136">
        <ele>75.6</ele>
        <time>2012-07-05T12:29:53Z</time>
      </trkpt>
      <trkpt lat="48.36486" lon="2.72136">
        <ele>74.16</ele>
        <time>2012-07-05T12:30:20Z</time>
      </trkpt>
      <trkpt lat="48.36486" lon="2.72136">
        <ele>73.68</ele>
        <time>2012-07-05T12:30:42Z</time>
      </trkpt>
      <trkpt lat="48.36486" lon="2.72136">
        <ele>73.68</ele>
        <time>2012-07-05T12:31:09Z</time>
      </trkpt>
      <trkpt lat="48.36486" lon="2.72133">
        <ele>73.68</ele>
        <time>2012-07-05T12:31:36Z</time>
      </trkpt>
      <trkpt lat="48.36487" lon="2.72133">
        <ele>73.2</ele>
        <time>2012-07-05T12:32:06Z</time>
      </trkpt>
      <trkpt lat="48.36487" lon="2.72133">
        <ele>73.2</ele>
        <time>2012-07-05T12:32:31Z</time>
      </trkpt>
      <trkpt lat="48.36487" lon="2.72133">
        <ele>79.45</ele>
        <time>2012-07-05T12:32:35Z</time>
      </trkpt>
      <trkpt lat="48.36487" lon="2.72133">
        <ele>74.16</ele>
        <time>2012-07-05T12:32:36Z</time>
      </trkpt>
      <trkpt lat="48.36486" lon="2.72133">
        <ele>81.85</ele>
        <time>2012-07-05T12:32:52Z</time>
      </trkpt>
      <trkpt lat="48.36486" lon="2.72133">
        <ele>62.62</ele>
        <time>2012-07-05T12:32:53Z</time>
      </trkpt>
      <trkpt lat="48.36486" lon="2.72133">
        <ele>74.64</ele>
        <time>2012-07-05T12:32:54Z</time>
      </trkpt>
      <trkpt lat="48.36486" lon="2.72133">
        <ele>73.2</ele>
        <time>2012-07-05T12:33:21Z</time>
      </trkpt>
      <trkpt lat="48.36486" lon="2.72132">
        <ele>73.2</ele>
        <time>2012-07-05T12:33:53Z</time>
      </trkpt>
      <trkpt lat="48.36486" lon="2.72132">
        <ele>72.72</ele>
        <time>2012-07-05T12:34:21Z</time>
      </trkpt>
      <trkpt lat="48.36486" lon="2.72132">
        <ele>72.72</ele>
        <time>2012-07-05T12:34:43Z</time>
      </trkpt>
      <trkpt lat="48.36486" lon="2.7213">
        <ele>73.2</ele>
        <time>2012-07-05T12:35:06Z</time>
      </trkpt>
      <trkpt lat="48.36485" lon="2.72123">
        <ele>73.2</ele>
        <time>2012-07-05T12:35:20Z</time>
      </trkpt>
      <trkpt lat="48.36492" lon="2.721">
        <ele>73.2</ele>
        <time>2012-07-05T12:35:36Z</time>
      </trkpt>
      <trkpt lat="48.36489" lon="2.72068">
        <ele>72.72</ele>
        <time>2012-07-05T12:35:51Z</time>
      </trkpt>
      <trkpt lat="48.36494" lon="2.72044">
        <ele>72.24</ele>
        <time>2012-07-05T12:36:05Z</time>
      </trkpt>
      <trkpt lat="48.36499" lon="2.72012">
        <ele>72.24</ele>
        <time>2012-07-05T12:36:21Z</time>
      </trkpt>
      <trkpt lat="48.36502" lon="2.71993">
        <ele>71.76</ele>
        <time>2012-07-05T12:36:33Z</time>
      </trkpt>
      <trkpt lat="48.36503" lon="2.71988">
        <ele>72.24</ele>
        <time>2012-07-05T12:36:37Z</time>
      </trkpt>
      <trkpt lat="48.36508" lon="2.71965">
        <ele>72.24</ele>
        <time>2012-07-05T12:36:49Z</time>
      </trkpt>
      <trkpt lat="48.36506" lon="2.71932">
        <ele>71.76</ele>
        <time>2012-07-05T12:37:03Z</time>
      </trkpt>
      <trkpt lat="48.36512" lon="2.71911">
        <ele>71.76</ele>
        <time>2012-07-05T12:37:14Z</time>
      </trkpt>
      <trkpt lat="48.36516" lon="2.719">
        <ele>72.24</ele>
        <time>2012-07-05T12:37:25Z</time>
      </trkpt>
      <trkpt lat="48.36524" lon="2.71878">
        <ele>72.24</ele>
        <time>2012-07-05T12:37:41Z</time>
      </trkpt>
      <trkpt lat="48.36525" lon="2.71864">
        <ele>72.24</ele>
        <time>2012-07-05T12:37:54Z</time>
      </trkpt>
      <trkpt lat="48.36526" lon="2.71838">
        <ele>72.24</ele>
        <time>2012-07-05T12:38:06Z</time>
      </trkpt>
      <trkpt lat="48.36524" lon="2.71811">
        <ele>71.27</ele>
        <time>2012-07-05T12:38:22Z</time>
      </trkpt>
      <trkpt lat="48.36525" lon="2.71764">
        <ele>71.76</ele>
        <time>2012-07-05T12:38:37Z</time>
      </trkpt>
      <trkpt lat="48.36531" lon="2.71724">
        <ele>71.76</ele>
        <time>2012-07-05T12:38:53Z</time>
      </trkpt>
      <trkpt lat="48.36535" lon="2.71694">
        <ele>71.76</ele>
        <time>2012-07-05T12:39:08Z</time>
      </trkpt>
      <trkpt lat="48.36537" lon="2.71676">
        <ele>72.72</ele>
        <time>2012-07-05T12:39:21Z</time>
      </trkpt>
      <trkpt lat="48.36541" lon="2.71661">
        <ele>72.72</ele>
        <time>2012-07-05T12:39:34Z</time>
      </trkpt>
      <trkpt lat="48.36536" lon="2.7162">
        <ele>73.2</ele>
        <time>2012-07-05T12:39:47Z</time>
      </trkpt>
      <trkpt lat="48.36534" lon="2.7159">
        <ele>74.16</ele>
        <time>2012-07-05T12:40:01Z</time>
      </trkpt>
      <trkpt lat="48.36532" lon="2.71561">
        <ele>74.16</ele>
        <time>2012-07-05T12:40:12Z</time>
      </trkpt>
      <trkpt lat="48.36531" lon="2.71557">
        <ele>74.16</ele>
        <time>2012-07-05T12:40:23Z</time>
      </trkpt>
      <trkpt lat="48.36522" lon="2.71559">
        <ele>73.68</ele>
        <time>2012-07-05T12:40:32Z</time>
      </trkpt>
      <trkpt lat="48.36516" lon="2.71576">
        <ele>74.16</ele>
        <time>2012-07-05T12:40:48Z</time>
      </trkpt>
      <trkpt lat="48.3653" lon="2.71578">
        <ele>74.16</ele>
        <time>2012-07-05T12:41:01Z</time>
      </trkpt>
      <trkpt lat="48.36541" lon="2.7156">
        <ele>74.64</ele>
        <time>2012-07-05T12:41:14Z</time>
      </trkpt>
      <trkpt lat="48.36548" lon="2.71552">
        <ele>75.6</ele>
        <time>2012-07-05T12:41:26Z</time>
      </trkpt>
      <trkpt lat="48.36566" lon="2.71524">
        <ele>74.64</ele>
        <time>2012-07-05T12:41:43Z</time>
      </trkpt>
      <trkpt lat="48.36575" lon="2.715">
        <ele>74.64</ele>
        <time>2012-07-05T12:41:59Z</time>
      </trkpt>
      <trkpt lat="48.36584" lon="2.71477">
        <ele>74.16</ele>
        <time>2012-07-05T12:42:14Z</time>
      </trkpt>
      <trkpt lat="48.36594" lon="2.71443">
        <ele>74.64</ele>
        <time>2012-07-05T12:42:31Z</time>
      </trkpt>
      <trkpt lat="48.36606" lon="2.71414">
        <ele>75.12</ele>
        <time>2012-07-05T12:42:47Z</time>
      </trkpt>
      <trkpt lat="48.36614" lon="2.71395">
        <ele>75.6</ele>
        <time>2012-07-05T12:43:03Z</time>
      </trkpt>
      <trkpt lat="48.36627" lon="2.71371">
        <ele>76.08</ele>
        <time>2012-07-05T12:43:17Z</time>
      </trkpt>
      <trkpt lat="48.36634" lon="2.71358">
        <ele>77.52</ele>
        <time>2012-07-05T12:43:32Z</time>
      </trkpt>
      <trkpt lat="48.36634" lon="2.71347">
        <ele>77.52</ele>
        <time>2012-07-05T12:43:48Z</time>
      </trkpt>
      <trkpt lat="48.36618" lon="2.71332">
        <ele>76.08</ele>
        <time>2012-07-05T12:44:05Z</time>
      </trkpt>
      <trkpt lat="48.36604" lon="2.71323">
        <ele>75.12</ele>
        <time>2012-07-05T12:44:22Z</time>
      </trkpt>
      <trkpt lat="48.36597" lon="2.71319">
        <ele>75.6</ele>
        <time>2012-07-05T12:44:33Z</time>
      </trkpt>
      <trkpt lat="48.36583" lon="2.71306">
        <ele>75.12</ele>
        <time>2012-07-05T12:44:48Z</time>
      </trkpt>
      <trkpt lat="48.36575" lon="2.71301">
        <ele>75.12</ele>
        <time>2012-07-05T12:45:00Z</time>
      </trkpt>
      <trkpt lat="48.36549" lon="2.71286">
        <ele>76.08</ele>
        <time>2012-07-05T12:45:12Z</time>
      </trkpt>
      <trkpt lat="48.36529" lon="2.71272">
        <ele>76.56</ele>
        <time>2012-07-05T12:45:27Z</time>
      </trkpt>
      <trkpt lat="48.36511" lon="2.71271">
        <ele>77.52</ele>
        <time>2012-07-05T12:45:42Z</time>
      </trkpt>
      <trkpt lat="48.36483" lon="2.71278">
        <ele>78.97</ele>
        <time>2012-07-05T12:45:58Z</time>
      </trkpt>
      <trkpt lat="48.36475" lon="2.71287">
        <ele>79.45</ele>
        <time>2012-07-05T12:46:07Z</time>
      </trkpt>
      <trkpt lat="48.36462" lon="2.71315">
        <ele>81.37</ele>
        <time>2012-07-05T12:46:24Z</time>
      </trkpt>
      <trkpt lat="48.36457" lon="2.71321">
        <ele>82.33</ele>
        <time>2012-07-05T12:46:31Z</time>
      </trkpt>
      <trkpt lat="48.36445" lon="2.71331">
        <ele>85.21</ele>
        <time>2012-07-05T12:46:46Z</time>
      </trkpt>
      <trkpt lat="48.36441" lon="2.71334">
        <ele>85.69</ele>
        <time>2012-07-05T12:46:49Z</time>
      </trkpt>
      <trkpt lat="48.36432" lon="2.71341">
        <ele>86.66</ele>
        <time>2012-07-05T12:46:55Z</time>
      </trkpt>
      <trkpt lat="48.36431" lon="2.71343">
        <ele>87.14</ele>
        <time>2012-07-05T12:46:57Z</time>
      </trkpt>
      <trkpt lat="48.36425" lon="2.71348">
        <ele>88.1</ele>
        <time>2012-07-05T12:47:02Z</time>
      </trkpt>
      <trkpt lat="48.36414" lon="2.7136">
        <ele>88.58</ele>
        <time>2012-07-05T12:47:16Z</time>
      </trkpt>
      <trkpt lat="48.36402" lon="2.71363">
        <ele>89.06</ele>
        <time>2012-07-05T12:47:31Z</time>
      </trkpt>
      <trkpt lat="48.36401" lon="2.71362">
        <ele>89.06</ele>
        <time>2012-07-05T12:47:51Z</time>
      </trkpt>
      <trkpt lat="48.36399" lon="2.71364">
        <ele>88.58</ele>
        <time>2012-07-05T12:48:06Z</time>
      </trkpt>
      <trkpt lat="48.36406" lon="2.71361">
        <ele>88.58</ele>
        <time>2012-07-05T12:48:20Z</time>
      </trkpt>
      <trkpt lat="48.36407" lon="2.71367">
        <ele>89.54</ele>
        <time>2012-07-05T12:48:38Z</time>
      </trkpt>
      <trkpt lat="48.36407" lon="2.71367">
        <ele>89.54</ele>
        <time>2012-07-05T12:49:01Z</time>
      </trkpt>
      <trkpt lat="48.36407" lon="2.71371">
        <ele>88.58</ele>
        <time>2012-07-05T12:49:23Z</time>
      </trkpt>
      <trkpt lat="48.36397" lon="2.71361">
        <ele>88.58</ele>
        <time>2012-07-05T12:49:38Z</time>
      </trkpt>
      <trkpt lat="48.36387" lon="2.71352">
        <ele>89.06</ele>
        <time>2012-07-05T12:49:57Z</time>
      </trkpt>
      <trkpt lat="48.36387" lon="2.71352">
        <ele>90.02</ele>
        <time>2012-07-05T12:50:15Z</time>
      </trkpt>
      <trkpt lat="48.36377" lon="2.71343">
        <ele>88.58</ele>
        <time>2012-07-05T12:50:29Z</time>
      </trkpt>
      <trkpt lat="48.36376" lon="2.71342">
        <ele>88.1</ele>
        <time>2012-07-05T12:50:51Z</time>
      </trkpt>
      <trkpt lat="48.36376" lon="2.71343">
        <ele>88.1</ele>
        <time>2012-07-05T12:51:17Z</time>
      </trkpt>
      <trkpt lat="48.36376" lon="2.71343">
        <ele>88.1</ele>
        <time>2012-07-05T12:51:46Z</time>
      </trkpt>
      <trkpt lat="48.36376" lon="2.71342">
        <ele>88.1</ele>
        <time>2012-07-05T12:52:13Z</time>
      </trkpt>
      <trkpt lat="48.36375" lon="2.71344">
        <ele>88.1</ele>
        <time>2012-07-05T12:52:37Z</time>
      </trkpt>
      <trkpt lat="48.36368" lon="2.71341">
        <ele>87.62</ele>
        <time>2012-07-05T12:53:05Z</time>
      </trkpt>
      <trkpt lat="48.36344" lon="2.71324">
        <ele>85.69</ele>
        <time>2012-07-05T12:53:21Z</time>
      </trkpt>
      <trkpt lat="48.36325" lon="2.71315">
        <ele>84.25</ele>
        <time>2012-07-05T12:53:38Z</time>
      </trkpt>
      <trkpt lat="48.36308" lon="2.71308">
        <ele>83.29</ele>
        <time>2012-07-05T12:53:53Z</time>
      </trkpt>
      <trkpt lat="48.36283" lon="2.71296">
        <ele>81.37</ele>
        <time>2012-07-05T12:54:09Z</time>
      </trkpt>
      <trkpt lat="48.36261" lon="2.71286">
        <ele>79.93</ele>
        <time>2012-07-05T12:54:26Z</time>
      </trkpt>
      <trkpt lat="48.36248" lon="2.71276">
        <ele>79.45</ele>
        <time>2012-07-05T12:54:41Z</time>
      </trkpt>
      <trkpt lat="48.3623" lon="2.71271">
        <ele>78.48</ele>
        <time>2012-07-05T12:54:58Z</time>
      </trkpt>
      <trkpt lat="48.36227" lon="2.71268">
        <ele>78.97</ele>
        <time>2012-07-05T12:55:19Z</time>
      </trkpt>
      <trkpt lat="48.36222" lon="2.7126">
        <ele>78.97</ele>
        <time>2012-07-05T12:55:38Z</time>
      </trkpt>
      <trkpt lat="48.36221" lon="2.71256">
        <ele>79.45</ele>
        <time>2012-07-05T12:55:41Z</time>
      </trkpt>
      <trkpt lat="48.36216" lon="2.71234">
        <ele>79.45</ele>
        <time>2012-07-05T12:55:55Z</time>
      </trkpt>
      <trkpt lat="48.36215" lon="2.71213">
        <ele>79.45</ele>
        <time>2012-07-05T12:56:07Z</time>
      </trkpt>
      <trkpt lat="48.36212" lon="2.71184">
        <ele>79.45</ele>
        <time>2012-07-05T12:56:22Z</time>
      </trkpt>
      <trkpt lat="48.36209" lon="2.71157">
        <ele>78.97</ele>
        <time>2012-07-05T12:56:38Z</time>
      </trkpt>
      <trkpt lat="48.36209" lon="2.71134">
        <ele>79.45</ele>
        <time>2012-07-05T12:56:51Z</time>
      </trkpt>
      <trkpt lat="48.36205" lon="2.7111">
        <ele>80.41</ele>
        <time>2012-07-05T12:57:07Z</time>
      </trkpt>
      <trkpt lat="48.36208" lon="2.71077">
        <ele>80.89</ele>
        <time>2012-07-05T12:57:21Z</time>
      </trkpt>
      <trkpt lat="48.36207" lon="2.71073">
        <ele>80.89</ele>
        <time>2012-07-05T12:57:23Z</time>
      </trkpt>
      <trkpt lat="48.36203" lon="2.71045">
        <ele>80.89</ele>
        <time>2012-07-05T12:57:36Z</time>
      </trkpt>
      <trkpt lat="48.36199" lon="2.71022">
        <ele>81.37</ele>
        <time>2012-07-05T12:57:49Z</time>
      </trkpt>
      <trkpt lat="48.36195" lon="2.71004">
        <ele>81.37</ele>
        <time>2012-07-05T12:58:01Z</time>
      </trkpt>
      <trkpt lat="48.36192" lon="2.70992">
        <ele>81.37</ele>
        <time>2012-07-05T12:58:18Z</time>
      </trkpt>
      <trkpt lat="48.36188" lon="2.71005">
        <ele>80.41</ele>
        <time>2012-07-05T12:58:38Z</time>
      </trkpt>
      <trkpt lat="48.3618" lon="2.71033">
        <ele>80.41</ele>
        <time>2012-07-05T12:58:52Z</time>
      </trkpt>
      <trkpt lat="48.36179" lon="2.71038">
        <ele>80.41</ele>
        <time>2012-07-05T12:58:55Z</time>
      </trkpt>
      <trkpt lat="48.36175" lon="2.7106">
        <ele>79.93</ele>
        <time>2012-07-05T12:59:08Z</time>
      </trkpt>
      <trkpt lat="48.36171" lon="2.71088">
        <ele>80.41</ele>
        <time>2012-07-05T12:59:23Z</time>
      </trkpt>
      <trkpt lat="48.36168" lon="2.711">
        <ele>79.45</ele>
        <time>2012-07-05T12:59:32Z</time>
      </trkpt>
      <trkpt lat="48.36163" lon="2.71121">
        <ele>79.45</ele>
        <time>2012-07-05T12:59:44Z</time>
      </trkpt>
      <trkpt lat="48.36162" lon="2.71123">
        <ele>79.45</ele>
        <time>2012-07-05T12:59:45Z</time>
      </trkpt>
      <trkpt lat="48.36159" lon="2.71145">
        <ele>78.48</ele>
        <time>2012-07-05T12:59:56Z</time>
      </trkpt>
      <trkpt lat="48.36155" lon="2.71174">
        <ele>78.48</ele>
        <time>2012-07-05T13:00:09Z</time>
      </trkpt>
      <trkpt lat="48.36152" lon="2.71185">
        <ele>78.48</ele>
        <time>2012-07-05T13:00:16Z</time>
      </trkpt>
      <trkpt lat="48.36146" lon="2.71204">
        <ele>78</ele>
        <time>2012-07-05T13:00:30Z</time>
      </trkpt>
      <trkpt lat="48.36144" lon="2.71208">
        <ele>78</ele>
        <time>2012-07-05T13:00:32Z</time>
      </trkpt>
      <trkpt lat="48.36142" lon="2.71211">
        <ele>78</ele>
        <time>2012-07-05T13:00:34Z</time>
      </trkpt>
      <trkpt lat="48.36135" lon="2.71224">
        <ele>78.48</ele>
        <time>2012-07-05T13:00:42Z</time>
      </trkpt>
      <trkpt lat="48.36125" lon="2.71241">
        <ele>78</ele>
        <time>2012-07-05T13:00:57Z</time>
      </trkpt>
      <trkpt lat="48.36121" lon="2.71256">
        <ele>78</ele>
        <time>2012-07-05T13:01:09Z</time>
      </trkpt>
      <trkpt lat="48.3612" lon="2.71264">
        <ele>78</ele>
        <time>2012-07-05T13:01:12Z</time>
      </trkpt>
      <trkpt lat="48.36117" lon="2.71269">
        <ele>78</ele>
        <time>2012-07-05T13:01:17Z</time>
      </trkpt>
      <trkpt lat="48.3611" lon="2.71281">
        <ele>77.52</ele>
        <time>2012-07-05T13:01:30Z</time>
      </trkpt>
      <trkpt lat="48.36106" lon="2.71299">
        <ele>77.52</ele>
        <time>2012-07-05T13:01:39Z</time>
      </trkpt>
      <trkpt lat="48.36105" lon="2.71311">
        <ele>77.04</ele>
        <time>2012-07-05T13:01:43Z</time>
      </trkpt>
      <trkpt lat="48.36098" lon="2.71333">
        <ele>76.56</ele>
        <time>2012-07-05T13:01:59Z</time>
      </trkpt>
      <trkpt lat="48.36094" lon="2.71341">
        <ele>76.56</ele>
        <time>2012-07-05T13:02:05Z</time>
      </trkpt>
      <trkpt lat="48.36098" lon="2.71408">
        <ele>75.6</ele>
        <time>2012-07-05T13:02:24Z</time>
      </trkpt>
      <trkpt lat="48.36098" lon="2.71431">
        <ele>75.12</ele>
        <time>2012-07-05T13:02:37Z</time>
      </trkpt>
      <trkpt lat="48.36088" lon="2.71455">
        <ele>75.12</ele>
        <time>2012-07-05T13:02:51Z</time>
      </trkpt>
      <trkpt lat="48.36075" lon="2.71459">
        <ele>74.64</ele>
        <time>2012-07-05T13:03:08Z</time>
      </trkpt>
      <trkpt lat="48.3606" lon="2.71448">
        <ele>75.12</ele>
        <time>2012-07-05T13:03:25Z</time>
      </trkpt>
      <trkpt lat="48.36049" lon="2.71444">
        <ele>74.64</ele>
        <time>2012-07-05T13:03:33Z</time>
      </trkpt>
      <trkpt lat="48.36034" lon="2.71437">
        <ele>74.64</ele>
        <time>2012-07-05T13:03:47Z</time>
      </trkpt>
      <trkpt lat="48.3602" lon="2.71432">
        <ele>75.12</ele>
        <time>2012-07-05T13:04:02Z</time>
      </trkpt>
      <trkpt lat="48.3601" lon="2.71425">
        <ele>75.6</ele>
        <time>2012-07-05T13:04:13Z</time>
      </trkpt>
      <trkpt lat="48.36005" lon="2.71423">
        <ele>76.08</ele>
        <time>2012-07-05T13:04:28Z</time>
      </trkpt>
      <trkpt lat="48.35987" lon="2.71422">
        <ele>78</ele>
        <time>2012-07-05T13:04:43Z</time>
      </trkpt>
      <trkpt lat="48.35974" lon="2.71429">
        <ele>80.41</ele>
        <time>2012-07-05T13:04:58Z</time>
      </trkpt>
      <trkpt lat="48.35959" lon="2.71431">
        <ele>83.29</ele>
        <time>2012-07-05T13:05:12Z</time>
      </trkpt>
      <trkpt lat="48.35951" lon="2.71431">
        <ele>86.66</ele>
        <time>2012-07-05T13:05:26Z</time>
      </trkpt>
      <trkpt lat="48.35939" lon="2.71448">
        <ele>90.02</ele>
        <time>2012-07-05T13:05:41Z</time>
      </trkpt>
      <trkpt lat="48.35932" lon="2.71455">
        <ele>93.39</ele>
        <time>2012-07-05T13:05:52Z</time>
      </trkpt>
      <trkpt lat="48.35927" lon="2.71459">
        <ele>96.75</ele>
        <time>2012-07-05T13:06:08Z</time>
      </trkpt>
      <trkpt lat="48.35922" lon="2.71459">
        <ele>97.71</ele>
        <time>2012-07-05T13:06:24Z</time>
      </trkpt>
      <trkpt lat="48.35914" lon="2.7147">
        <ele>99.63</ele>
        <time>2012-07-05T13:06:36Z</time>
      </trkpt>
      <trkpt lat="48.35912" lon="2.71482">
        <ele>98.19</ele>
        <time>2012-07-05T13:06:51Z</time>
      </trkpt>
      <trkpt lat="48.35909" lon="2.7148">
        <ele>99.15</ele>
        <time>2012-07-05T13:07:03Z</time>
      </trkpt>
      <trkpt lat="48.35915" lon="2.71462">
        <ele>97.23</ele>
        <time>2012-07-05T13:07:19Z</time>
      </trkpt>
      <trkpt lat="48.35913" lon="2.71442">
        <ele>99.15</ele>
        <time>2012-07-05T13:07:32Z</time>
      </trkpt>
      <trkpt lat="48.35909" lon="2.71429">
        <ele>100.6</ele>
        <time>2012-07-05T13:07:47Z</time>
      </trkpt>
      <trkpt lat="48.3591" lon="2.71416">
        <ele>100.6</ele>
        <time>2012-07-05T13:08:00Z</time>
      </trkpt>
      <trkpt lat="48.35911" lon="2.71406">
        <ele>101.08</ele>
        <time>2012-07-05T13:08:12Z</time>
      </trkpt>
      <trkpt lat="48.35911" lon="2.71396">
        <ele>101.56</ele>
        <time>2012-07-05T13:08:26Z</time>
      </trkpt>
      <trkpt lat="48.35909" lon="2.71374">
        <ele>101.56</ele>
        <time>2012-07-05T13:08:39Z</time>
      </trkpt>
      <trkpt lat="48.35911" lon="2.71356">
        <ele>101.56</ele>
        <time>2012-07-05T13:08:53Z</time>
      </trkpt>
      <trkpt lat="48.3591" lon="2.7134">
        <ele>101.56</ele>
        <time>2012-07-05T13:09:08Z</time>
      </trkpt>
      <trkpt lat="48.35907" lon="2.7132">
        <ele>103.48</ele>
        <time>2012-07-05T13:09:21Z</time>
      </trkpt>
      <trkpt lat="48.35915" lon="2.71313">
        <ele>103.48</ele>
        <time>2012-07-05T13:09:33Z</time>
      </trkpt>
      <trkpt lat="48.35919" lon="2.71307">
        <ele>103.48</ele>
        <time>2012-07-05T13:09:47Z</time>
      </trkpt>
      <trkpt lat="48.35937" lon="2.7128">
        <ele>103.96</ele>
        <time>2012-07-05T13:10:02Z</time>
      </trkpt>
      <trkpt lat="48.3594" lon="2.71275">
        <ele>105.4</ele>
        <time>2012-07-05T13:10:17Z</time>
      </trkpt>
      <trkpt lat="48.35948" lon="2.7127">
        <ele>106.84</ele>
        <time>2012-07-05T13:10:35Z</time>
      </trkpt>
      <trkpt lat="48.35956" lon="2.71268">
        <ele>107.81</ele>
        <time>2012-07-05T13:10:50Z</time>
      </trkpt>
      <trkpt lat="48.3596" lon="2.71257">
        <ele>107.32</ele>
        <time>2012-07-05T13:11:05Z</time>
      </trkpt>
      <trkpt lat="48.35964" lon="2.71245">
        <ele>106.36</ele>
        <time>2012-07-05T13:11:19Z</time>
      </trkpt>
      <trkpt lat="48.35968" lon="2.71238">
        <ele>107.32</ele>
        <time>2012-07-05T13:11:32Z</time>
      </trkpt>
      <trkpt lat="48.35969" lon="2.71231">
        <ele>107.32</ele>
        <time>2012-07-05T13:11:36Z</time>
      </trkpt>
      <trkpt lat="48.35963" lon="2.71215">
        <ele>108.29</ele>
        <time>2012-07-05T13:11:46Z</time>
      </trkpt>
      <trkpt lat="48.35952" lon="2.71208">
        <ele>110.21</ele>
        <time>2012-07-05T13:12:01Z</time>
      </trkpt>
      <trkpt lat="48.35948" lon="2.71195">
        <ele>109.73</ele>
        <time>2012-07-05T13:12:14Z</time>
      </trkpt>
      <trkpt lat="48.35947" lon="2.7119">
        <ele>108.29</ele>
        <time>2012-07-05T13:12:30Z</time>
      </trkpt>
      <trkpt lat="48.3594" lon="2.71178">
        <ele>108.29</ele>
        <time>2012-07-05T13:12:46Z</time>
      </trkpt>
      <trkpt lat="48.35945" lon="2.71159">
        <ele>107.81</ele>
        <time>2012-07-05T13:13:01Z</time>
      </trkpt>
      <trkpt lat="48.3595" lon="2.71156">
        <ele>108.77</ele>
        <time>2012-07-05T13:13:16Z</time>
      </trkpt>
      <trkpt lat="48.35953" lon="2.71146">
        <ele>109.73</ele>
        <time>2012-07-05T13:13:32Z</time>
      </trkpt>
      <trkpt lat="48.35946" lon="2.71136">
        <ele>110.69</ele>
        <time>2012-07-05T13:13:48Z</time>
      </trkpt>
      <trkpt lat="48.35936" lon="2.71136">
        <ele>110.21</ele>
        <time>2012-07-05T13:14:04Z</time>
      </trkpt>
      <trkpt lat="48.35919" lon="2.71125">
        <ele>111.17</ele>
        <time>2012-07-05T13:14:17Z</time>
      </trkpt>
      <trkpt lat="48.35905" lon="2.71122">
        <ele>111.65</ele>
        <time>2012-07-05T13:14:30Z</time>
      </trkpt>
      <trkpt lat="48.3589" lon="2.71112">
        <ele>112.13</ele>
        <time>2012-07-05T13:14:45Z</time>
      </trkpt>
      <trkpt lat="48.35878" lon="2.71102">
        <ele>112.13</ele>
        <time>2012-07-05T13:14:57Z</time>
      </trkpt>
      <trkpt lat="48.35863" lon="2.71096">
        <ele>112.13</ele>
        <time>2012-07-05T13:15:10Z</time>
      </trkpt>
      <trkpt lat="48.35851" lon="2.71092">
        <ele>112.61</ele>
        <time>2012-07-05T13:15:26Z</time>
      </trkpt>
      <trkpt lat="48.35837" lon="2.71105">
        <ele>112.61</ele>
        <time>2012-07-05T13:15:39Z</time>
      </trkpt>
      <trkpt lat="48.35831" lon="2.71113">
        <ele>112.13</ele>
        <time>2012-07-05T13:15:44Z</time>
      </trkpt>
      <trkpt lat="48.35818" lon="2.7112">
        <ele>111.17</ele>
        <time>2012-07-05T13:15:56Z</time>
      </trkpt>
      <trkpt lat="48.3581" lon="2.7114">
        <ele>110.21</ele>
        <time>2012-07-05T13:16:10Z</time>
      </trkpt>
      <trkpt lat="48.35807" lon="2.71148">
        <ele>110.21</ele>
        <time>2012-07-05T13:16:24Z</time>
      </trkpt>
      <trkpt lat="48.35807" lon="2.71148">
        <ele>111.17</ele>
        <time>2012-07-05T13:16:44Z</time>
      </trkpt>
      <trkpt lat="48.35807" lon="2.71148">
        <ele>111.65</ele>
        <time>2012-07-05T13:17:14Z</time>
      </trkpt>
      <trkpt lat="48.35807" lon="2.71148">
        <ele>111.17</ele>
        <time>2012-07-05T13:17:45Z</time>
      </trkpt>
      <trkpt lat="48.35807" lon="2.71148">
        <ele>111.65</ele>
        <time>2012-07-05T13:18:18Z</time>
      </trkpt>
      <trkpt lat="48.35808" lon="2.71148">
        <ele>111.17</ele>
        <time>2012-07-05T13:18:42Z</time>
      </trkpt>
      <trkpt lat="48.3581" lon="2.71152">
        <ele>111.65</ele>
        <time>2012-07-05T13:18:59Z</time>
      </trkpt>
      <trkpt lat="48.35813" lon="2.71153">
        <ele>111.17</ele>
        <time>2012-07-05T13:19:16Z</time>
      </trkpt>
      <trkpt lat="48.35813" lon="2.71153">
        <ele>111.17</ele>
        <time>2012-07-05T13:19:45Z</time>
      </trkpt>
      <trkpt lat="48.35812" lon="2.71153">
        <ele>111.65</ele>
        <time>2012-07-05T13:20:11Z</time>
      </trkpt>
      <trkpt lat="48.35812" lon="2.71153">
        <ele>111.65</ele>
        <time>2012-07-05T13:20:33Z</time>
      </trkpt>
      <trkpt lat="48.35812" lon="2.71153">
        <ele>111.65</ele>
        <time>2012-07-05T13:21:00Z</time>
      </trkpt>
      <trkpt lat="48.35812" lon="2.71154">
        <ele>111.65</ele>
        <time>2012-07-05T13:21:26Z</time>
      </trkpt>
      <trkpt lat="48.35812" lon="2.71154">
        <ele>112.13</ele>
        <time>2012-07-05T13:21:56Z</time>
      </trkpt>
      <trkpt lat="48.35812" lon="2.71154">
        <ele>112.13</ele>
        <time>2012-07-05T13:22:21Z</time>
      </trkpt>
      <trkpt lat="48.35812" lon="2.71155">
        <ele>112.13</ele>
        <time>2012-07-05T13:22:48Z</time>
      </trkpt>
      <trkpt lat="48.35812" lon="2.71155">
        <ele>112.61</ele>
        <time>2012-07-05T13:23:12Z</time>
      </trkpt>
      <trkpt lat="48.35812" lon="2.71155">
        <ele>112.61</ele>
        <time>2012-07-05T13:23:41Z</time>
      </trkpt>
      <trkpt lat="48.35812" lon="2.71156">
        <ele>112.61</ele>
        <time>2012-07-05T13:24:13Z</time>
      </trkpt>
      <trkpt lat="48.35812" lon="2.71156">
        <ele>112.61</ele>
        <time>2012-07-05T13:24:32Z</time>
      </trkpt>
      <trkpt lat="48.35812" lon="2.71156">
        <ele>113.09</ele>
        <time>2012-07-05T13:24:55Z</time>
      </trkpt>
      <trkpt lat="48.35812" lon="2.71157">
        <ele>112.61</ele>
        <time>2012-07-05T13:25:21Z</time>
      </trkpt>
      <trkpt lat="48.35809" lon="2.71147">
        <ele>113.09</ele>
        <time>2012-07-05T13:25:41Z</time>
      </trkpt>
      <trkpt lat="48.35793" lon="2.7113">
        <ele>113.09</ele>
        <time>2012-07-05T13:25:57Z</time>
      </trkpt>
      <trkpt lat="48.3578" lon="2.71127">
        <ele>113.57</ele>
        <time>2012-07-05T13:26:10Z</time>
      </trkpt>
      <trkpt lat="48.35766" lon="2.71131">
        <ele>113.57</ele>
        <time>2012-07-05T13:26:23Z</time>
      </trkpt>
      <trkpt lat="48.35751" lon="2.71129">
        <ele>114.05</ele>
        <time>2012-07-05T13:26:36Z</time>
      </trkpt>
      <trkpt lat="48.35748" lon="2.7113">
        <ele>114.05</ele>
        <time>2012-07-05T13:26:39Z</time>
      </trkpt>
      <trkpt lat="48.35745" lon="2.71132">
        <ele>114.05</ele>
        <time>2012-07-05T13:26:42Z</time>
      </trkpt>
      <trkpt lat="48.35726" lon="2.71135">
        <ele>114.05</ele>
        <time>2012-07-05T13:26:57Z</time>
      </trkpt>
      <trkpt lat="48.35711" lon="2.71132">
        <ele>114.53</ele>
        <time>2012-07-05T13:27:12Z</time>
      </trkpt>
      <trkpt lat="48.35704" lon="2.71119">
        <ele>114.53</ele>
        <time>2012-07-05T13:27:25Z</time>
      </trkpt>
      <trkpt lat="48.35699" lon="2.71109">
        <ele>114.53</ele>
        <time>2012-07-05T13:27:36Z</time>
      </trkpt>
      <trkpt lat="48.35691" lon="2.71095">
        <ele>115.01</ele>
        <time>2012-07-05T13:27:52Z</time>
      </trkpt>
      <trkpt lat="48.3569" lon="2.71091">
        <ele>115.5</ele>
        <time>2012-07-05T13:28:10Z</time>
      </trkpt>
      <trkpt lat="48.35685" lon="2.7107">
        <ele>115.98</ele>
        <time>2012-07-05T13:28:24Z</time>
      </trkpt>
      <trkpt lat="48.35679" lon="2.71051">
        <ele>115.98</ele>
        <time>2012-07-05T13:28:36Z</time>
      </trkpt>
      <trkpt lat="48.35665" lon="2.71018">
        <ele>115.5</ele>
        <time>2012-07-05T13:28:51Z</time>
      </trkpt>
      <trkpt lat="48.35649" lon="2.70991">
        <ele>115.98</ele>
        <time>2012-07-05T13:29:07Z</time>
      </trkpt>
      <trkpt lat="48.35641" lon="2.70976">
        <ele>115.98</ele>
        <time>2012-07-05T13:29:18Z</time>
      </trkpt>
      <trkpt lat="48.35637" lon="2.70969">
        <ele>115.98</ele>
        <time>2012-07-05T13:29:25Z</time>
      </trkpt>
      <trkpt lat="48.35629" lon="2.70955">
        <ele>115.98</ele>
        <time>2012-07-05T13:29:32Z</time>
      </trkpt>
      <trkpt lat="48.35618" lon="2.70937">
        <ele>115.98</ele>
        <time>2012-07-05T13:29:49Z</time>
      </trkpt>
      <trkpt lat="48.35618" lon="2.70926">
        <ele>115.98</ele>
        <time>2012-07-05T13:30:04Z</time>
      </trkpt>
      <trkpt lat="48.35618" lon="2.70923">
        <ele>115.98</ele>
        <time>2012-07-05T13:30:05Z</time>
      </trkpt>
      <trkpt lat="48.35614" lon="2.70896">
        <ele>115.98</ele>
        <time>2012-07-05T13:30:18Z</time>
      </trkpt>
      <trkpt lat="48.35614" lon="2.70889">
        <ele>116.46</ele>
        <time>2012-07-05T13:30:21Z</time>
      </trkpt>
      <trkpt lat="48.35613" lon="2.7088">
        <ele>116.46</ele>
        <time>2012-07-05T13:30:25Z</time>
      </trkpt>
      <trkpt lat="48.35613" lon="2.70876">
        <ele>115.98</ele>
        <time>2012-07-05T13:30:27Z</time>
      </trkpt>
      <trkpt lat="48.35611" lon="2.70852">
        <ele>115.98</ele>
        <time>2012-07-05T13:30:38Z</time>
      </trkpt>
      <trkpt lat="48.35611" lon="2.70847">
        <ele>116.46</ele>
        <time>2012-07-05T13:30:41Z</time>
      </trkpt>
      <trkpt lat="48.35611" lon="2.70834">
        <ele>116.46</ele>
        <time>2012-07-05T13:30:50Z</time>
      </trkpt>
      <trkpt lat="48.35608" lon="2.70827">
        <ele>116.46</ele>
        <time>2012-07-05T13:30:54Z</time>
      </trkpt>
      <trkpt lat="48.35609" lon="2.70814">
        <ele>116.46</ele>
        <time>2012-07-05T13:31:00Z</time>
      </trkpt>
      <trkpt lat="48.35612" lon="2.70804">
        <ele>116.94</ele>
        <time>2012-07-05T13:31:14Z</time>
      </trkpt>
      <trkpt lat="48.35612" lon="2.70777">
        <ele>116.94</ele>
        <time>2012-07-05T13:31:27Z</time>
      </trkpt>
      <trkpt lat="48.35612" lon="2.70769">
        <ele>117.42</ele>
        <time>2012-07-05T13:31:33Z</time>
      </trkpt>
      <trkpt lat="48.35612" lon="2.70743">
        <ele>116.94</ele>
        <time>2012-07-05T13:31:44Z</time>
      </trkpt>
      <trkpt lat="48.35611" lon="2.70727">
        <ele>116.94</ele>
        <time>2012-07-05T13:31:53Z</time>
      </trkpt>
      <trkpt lat="48.35609" lon="2.70701">
        <ele>117.42</ele>
        <time>2012-07-05T13:32:03Z</time>
      </trkpt>
      <trkpt lat="48.3561" lon="2.70696">
        <ele>117.42</ele>
        <time>2012-07-05T13:32:05Z</time>
      </trkpt>
      <trkpt lat="48.35612" lon="2.7068">
        <ele>117.42</ele>
        <time>2012-07-05T13:32:18Z</time>
      </trkpt>
      <trkpt lat="48.35611" lon="2.70667">
        <ele>117.42</ele>
        <time>2012-07-05T13:32:29Z</time>
      </trkpt>
      <trkpt lat="48.3561" lon="2.70659">
        <ele>117.42</ele>
        <time>2012-07-05T13:32:34Z</time>
      </trkpt>
      <trkpt lat="48.35609" lon="2.70642">
        <ele>116.94</ele>
        <time>2012-07-05T13:32:46Z</time>
      </trkpt>
      <trkpt lat="48.35612" lon="2.7062">
        <ele>117.42</ele>
        <time>2012-07-05T13:33:00Z</time>
      </trkpt>
      <trkpt lat="48.35614" lon="2.70583">
        <ele>116.94</ele>
        <time>2012-07-05T13:33:15Z</time>
      </trkpt>
      <trkpt lat="48.35615" lon="2.70577">
        <ele>116.94</ele>
        <time>2012-07-05T13:33:17Z</time>
      </trkpt>
      <trkpt lat="48.35614" lon="2.70553">
        <ele>116.94</ele>
        <time>2012-07-05T13:33:27Z</time>
      </trkpt>
      <trkpt lat="48.35614" lon="2.7054">
        <ele>117.42</ele>
        <time>2012-07-05T13:33:38Z</time>
      </trkpt>
      <trkpt lat="48.35613" lon="2.70515">
        <ele>117.9</ele>
        <time>2012-07-05T13:33:50Z</time>
      </trkpt>
      <trkpt lat="48.35615" lon="2.70494">
        <ele>117.9</ele>
        <time>2012-07-05T13:34:00Z</time>
      </trkpt>
      <trkpt lat="48.35616" lon="2.70492">
        <ele>117.9</ele>
        <time>2012-07-05T13:34:01Z</time>
      </trkpt>
      <trkpt lat="48.35616" lon="2.7047">
        <ele>117.9</ele>
        <time>2012-07-05T13:34:10Z</time>
      </trkpt>
      <trkpt lat="48.35615" lon="2.70446">
        <ele>117.9</ele>
        <time>2012-07-05T13:34:22Z</time>
      </trkpt>
      <trkpt lat="48.35616" lon="2.70426">
        <ele>117.9</ele>
        <time>2012-07-05T13:34:33Z</time>
      </trkpt>
      <trkpt lat="48.35619" lon="2.70415">
        <ele>117.9</ele>
        <time>2012-07-05T13:34:44Z</time>
      </trkpt>
      <trkpt lat="48.35618" lon="2.70393">
        <ele>117.9</ele>
        <time>2012-07-05T13:34:56Z</time>
      </trkpt>
      <trkpt lat="48.3562" lon="2.70375">
        <ele>118.38</ele>
        <time>2012-07-05T13:35:06Z</time>
      </trkpt>
      <trkpt lat="48.35619" lon="2.70355">
        <ele>118.38</ele>
        <time>2012-07-05T13:35:17Z</time>
      </trkpt>
      <trkpt lat="48.35619" lon="2.70326">
        <ele>118.86</ele>
        <time>2012-07-05T13:35:30Z</time>
      </trkpt>
      <trkpt lat="48.35621" lon="2.70303">
        <ele>118.38</ele>
        <time>2012-07-05T13:35:37Z</time>
      </trkpt>
      <trkpt lat="48.35616" lon="2.70292">
        <ele>118.38</ele>
        <time>2012-07-05T13:35:41Z</time>
      </trkpt>
      <trkpt lat="48.35617" lon="2.7027">
        <ele>118.38</ele>
        <time>2012-07-05T13:35:53Z</time>
      </trkpt>
      <trkpt lat="48.35618" lon="2.7026">
        <ele>118.86</ele>
        <time>2012-07-05T13:36:01Z</time>
      </trkpt>
      <trkpt lat="48.35622" lon="2.70246">
        <ele>119.34</ele>
        <time>2012-07-05T13:36:13Z</time>
      </trkpt>
      <trkpt lat="48.35622" lon="2.70246">
        <ele>118.86</ele>
        <time>2012-07-05T13:36:30Z</time>
      </trkpt>
      <trkpt lat="48.35622" lon="2.70246">
        <ele>119.82</ele>
        <time>2012-07-05T13:36:40Z</time>
      </trkpt>
      <trkpt lat="48.35623" lon="2.70241">
        <ele>116.94</ele>
        <time>2012-07-05T13:36:50Z</time>
      </trkpt>
      <trkpt lat="48.35623" lon="2.70236">
        <ele>120.3</ele>
        <time>2012-07-05T13:37:00Z</time>
      </trkpt>
      <trkpt lat="48.35622" lon="2.70233">
        <ele>116.94</ele>
        <time>2012-07-05T13:37:02Z</time>
      </trkpt>
      <trkpt lat="48.35621" lon="2.70232">
        <ele>118.38</ele>
        <time>2012-07-05T13:37:03Z</time>
      </trkpt>
      <trkpt lat="48.35616" lon="2.70227">
        <ele>121.74</ele>
        <time>2012-07-05T13:37:10Z</time>
      </trkpt>
      <trkpt lat="48.35615" lon="2.70227">
        <ele>118.38</ele>
        <time>2012-07-05T13:37:11Z</time>
      </trkpt>
      <trkpt lat="48.35613" lon="2.70227">
        <ele>119.34</ele>
        <time>2012-07-05T13:37:21Z</time>
      </trkpt>
      <trkpt lat="48.35596" lon="2.70227">
        <ele>118.86</ele>
        <time>2012-07-05T13:37:35Z</time>
      </trkpt>
      <trkpt lat="48.35573" lon="2.70225">
        <ele>118.38</ele>
        <time>2012-07-05T13:37:51Z</time>
      </trkpt>
      <trkpt lat="48.3556" lon="2.70226">
        <ele>117.9</ele>
        <time>2012-07-05T13:38:02Z</time>
      </trkpt>
      <trkpt lat="48.35535" lon="2.70227">
        <ele>117.42</ele>
        <time>2012-07-05T13:38:16Z</time>
      </trkpt>
      <trkpt lat="48.35509" lon="2.70228">
        <ele>116.94</ele>
        <time>2012-07-05T13:38:31Z</time>
      </trkpt>
      <trkpt lat="48.3549" lon="2.7023">
        <ele>116.94</ele>
        <time>2012-07-05T13:38:44Z</time>
      </trkpt>
      <trkpt lat="48.3547" lon="2.70233">
        <ele>116.46</ele>
        <time>2012-07-05T13:38:58Z</time>
      </trkpt>
      <trkpt lat="48.35461" lon="2.70232">
        <ele>116.46</ele>
        <time>2012-07-05T13:39:05Z</time>
      </trkpt>
      <trkpt lat="48.35448" lon="2.70232">
        <ele>115.98</ele>
        <time>2012-07-05T13:39:18Z</time>
      </trkpt>
      <trkpt lat="48.35443" lon="2.70232">
        <ele>115.98</ele>
        <time>2012-07-05T13:39:27Z</time>
      </trkpt>
      <trkpt lat="48.3542" lon="2.70234">
        <ele>115.01</ele>
        <time>2012-07-05T13:39:42Z</time>
      </trkpt>
      <trkpt lat="48.35403" lon="2.70237">
        <ele>115.01</ele>
        <time>2012-07-05T13:39:55Z</time>
      </trkpt>
      <trkpt lat="48.35384" lon="2.70238">
        <ele>114.53</ele>
        <time>2012-07-05T13:40:09Z</time>
      </trkpt>
      <trkpt lat="48.35373" lon="2.7024">
        <ele>114.05</ele>
        <time>2012-07-05T13:40:24Z</time>
      </trkpt>
      <trkpt lat="48.35361" lon="2.70245">
        <ele>114.05</ele>
        <time>2012-07-05T13:40:34Z</time>
      </trkpt>
      <trkpt lat="48.35341" lon="2.7027">
        <ele>114.05</ele>
        <time>2012-07-05T13:40:49Z</time>
      </trkpt>
      <trkpt lat="48.35326" lon="2.70291">
        <ele>113.09</ele>
        <time>2012-07-05T13:41:04Z</time>
      </trkpt>
      <trkpt lat="48.35311" lon="2.70316">
        <ele>113.09</ele>
        <time>2012-07-05T13:41:20Z</time>
      </trkpt>
      <trkpt lat="48.35299" lon="2.70336">
        <ele>112.13</ele>
        <time>2012-07-05T13:41:37Z</time>
      </trkpt>
      <trkpt lat="48.35291" lon="2.70349">
        <ele>111.65</ele>
        <time>2012-07-05T13:41:51Z</time>
      </trkpt>
      <trkpt lat="48.35276" lon="2.70379">
        <ele>111.65</ele>
        <time>2012-07-05T13:42:05Z</time>
      </trkpt>
      <trkpt lat="48.35261" lon="2.70399">
        <ele>112.13</ele>
        <time>2012-07-05T13:42:21Z</time>
      </trkpt>
      <trkpt lat="48.35252" lon="2.70418">
        <ele>113.09</ele>
        <time>2012-07-05T13:42:37Z</time>
      </trkpt>
      <trkpt lat="48.35237" lon="2.70438">
        <ele>113.09</ele>
        <time>2012-07-05T13:42:51Z</time>
      </trkpt>
      <trkpt lat="48.35229" lon="2.70451">
        <ele>113.57</ele>
        <time>2012-07-05T13:43:04Z</time>
      </trkpt>
      <trkpt lat="48.3522" lon="2.70466">
        <ele>114.05</ele>
        <time>2012-07-05T13:43:17Z</time>
      </trkpt>
      <trkpt lat="48.35206" lon="2.70489">
        <ele>114.53</ele>
        <time>2012-07-05T13:43:33Z</time>
      </trkpt>
      <trkpt lat="48.35195" lon="2.70509">
        <ele>114.53</ele>
        <time>2012-07-05T13:43:48Z</time>
      </trkpt>
      <trkpt lat="48.35194" lon="2.70524">
        <ele>114.53</ele>
        <time>2012-07-05T13:44:04Z</time>
      </trkpt>
      <trkpt lat="48.35208" lon="2.70545">
        <ele>115.01</ele>
        <time>2012-07-05T13:44:22Z</time>
      </trkpt>
      <trkpt lat="48.35218" lon="2.70556">
        <ele>115.5</ele>
        <time>2012-07-05T13:44:38Z</time>
      </trkpt>
      <trkpt lat="48.35227" lon="2.7056">
        <ele>115.5</ele>
        <time>2012-07-05T13:44:50Z</time>
      </trkpt>
      <trkpt lat="48.35257" lon="2.70575">
        <ele>115.5</ele>
        <time>2012-07-05T13:45:07Z</time>
      </trkpt>
      <trkpt lat="48.35269" lon="2.7059">
        <ele>115.5</ele>
        <time>2012-07-05T13:45:25Z</time>
      </trkpt>
      <trkpt lat="48.35286" lon="2.70601">
        <ele>115.5</ele>
        <time>2012-07-05T13:45:41Z</time>
      </trkpt>
      <trkpt lat="48.35292" lon="2.70608">
        <ele>115.98</ele>
        <time>2012-07-05T13:45:49Z</time>
      </trkpt>
      <trkpt lat="48.35314" lon="2.70627">
        <ele>115.98</ele>
        <time>2012-07-05T13:46:06Z</time>
      </trkpt>
      <trkpt lat="48.35332" lon="2.7064">
        <ele>116.46</ele>
        <time>2012-07-05T13:46:22Z</time>
      </trkpt>
      <trkpt lat="48.35331" lon="2.70659">
        <ele>116.46</ele>
        <time>2012-07-05T13:46:38Z</time>
      </trkpt>
      <trkpt lat="48.35312" lon="2.70682">
        <ele>115.98</ele>
        <time>2012-07-05T13:46:54Z</time>
      </trkpt>
      <trkpt lat="48.35308" lon="2.70689">
        <ele>115.98</ele>
        <time>2012-07-05T13:46:58Z</time>
      </trkpt>
      <trkpt lat="48.35297" lon="2.70706">
        <ele>115.5</ele>
        <time>2012-07-05T13:47:11Z</time>
      </trkpt>
      <trkpt lat="48.35284" lon="2.70724">
        <ele>115.5</ele>
        <time>2012-07-05T13:47:26Z</time>
      </trkpt>
      <trkpt lat="48.35272" lon="2.70745">
        <ele>115.5</ele>
        <time>2012-07-05T13:47:41Z</time>
      </trkpt>
      <trkpt lat="48.3526" lon="2.70762">
        <ele>115.01</ele>
        <time>2012-07-05T13:47:55Z</time>
      </trkpt>
      <trkpt lat="48.35245" lon="2.70786">
        <ele>115.01</ele>
        <time>2012-07-05T13:48:12Z</time>
      </trkpt>
      <trkpt lat="48.35231" lon="2.70804">
        <ele>114.53</ele>
        <time>2012-07-05T13:48:27Z</time>
      </trkpt>
      <trkpt lat="48.35224" lon="2.70813">
        <ele>114.05</ele>
        <time>2012-07-05T13:48:35Z</time>
      </trkpt>
      <trkpt lat="48.35211" lon="2.70836">
        <ele>114.53</ele>
        <time>2012-07-05T13:48:51Z</time>
      </trkpt>
      <trkpt lat="48.3521" lon="2.70837">
        <ele>114.05</ele>
        <time>2012-07-05T13:48:52Z</time>
      </trkpt>
      <trkpt lat="48.35198" lon="2.70854">
        <ele>113.57</ele>
        <time>2012-07-05T13:49:06Z</time>
      </trkpt>
      <trkpt lat="48.35187" lon="2.70871">
        <ele>112.61</ele>
        <time>2012-07-05T13:49:21Z</time>
      </trkpt>
      <trkpt lat="48.3518" lon="2.70884">
        <ele>112.13</ele>
        <time>2012-07-05T13:49:29Z</time>
      </trkpt>
      <trkpt lat="48.35172" lon="2.70894">
        <ele>111.65</ele>
        <time>2012-07-05T13:49:36Z</time>
      </trkpt>
      <trkpt lat="48.35154" lon="2.70913">
        <ele>110.21</ele>
        <time>2012-07-05T13:49:50Z</time>
      </trkpt>
      <trkpt lat="48.35147" lon="2.70923">
        <ele>109.73</ele>
        <time>2012-07-05T13:50:06Z</time>
      </trkpt>
      <trkpt lat="48.35146" lon="2.70925">
        <ele>110.21</ele>
        <time>2012-07-05T13:50:26Z</time>
      </trkpt>
      <trkpt lat="48.35145" lon="2.70932">
        <ele>105.88</ele>
        <time>2012-07-05T13:50:36Z</time>
      </trkpt>
      <trkpt lat="48.35145" lon="2.70932">
        <ele>110.21</ele>
        <time>2012-07-05T13:50:37Z</time>
      </trkpt>
      <trkpt lat="48.35145" lon="2.70932">
        <ele>105.88</ele>
        <time>2012-07-05T13:50:42Z</time>
      </trkpt>
      <trkpt lat="48.35145" lon="2.70932">
        <ele>109.25</ele>
        <time>2012-07-05T13:50:44Z</time>
      </trkpt>
      <trkpt lat="48.35145" lon="2.70932">
        <ele>108.29</ele>
        <time>2012-07-05T13:50:45Z</time>
      </trkpt>
      <trkpt lat="48.35146" lon="2.70956">
        <ele>106.36</ele>
        <time>2012-07-05T13:51:01Z</time>
      </trkpt>
      <trkpt lat="48.35146" lon="2.70985">
        <ele>104.44</ele>
        <time>2012-07-05T13:51:15Z</time>
      </trkpt>
      <trkpt lat="48.35142" lon="2.71018">
        <ele>102.52</ele>
        <time>2012-07-05T13:51:31Z</time>
      </trkpt>
      <trkpt lat="48.35138" lon="2.71049">
        <ele>100.11</ele>
        <time>2012-07-05T13:51:44Z</time>
      </trkpt>
      <trkpt lat="48.35139" lon="2.71056">
        <ele>99.63</ele>
        <time>2012-07-05T13:51:48Z</time>
      </trkpt>
      <trkpt lat="48.35142" lon="2.71072">
        <ele>98.19</ele>
        <time>2012-07-05T13:51:57Z</time>
      </trkpt>
      <trkpt lat="48.35147" lon="2.71106">
        <ele>96.75</ele>
        <time>2012-07-05T13:52:12Z</time>
      </trkpt>
      <trkpt lat="48.35148" lon="2.71117">
        <ele>95.79</ele>
        <time>2012-07-05T13:52:17Z</time>
      </trkpt>
      <trkpt lat="48.35144" lon="2.71137">
        <ele>94.83</ele>
        <time>2012-07-05T13:52:31Z</time>
      </trkpt>
      <trkpt lat="48.35138" lon="2.71151">
        <ele>92.9</ele>
        <time>2012-07-05T13:52:47Z</time>
      </trkpt>
      <trkpt lat="48.35142" lon="2.71159">
        <ele>93.87</ele>
        <time>2012-07-05T13:53:03Z</time>
      </trkpt>
      <trkpt lat="48.35142" lon="2.7116">
        <ele>91.94</ele>
        <time>2012-07-05T13:53:11Z</time>
      </trkpt>
      <trkpt lat="48.35145" lon="2.71172">
        <ele>90.98</ele>
        <time>2012-07-05T13:53:25Z</time>
      </trkpt>
      <trkpt lat="48.3515" lon="2.71192">
        <ele>90.5</ele>
        <time>2012-07-05T13:53:42Z</time>
      </trkpt>
      <trkpt lat="48.35144" lon="2.71224">
        <ele>89.54</ele>
        <time>2012-07-05T13:53:59Z</time>
      </trkpt>
      <trkpt lat="48.35137" lon="2.71242">
        <ele>88.58</ele>
        <time>2012-07-05T13:54:15Z</time>
      </trkpt>
      <trkpt lat="48.35133" lon="2.71254">
        <ele>87.62</ele>
        <time>2012-07-05T13:54:29Z</time>
      </trkpt>
      <trkpt lat="48.35133" lon="2.71254">
        <ele>87.14</ele>
        <time>2012-07-05T13:54:43Z</time>
      </trkpt>
      <trkpt lat="48.35127" lon="2.7126">
        <ele>86.18</ele>
        <time>2012-07-05T13:54:55Z</time>
      </trkpt>
      <trkpt lat="48.35126" lon="2.71261">
        <ele>86.18</ele>
        <time>2012-07-05T13:54:56Z</time>
      </trkpt>
      <trkpt lat="48.35109" lon="2.71289">
        <ele>84.73</ele>
        <time>2012-07-05T13:55:11Z</time>
      </trkpt>
      <trkpt lat="48.35091" lon="2.71313">
        <ele>83.29</ele>
        <time>2012-07-05T13:55:28Z</time>
      </trkpt>
      <trkpt lat="48.3509" lon="2.71315">
        <ele>83.77</ele>
        <time>2012-07-05T13:55:30Z</time>
      </trkpt>
      <trkpt lat="48.35088" lon="2.71318">
        <ele>83.29</ele>
        <time>2012-07-05T13:55:32Z</time>
      </trkpt>
      <trkpt lat="48.35084" lon="2.71323">
        <ele>83.29</ele>
        <time>2012-07-05T13:55:35Z</time>
      </trkpt>
      <trkpt lat="48.35066" lon="2.71351">
        <ele>81.85</ele>
        <time>2012-07-05T13:55:52Z</time>
      </trkpt>
      <trkpt lat="48.35047" lon="2.71377">
        <ele>80.89</ele>
        <time>2012-07-05T13:56:07Z</time>
      </trkpt>
      <trkpt lat="48.35043" lon="2.71384">
        <ele>80.89</ele>
        <time>2012-07-05T13:56:11Z</time>
      </trkpt>
      <trkpt lat="48.35036" lon="2.71395">
        <ele>80.41</ele>
        <time>2012-07-05T13:56:17Z</time>
      </trkpt>
      <trkpt lat="48.35019" lon="2.71423">
        <ele>79.93</ele>
        <time>2012-07-05T13:56:34Z</time>
      </trkpt>
      <trkpt lat="48.35004" lon="2.71442">
        <ele>78.48</ele>
        <time>2012-07-05T13:56:49Z</time>
      </trkpt>
      <trkpt lat="48.34989" lon="2.71456">
        <ele>75.6</ele>
        <time>2012-07-05T13:57:03Z</time>
      </trkpt>
      <trkpt lat="48.34988" lon="2.71456">
        <ele>78.48</ele>
        <time>2012-07-05T13:57:04Z</time>
      </trkpt>
      <trkpt lat="48.34977" lon="2.71479">
        <ele>75.12</ele>
        <time>2012-07-05T13:57:14Z</time>
      </trkpt>
      <trkpt lat="48.34971" lon="2.71486">
        <ele>80.41</ele>
        <time>2012-07-05T13:57:19Z</time>
      </trkpt>
      <trkpt lat="48.34967" lon="2.71492">
        <ele>77.52</ele>
        <time>2012-07-05T13:57:23Z</time>
      </trkpt>
      <trkpt lat="48.3496" lon="2.71507">
        <ele>72.72</ele>
        <time>2012-07-05T13:57:32Z</time>
      </trkpt>
      <trkpt lat="48.34959" lon="2.71508">
        <ele>77.52</ele>
        <time>2012-07-05T13:57:33Z</time>
      </trkpt>
      <trkpt lat="48.34949" lon="2.71525">
        <ele>77.04</ele>
        <time>2012-07-05T13:57:43Z</time>
      </trkpt>
      <trkpt lat="48.34943" lon="2.71531">
        <ele>76.56</ele>
        <time>2012-07-05T13:57:47Z</time>
      </trkpt>
      <trkpt lat="48.34926" lon="2.7155">
        <ele>76.08</ele>
        <time>2012-07-05T13:58:03Z</time>
      </trkpt>
      <trkpt lat="48.34906" lon="2.71578">
        <ele>75.12</ele>
        <time>2012-07-05T13:58:20Z</time>
      </trkpt>
      <trkpt lat="48.34892" lon="2.71602">
        <ele>74.16</ele>
        <time>2012-07-05T13:58:36Z</time>
      </trkpt>
      <trkpt lat="48.34876" lon="2.71621">
        <ele>74.16</ele>
        <time>2012-07-05T13:58:51Z</time>
      </trkpt>
      <trkpt lat="48.34861" lon="2.71642">
        <ele>73.68</ele>
        <time>2012-07-05T13:59:07Z</time>
      </trkpt>
      <trkpt lat="48.34862" lon="2.71661">
        <ele>73.2</ele>
        <time>2012-07-05T13:59:20Z</time>
      </trkpt>
      <trkpt lat="48.34863" lon="2.71661">
        <ele>74.16</ele>
        <time>2012-07-05T13:59:21Z</time>
      </trkpt>
      <trkpt lat="48.34882" lon="2.71671">
        <ele>73.68</ele>
        <time>2012-07-05T13:59:35Z</time>
      </trkpt>
      <trkpt lat="48.34897" lon="2.71677">
        <ele>73.68</ele>
        <time>2012-07-05T13:59:48Z</time>
      </trkpt>
      <trkpt lat="48.34916" lon="2.71691">
        <ele>74.16</ele>
        <time>2012-07-05T14:00:03Z</time>
      </trkpt>
      <trkpt lat="48.34918" lon="2.71692">
        <ele>73.68</ele>
        <time>2012-07-05T14:00:05Z</time>
      </trkpt>
      <trkpt lat="48.3494" lon="2.71693">
        <ele>74.16</ele>
        <time>2012-07-05T14:00:21Z</time>
      </trkpt>
      <trkpt lat="48.34941" lon="2.71693">
        <ele>74.16</ele>
        <time>2012-07-05T14:00:22Z</time>
      </trkpt>
      <trkpt lat="48.34948" lon="2.71695">
        <ele>74.16</ele>
        <time>2012-07-05T14:00:27Z</time>
      </trkpt>
      <trkpt lat="48.34957" lon="2.71698">
        <ele>74.16</ele>
        <time>2012-07-05T14:00:33Z</time>
      </trkpt>
      <trkpt lat="48.34972" lon="2.71706">
        <ele>74.64</ele>
        <time>2012-07-05T14:00:47Z</time>
      </trkpt>
      <trkpt lat="48.34986" lon="2.71711">
        <ele>74.16</ele>
        <time>2012-07-05T14:00:59Z</time>
      </trkpt>
      <trkpt lat="48.35007" lon="2.71721">
        <ele>74.64</ele>
        <time>2012-07-05T14:01:13Z</time>
      </trkpt>
      <trkpt lat="48.35024" lon="2.71724">
        <ele>74.64</ele>
        <time>2012-07-05T14:01:28Z</time>
      </trkpt>
      <trkpt lat="48.35025" lon="2.71725">
        <ele>74.64</ele>
        <time>2012-07-05T14:01:29Z</time>
      </trkpt>
      <trkpt lat="48.35031" lon="2.71726">
        <ele>74.64</ele>
        <time>2012-07-05T14:01:33Z</time>
      </trkpt>
      <trkpt lat="48.35048" lon="2.71731">
        <ele>75.12</ele>
        <time>2012-07-05T14:01:46Z</time>
      </trkpt>
      <trkpt lat="48.35058" lon="2.71737">
        <ele>75.12</ele>
        <time>2012-07-05T14:01:55Z</time>
      </trkpt>
      <trkpt lat="48.35062" lon="2.71744">
        <ele>74.64</ele>
        <time>2012-07-05T14:02:01Z</time>
      </trkpt>
      <trkpt lat="48.35067" lon="2.71749">
        <ele>75.12</ele>
        <time>2012-07-05T14:02:07Z</time>
      </trkpt>
      <trkpt lat="48.35067" lon="2.71752">
        <ele>75.12</ele>
        <time>2012-07-05T14:02:09Z</time>
      </trkpt>
      <trkpt lat="48.35064" lon="2.71761">
        <ele>75.6</ele>
        <time>2012-07-05T14:02:14Z</time>
      </trkpt>
      <trkpt lat="48.3505" lon="2.71786">
        <ele>75.12</ele>
        <time>2012-07-05T14:02:29Z</time>
      </trkpt>
      <trkpt lat="48.35039" lon="2.71807">
        <ele>75.6</ele>
        <time>2012-07-05T14:02:43Z</time>
      </trkpt>
      <trkpt lat="48.35033" lon="2.71835">
        <ele>76.08</ele>
        <time>2012-07-05T14:02:56Z</time>
      </trkpt>
      <trkpt lat="48.3503" lon="2.71845">
        <ele>76.08</ele>
        <time>2012-07-05T14:03:00Z</time>
      </trkpt>
      <trkpt lat="48.35023" lon="2.71877">
        <ele>76.56</ele>
        <time>2012-07-05T14:03:15Z</time>
      </trkpt>
      <trkpt lat="48.35018" lon="2.71896">
        <ele>77.04</ele>
        <time>2012-07-05T14:03:30Z</time>
      </trkpt>
      <trkpt lat="48.35015" lon="2.71911">
        <ele>77.52</ele>
        <time>2012-07-05T14:03:46Z</time>
      </trkpt>
      <trkpt lat="48.3501" lon="2.71926">
        <ele>78.97</ele>
        <time>2012-07-05T14:04:03Z</time>
      </trkpt>
      <trkpt lat="48.35001" lon="2.71961">
        <ele>79.93</ele>
        <time>2012-07-05T14:04:22Z</time>
      </trkpt>
      <trkpt lat="48.34995" lon="2.71986">
        <ele>81.37</ele>
        <time>2012-07-05T14:04:39Z</time>
      </trkpt>
      <trkpt lat="48.34986" lon="2.72013">
        <ele>82.81</ele>
        <time>2012-07-05T14:04:54Z</time>
      </trkpt>
      <trkpt lat="48.34986" lon="2.7204">
        <ele>83.77</ele>
        <time>2012-07-05T14:05:09Z</time>
      </trkpt>
      <trkpt lat="48.34985" lon="2.72066">
        <ele>84.73</ele>
        <time>2012-07-05T14:05:24Z</time>
      </trkpt>
      <trkpt lat="48.34986" lon="2.72079">
        <ele>86.18</ele>
        <time>2012-07-05T14:05:38Z</time>
      </trkpt>
      <trkpt lat="48.34986" lon="2.72116">
        <ele>86.66</ele>
        <time>2012-07-05T14:05:53Z</time>
      </trkpt>
      <trkpt lat="48.34986" lon="2.7214">
        <ele>86.66</ele>
        <time>2012-07-05T14:06:08Z</time>
      </trkpt>
      <trkpt lat="48.34982" lon="2.72174">
        <ele>88.1</ele>
        <time>2012-07-05T14:06:22Z</time>
      </trkpt>
      <trkpt lat="48.34976" lon="2.72205">
        <ele>89.06</ele>
        <time>2012-07-05T14:06:39Z</time>
      </trkpt>
      <trkpt lat="48.34978" lon="2.72223">
        <ele>90.5</ele>
        <time>2012-07-05T14:06:52Z</time>
      </trkpt>
      <trkpt lat="48.34976" lon="2.7226">
        <ele>92.42</ele>
        <time>2012-07-05T14:07:07Z</time>
      </trkpt>
      <trkpt lat="48.3498" lon="2.72285">
        <ele>92.9</ele>
        <time>2012-07-05T14:07:24Z</time>
      </trkpt>
      <trkpt lat="48.34982" lon="2.72306">
        <ele>92.9</ele>
        <time>2012-07-05T14:07:36Z</time>
      </trkpt>
      <trkpt lat="48.34984" lon="2.72344">
        <ele>92.9</ele>
        <time>2012-07-05T14:07:52Z</time>
      </trkpt>
      <trkpt lat="48.34989" lon="2.7238">
        <ele>93.87</ele>
        <time>2012-07-05T14:08:09Z</time>
      </trkpt>
      <trkpt lat="48.34991" lon="2.724">
        <ele>93.39</ele>
        <time>2012-07-05T14:08:21Z</time>
      </trkpt>
      <trkpt lat="48.35001" lon="2.72436">
        <ele>92.9</ele>
        <time>2012-07-05T14:08:37Z</time>
      </trkpt>
      <trkpt lat="48.35005" lon="2.72465">
        <ele>92.42</ele>
        <time>2012-07-05T14:08:52Z</time>
      </trkpt>
      <trkpt lat="48.3501" lon="2.72489">
        <ele>92.42</ele>
        <time>2012-07-05T14:09:05Z</time>
      </trkpt>
      <trkpt lat="48.35016" lon="2.72514">
        <ele>92.42</ele>
        <time>2012-07-05T14:09:19Z</time>
      </trkpt>
      <trkpt lat="48.35025" lon="2.7254">
        <ele>92.42</ele>
        <time>2012-07-05T14:09:36Z</time>
      </trkpt>
      <trkpt lat="48.35031" lon="2.72573">
        <ele>93.39</ele>
        <time>2012-07-05T14:09:50Z</time>
      </trkpt>
      <trkpt lat="48.35035" lon="2.72601">
        <ele>95.31</ele>
        <time>2012-07-05T14:10:05Z</time>
      </trkpt>
      <trkpt lat="48.35032" lon="2.72621">
        <ele>95.31</ele>
        <time>2012-07-05T14:10:21Z</time>
      </trkpt>
      <trkpt lat="48.35039" lon="2.72636">
        <ele>96.27</ele>
        <time>2012-07-05T14:10:38Z</time>
      </trkpt>
      <trkpt lat="48.3504" lon="2.72654">
        <ele>94.83</ele>
        <time>2012-07-05T14:10:52Z</time>
      </trkpt>
      <trkpt lat="48.35045" lon="2.7268">
        <ele>92.42</ele>
        <time>2012-07-05T14:11:07Z</time>
      </trkpt>
      <trkpt lat="48.35053" lon="2.72692">
        <ele>90.5</ele>
        <time>2012-07-05T14:11:21Z</time>
      </trkpt>
      <trkpt lat="48.35064" lon="2.72694">
        <ele>88.58</ele>
        <time>2012-07-05T14:11:36Z</time>
      </trkpt>
      <trkpt lat="48.35078" lon="2.72695">
        <ele>88.1</ele>
        <time>2012-07-05T14:11:52Z</time>
      </trkpt>
      <trkpt lat="48.35085" lon="2.72696">
        <ele>86.66</ele>
        <time>2012-07-05T14:12:11Z</time>
      </trkpt>
      <trkpt lat="48.3509" lon="2.72699">
        <ele>86.66</ele>
        <time>2012-07-05T14:12:29Z</time>
      </trkpt>
      <trkpt lat="48.35117" lon="2.72717">
        <ele>86.18</ele>
        <time>2012-07-05T14:12:46Z</time>
      </trkpt>
      <trkpt lat="48.35138" lon="2.72729">
        <ele>85.21</ele>
        <time>2012-07-05T14:13:01Z</time>
      </trkpt>
      <trkpt lat="48.35148" lon="2.72741">
        <ele>85.69</ele>
        <time>2012-07-05T14:13:14Z</time>
      </trkpt>
      <trkpt lat="48.35155" lon="2.72748">
        <ele>85.21</ele>
        <time>2012-07-05T14:13:22Z</time>
      </trkpt>
      <trkpt lat="48.35156" lon="2.72768">
        <ele>85.69</ele>
        <time>2012-07-05T14:13:34Z</time>
      </trkpt>
      <trkpt lat="48.35166" lon="2.72789">
        <ele>86.18</ele>
        <time>2012-07-05T14:13:51Z</time>
      </trkpt>
      <trkpt lat="48.35182" lon="2.72795">
        <ele>85.69</ele>
        <time>2012-07-05T14:14:06Z</time>
      </trkpt>
      <trkpt lat="48.35185" lon="2.72796">
        <ele>86.18</ele>
        <time>2012-07-05T14:14:08Z</time>
      </trkpt>
      <trkpt lat="48.35208" lon="2.72798">
        <ele>86.18</ele>
        <time>2012-07-05T14:14:22Z</time>
      </trkpt>
      <trkpt lat="48.35234" lon="2.72802">
        <ele>85.69</ele>
        <time>2012-07-05T14:14:38Z</time>
      </trkpt>
      <trkpt lat="48.35244" lon="2.72803">
        <ele>83.29</ele>
        <time>2012-07-05T14:14:54Z</time>
      </trkpt>
      <trkpt lat="48.35252" lon="2.72804">
        <ele>82.81</ele>
        <time>2012-07-05T14:15:06Z</time>
      </trkpt>
      <trkpt lat="48.35281" lon="2.72811">
        <ele>81.85</ele>
        <time>2012-07-05T14:15:21Z</time>
      </trkpt>
      <trkpt lat="48.35306" lon="2.72814">
        <ele>81.85</ele>
        <time>2012-07-05T14:15:36Z</time>
      </trkpt>
      <trkpt lat="48.35311" lon="2.72815">
        <ele>82.33</ele>
        <time>2012-07-05T14:15:39Z</time>
      </trkpt>
      <trkpt lat="48.35328" lon="2.72819">
        <ele>82.81</ele>
        <time>2012-07-05T14:15:52Z</time>
      </trkpt>
      <trkpt lat="48.35348" lon="2.72818">
        <ele>82.81</ele>
        <time>2012-07-05T14:16:06Z</time>
      </trkpt>
      <trkpt lat="48.35355" lon="2.72821">
        <ele>82.33</ele>
        <time>2012-07-05T14:16:12Z</time>
      </trkpt>
      <trkpt lat="48.35371" lon="2.7282">
        <ele>81.85</ele>
        <time>2012-07-05T14:16:23Z</time>
      </trkpt>
      <trkpt lat="48.35375" lon="2.72815">
        <ele>80.89</ele>
        <time>2012-07-05T14:16:27Z</time>
      </trkpt>
      <trkpt lat="48.35377" lon="2.72813">
        <ele>84.73</ele>
        <time>2012-07-05T14:16:29Z</time>
      </trkpt>
      <trkpt lat="48.35378" lon="2.72813">
        <ele>83.77</ele>
        <time>2012-07-05T14:16:30Z</time>
      </trkpt>
      <trkpt lat="48.3538" lon="2.72811">
        <ele>82.33</ele>
        <time>2012-07-05T14:16:32Z</time>
      </trkpt>
      <trkpt lat="48.35384" lon="2.72806">
        <ele>81.85</ele>
        <time>2012-07-05T14:16:37Z</time>
      </trkpt>
      <trkpt lat="48.35389" lon="2.72798">
        <ele>80.89</ele>
        <time>2012-07-05T14:16:45Z</time>
      </trkpt>
      <trkpt lat="48.35394" lon="2.72788">
        <ele>81.85</ele>
        <time>2012-07-05T14:16:58Z</time>
      </trkpt>
      <trkpt lat="48.35398" lon="2.72782">
        <ele>81.37</ele>
        <time>2012-07-05T14:17:02Z</time>
      </trkpt>
    </trkseg>
  </trk>
</gpx>